<?xml version="1.0" encoding="UTF-8" standalone="no" ?><gpx xmlns="http://www.topografix.com/GPX/1/1" xmlns:gpxx="http://www.garmin.com/xmlschemas/GpxExtensions/v3" xmlns:wptx1="http://www.garmin.com/xmlschemas/WaypointExtension/v1" xmlns:gpxtpx="http://www.garmin.com/xmlschemas/TrackPointExtension/v1" creator="GuideVTT.com" version="1.1" xmlns:xsi="http://www.w3.org/2001/XMLSchema-instance" xsi:schemaLocation="http://www.topografix.com/GPX/1/1 http://www.topografix.com/GPX/1/1/gpx.xsd http://www.garmin.com/xmlschemas/GpxExtensions/v3 http://www8.garmin.com/xmlschemas/GpxExtensionsv3.xsd http://www.garmin.com/xmlschemas/WaypointExtension/v1 http://www8.garmin.com/xmlschemas/WaypointExtensionv1.xsd http://www.garmin.com/xmlschemas/TrackPointExtension/v1 http://www.garmin.com/xmlschemas/TrackPointExtensionv1.xsd">
<metadata><link href="http://www.garmin.com"><text>Garmin International</text></link><time>2013-06-22T15:13:50Z</time></metadata>
<trk><name>2023rp11.gpx</name><extensions><gpxx:TrackExtension><gpxx:DisplayColor>Cyan</gpxx:DisplayColor></gpxx:TrackExtension></extensions><trkseg>
<trkpt lat="46.22465" lon="7.28376"><ele></ele><time>2023-7-27T22:31:35Z</time></trkpt>
<trkpt lat="46.22487" lon="7.2836"><ele></ele><time>2023-7-27T22:31:38Z</time></trkpt>
<trkpt lat="46.22497" lon="7.28356"><ele></ele><time>2023-7-27T22:31:41Z</time></trkpt>
<trkpt lat="46.22491" lon="7.28354"><ele></ele><time>2023-7-27T22:31:44Z</time></trkpt>
<trkpt lat="46.22471" lon="7.28364"><ele></ele><time>2023-7-27T22:31:47Z</time></trkpt>
<trkpt lat="46.22467" lon="7.28368"><ele></ele><time>2023-7-27T22:31:50Z</time></trkpt>
<trkpt lat="46.22463" lon="7.2838"><ele></ele><time>2023-7-27T22:31:53Z</time></trkpt>
<trkpt lat="46.22464" lon="7.28395"><ele></ele><time>2023-7-27T22:31:56Z</time></trkpt>
<trkpt lat="46.22467" lon="7.28402"><ele></ele><time>2023-7-27T22:31:59Z</time></trkpt>
<trkpt lat="46.2248" lon="7.28457"><ele></ele><time>2023-7-27T22:32:2Z</time></trkpt>
<trkpt lat="46.22484" lon="7.2851"><ele></ele><time>2023-7-27T22:32:5Z</time></trkpt>
<trkpt lat="46.22486" lon="7.28595"><ele></ele><time>2023-7-27T22:32:8Z</time></trkpt>
<trkpt lat="46.22487" lon="7.28669"><ele></ele><time>2023-7-27T22:32:11Z</time></trkpt>
<trkpt lat="46.22489" lon="7.28755"><ele></ele><time>2023-7-27T22:32:14Z</time></trkpt>
<trkpt lat="46.2249" lon="7.28812"><ele></ele><time>2023-7-27T22:32:17Z</time></trkpt>
<trkpt lat="46.22491" lon="7.28888"><ele></ele><time>2023-7-27T22:32:20Z</time></trkpt>
<trkpt lat="46.22482" lon="7.2896"><ele></ele><time>2023-7-27T22:32:23Z</time></trkpt>
<trkpt lat="46.22477" lon="7.2902"><ele></ele><time>2023-7-27T22:32:26Z</time></trkpt>
<trkpt lat="46.22476" lon="7.29028"><ele></ele><time>2023-7-27T22:32:29Z</time></trkpt>
<trkpt lat="46.22471" lon="7.29077"><ele></ele><time>2023-7-27T22:32:32Z</time></trkpt>
<trkpt lat="46.22466" lon="7.29109"><ele></ele><time>2023-7-27T22:32:35Z</time></trkpt>
<trkpt lat="46.2246" lon="7.29177"><ele></ele><time>2023-7-27T22:32:38Z</time></trkpt>
<trkpt lat="46.22451" lon="7.29248"><ele></ele><time>2023-7-27T22:32:41Z</time></trkpt>
<trkpt lat="46.22446" lon="7.29291"><ele></ele><time>2023-7-27T22:32:44Z</time></trkpt>
<trkpt lat="46.22446" lon="7.293"><ele></ele><time>2023-7-27T22:32:47Z</time></trkpt>
<trkpt lat="46.22445" lon="7.29309"><ele></ele><time>2023-7-27T22:32:50Z</time></trkpt>
<trkpt lat="46.22438" lon="7.29386"><ele></ele><time>2023-7-27T22:32:53Z</time></trkpt>
<trkpt lat="46.22431" lon="7.29448"><ele></ele><time>2023-7-27T22:32:56Z</time></trkpt>
<trkpt lat="46.2243" lon="7.29455"><ele></ele><time>2023-7-27T22:32:59Z</time></trkpt>
<trkpt lat="46.22432" lon="7.29473"><ele></ele><time>2023-7-27T22:33:2Z</time></trkpt>
<trkpt lat="46.22439" lon="7.29473"><ele></ele><time>2023-7-27T22:33:5Z</time></trkpt>
<trkpt lat="46.22443" lon="7.29471"><ele></ele><time>2023-7-27T22:33:8Z</time></trkpt>
<trkpt lat="46.22467" lon="7.2945"><ele></ele><time>2023-7-27T22:33:11Z</time></trkpt>
<trkpt lat="46.2248" lon="7.2944"><ele></ele><time>2023-7-27T22:33:14Z</time></trkpt>
<trkpt lat="46.22492" lon="7.29432"><ele></ele><time>2023-7-27T22:33:17Z</time></trkpt>
<trkpt lat="46.225" lon="7.29424"><ele></ele><time>2023-7-27T22:33:20Z</time></trkpt>
<trkpt lat="46.2252" lon="7.29407"><ele></ele><time>2023-7-27T22:33:23Z</time></trkpt>
<trkpt lat="46.22523" lon="7.29407"><ele></ele><time>2023-7-27T22:33:26Z</time></trkpt>
<trkpt lat="46.22535" lon="7.29411"><ele></ele><time>2023-7-27T22:33:29Z</time></trkpt>
<trkpt lat="46.2254" lon="7.2941"><ele></ele><time>2023-7-27T22:33:32Z</time></trkpt>
<trkpt lat="46.22545" lon="7.29407"><ele></ele><time>2023-7-27T22:33:35Z</time></trkpt>
<trkpt lat="46.22562" lon="7.29399"><ele></ele><time>2023-7-27T22:33:38Z</time></trkpt>
<trkpt lat="46.22593" lon="7.294"><ele></ele><time>2023-7-27T22:33:41Z</time></trkpt>
<trkpt lat="46.22605" lon="7.29401"><ele></ele><time>2023-7-27T22:33:44Z</time></trkpt>
<trkpt lat="46.22626" lon="7.29405"><ele></ele><time>2023-7-27T22:33:47Z</time></trkpt>
<trkpt lat="46.22637" lon="7.29407"><ele></ele><time>2023-7-27T22:33:50Z</time></trkpt>
<trkpt lat="46.22673" lon="7.29416"><ele></ele><time>2023-7-27T22:33:53Z</time></trkpt>
<trkpt lat="46.22713" lon="7.29434"><ele></ele><time>2023-7-27T22:33:56Z</time></trkpt>
<trkpt lat="46.22723" lon="7.29446"><ele></ele><time>2023-7-27T22:33:59Z</time></trkpt>
<trkpt lat="46.22727" lon="7.29453"><ele></ele><time>2023-7-27T22:34:2Z</time></trkpt>
<trkpt lat="46.22733" lon="7.29455"><ele></ele><time>2023-7-27T22:34:5Z</time></trkpt>
<trkpt lat="46.22737" lon="7.29448"><ele></ele><time>2023-7-27T22:34:8Z</time></trkpt>
<trkpt lat="46.22737" lon="7.29438"><ele></ele><time>2023-7-27T22:34:11Z</time></trkpt>
<trkpt lat="46.22737" lon="7.29437"><ele></ele><time>2023-7-27T22:34:14Z</time></trkpt>
<trkpt lat="46.22738" lon="7.29435"><ele></ele><time>2023-7-27T22:34:17Z</time></trkpt>
<trkpt lat="46.22738" lon="7.29435"><ele></ele><time>2023-7-27T22:34:20Z</time></trkpt>
<trkpt lat="46.22738" lon="7.29435"><ele></ele><time>2023-7-27T22:34:23Z</time></trkpt>
<trkpt lat="46.22738" lon="7.29434"><ele></ele><time>2023-7-27T22:34:26Z</time></trkpt>
<trkpt lat="46.22738" lon="7.29435"><ele></ele><time>2023-7-27T22:34:29Z</time></trkpt>
<trkpt lat="46.22738" lon="7.29435"><ele></ele><time>2023-7-27T22:34:32Z</time></trkpt>
<trkpt lat="46.22738" lon="7.29434"><ele></ele><time>2023-7-27T22:34:35Z</time></trkpt>
<trkpt lat="46.22738" lon="7.29434"><ele></ele><time>2023-7-27T22:34:38Z</time></trkpt>
<trkpt lat="46.22738" lon="7.29435"><ele></ele><time>2023-7-27T22:34:41Z</time></trkpt>
<trkpt lat="46.22738" lon="7.29435"><ele></ele><time>2023-7-27T22:34:44Z</time></trkpt>
<trkpt lat="46.22738" lon="7.29435"><ele></ele><time>2023-7-27T22:34:47Z</time></trkpt>
<trkpt lat="46.22738" lon="7.29436"><ele></ele><time>2023-7-27T22:34:50Z</time></trkpt>
<trkpt lat="46.22738" lon="7.29436"><ele></ele><time>2023-7-27T22:34:53Z</time></trkpt>
<trkpt lat="46.22738" lon="7.29435"><ele></ele><time>2023-7-27T22:34:56Z</time></trkpt>
<trkpt lat="46.22739" lon="7.29436"><ele></ele><time>2023-7-27T22:34:59Z</time></trkpt>
<trkpt lat="46.22739" lon="7.29436"><ele></ele><time>2023-7-27T22:35:2Z</time></trkpt>
<trkpt lat="46.2274" lon="7.29435"><ele></ele><time>2023-7-27T22:35:5Z</time></trkpt>
<trkpt lat="46.22739" lon="7.29435"><ele></ele><time>2023-7-27T22:35:8Z</time></trkpt>
<trkpt lat="46.22739" lon="7.29435"><ele></ele><time>2023-7-27T22:35:11Z</time></trkpt>
<trkpt lat="46.22738" lon="7.29435"><ele></ele><time>2023-7-27T22:35:14Z</time></trkpt>
<trkpt lat="46.22737" lon="7.29435"><ele></ele><time>2023-7-27T22:35:17Z</time></trkpt>
<trkpt lat="46.22737" lon="7.29435"><ele></ele><time>2023-7-27T22:35:20Z</time></trkpt>
<trkpt lat="46.22738" lon="7.29435"><ele></ele><time>2023-7-27T22:35:23Z</time></trkpt>
<trkpt lat="46.22738" lon="7.29435"><ele></ele><time>2023-7-27T22:35:26Z</time></trkpt>
<trkpt lat="46.22738" lon="7.29435"><ele></ele><time>2023-7-27T22:35:29Z</time></trkpt>
<trkpt lat="46.22738" lon="7.29435"><ele></ele><time>2023-7-27T22:35:32Z</time></trkpt>
<trkpt lat="46.22737" lon="7.29435"><ele></ele><time>2023-7-27T22:35:35Z</time></trkpt>
<trkpt lat="46.22737" lon="7.29434"><ele></ele><time>2023-7-27T22:35:38Z</time></trkpt>
<trkpt lat="46.22737" lon="7.29436"><ele></ele><time>2023-7-27T22:35:41Z</time></trkpt>
<trkpt lat="46.22738" lon="7.29435"><ele></ele><time>2023-7-27T22:35:44Z</time></trkpt>
<trkpt lat="46.22738" lon="7.29435"><ele></ele><time>2023-7-27T22:35:47Z</time></trkpt>
<trkpt lat="46.22738" lon="7.29434"><ele></ele><time>2023-7-27T22:35:50Z</time></trkpt>
<trkpt lat="46.22738" lon="7.29435"><ele></ele><time>2023-7-27T22:35:53Z</time></trkpt>
<trkpt lat="46.22738" lon="7.29435"><ele></ele><time>2023-7-27T22:35:56Z</time></trkpt>
<trkpt lat="46.22738" lon="7.29436"><ele></ele><time>2023-7-27T22:35:59Z</time></trkpt>
<trkpt lat="46.22738" lon="7.29436"><ele></ele><time>2023-7-27T22:36:2Z</time></trkpt>
<trkpt lat="46.22738" lon="7.29436"><ele></ele><time>2023-7-27T22:36:5Z</time></trkpt>
<trkpt lat="46.22738" lon="7.29436"><ele></ele><time>2023-7-27T22:36:8Z</time></trkpt>
<trkpt lat="46.22738" lon="7.29436"><ele></ele><time>2023-7-27T22:36:11Z</time></trkpt>
<trkpt lat="46.22737" lon="7.29435"><ele></ele><time>2023-7-27T22:36:14Z</time></trkpt>
<trkpt lat="46.22737" lon="7.29435"><ele></ele><time>2023-7-27T22:36:17Z</time></trkpt>
<trkpt lat="46.22738" lon="7.29435"><ele></ele><time>2023-7-27T22:36:20Z</time></trkpt>
<trkpt lat="46.22738" lon="7.29435"><ele></ele><time>2023-7-27T22:36:23Z</time></trkpt>
<trkpt lat="46.22738" lon="7.29435"><ele></ele><time>2023-7-27T22:36:26Z</time></trkpt>
<trkpt lat="46.22738" lon="7.29436"><ele></ele><time>2023-7-27T22:36:29Z</time></trkpt>
<trkpt lat="46.22739" lon="7.29436"><ele></ele><time>2023-7-27T22:36:32Z</time></trkpt>
<trkpt lat="46.22739" lon="7.29436"><ele></ele><time>2023-7-27T22:36:35Z</time></trkpt>
<trkpt lat="46.22737" lon="7.29436"><ele></ele><time>2023-7-27T22:36:38Z</time></trkpt>
<trkpt lat="46.22737" lon="7.29436"><ele></ele><time>2023-7-27T22:36:41Z</time></trkpt>
<trkpt lat="46.22737" lon="7.29436"><ele></ele><time>2023-7-27T22:36:44Z</time></trkpt>
<trkpt lat="46.22737" lon="7.29436"><ele></ele><time>2023-7-27T22:36:47Z</time></trkpt>
<trkpt lat="46.22737" lon="7.29436"><ele></ele><time>2023-7-27T22:36:50Z</time></trkpt>
<trkpt lat="46.22738" lon="7.29436"><ele></ele><time>2023-7-27T22:36:53Z</time></trkpt>
<trkpt lat="46.22737" lon="7.29436"><ele></ele><time>2023-7-27T22:36:56Z</time></trkpt>
<trkpt lat="46.22737" lon="7.29436"><ele></ele><time>2023-7-27T22:36:59Z</time></trkpt>
<trkpt lat="46.22737" lon="7.29436"><ele></ele><time>2023-7-27T22:37:2Z</time></trkpt>
<trkpt lat="46.22737" lon="7.29436"><ele></ele><time>2023-7-27T22:37:5Z</time></trkpt>
<trkpt lat="46.22737" lon="7.29436"><ele></ele><time>2023-7-27T22:37:8Z</time></trkpt>
<trkpt lat="46.22737" lon="7.29436"><ele></ele><time>2023-7-27T22:37:11Z</time></trkpt>
<trkpt lat="46.22737" lon="7.29436"><ele></ele><time>2023-7-27T22:37:14Z</time></trkpt>
<trkpt lat="46.22737" lon="7.29435"><ele></ele><time>2023-7-27T22:37:17Z</time></trkpt>
<trkpt lat="46.22736" lon="7.29435"><ele></ele><time>2023-7-27T22:37:20Z</time></trkpt>
<trkpt lat="46.22736" lon="7.29434"><ele></ele><time>2023-7-27T22:37:23Z</time></trkpt>
<trkpt lat="46.22737" lon="7.29434"><ele></ele><time>2023-7-27T22:37:26Z</time></trkpt>
<trkpt lat="46.22738" lon="7.29434"><ele></ele><time>2023-7-27T22:37:29Z</time></trkpt>
<trkpt lat="46.22738" lon="7.29434"><ele></ele><time>2023-7-27T22:37:32Z</time></trkpt>
<trkpt lat="46.22738" lon="7.29434"><ele></ele><time>2023-7-27T22:37:35Z</time></trkpt>
<trkpt lat="46.22738" lon="7.29434"><ele></ele><time>2023-7-27T22:37:38Z</time></trkpt>
<trkpt lat="46.22737" lon="7.29433"><ele></ele><time>2023-7-27T22:37:41Z</time></trkpt>
<trkpt lat="46.22737" lon="7.29434"><ele></ele><time>2023-7-27T22:37:44Z</time></trkpt>
<trkpt lat="46.22737" lon="7.29434"><ele></ele><time>2023-7-27T22:37:47Z</time></trkpt>
<trkpt lat="46.22737" lon="7.29434"><ele></ele><time>2023-7-27T22:37:50Z</time></trkpt>
<trkpt lat="46.22737" lon="7.29434"><ele></ele><time>2023-7-27T22:37:53Z</time></trkpt>
<trkpt lat="46.22736" lon="7.29435"><ele></ele><time>2023-7-27T22:37:56Z</time></trkpt>
<trkpt lat="46.22737" lon="7.29435"><ele></ele><time>2023-7-27T22:37:59Z</time></trkpt>
<trkpt lat="46.22737" lon="7.29435"><ele></ele><time>2023-7-27T22:38:2Z</time></trkpt>
<trkpt lat="46.22737" lon="7.29436"><ele></ele><time>2023-7-27T22:38:5Z</time></trkpt>
<trkpt lat="46.22737" lon="7.29436"><ele></ele><time>2023-7-27T22:38:8Z</time></trkpt>
<trkpt lat="46.22737" lon="7.29436"><ele></ele><time>2023-7-27T22:38:11Z</time></trkpt>
<trkpt lat="46.22737" lon="7.29436"><ele></ele><time>2023-7-27T22:38:14Z</time></trkpt>
<trkpt lat="46.22737" lon="7.29436"><ele></ele><time>2023-7-27T22:38:17Z</time></trkpt>
<trkpt lat="46.22737" lon="7.29436"><ele></ele><time>2023-7-27T22:38:20Z</time></trkpt>
<trkpt lat="46.22737" lon="7.29436"><ele></ele><time>2023-7-27T22:38:23Z</time></trkpt>
<trkpt lat="46.22739" lon="7.29437"><ele></ele><time>2023-7-27T22:38:26Z</time></trkpt>
<trkpt lat="46.22739" lon="7.29437"><ele></ele><time>2023-7-27T22:38:29Z</time></trkpt>
<trkpt lat="46.22738" lon="7.29436"><ele></ele><time>2023-7-27T22:38:32Z</time></trkpt>
<trkpt lat="46.22737" lon="7.29436"><ele></ele><time>2023-7-27T22:38:35Z</time></trkpt>
<trkpt lat="46.22737" lon="7.29436"><ele></ele><time>2023-7-27T22:38:38Z</time></trkpt>
<trkpt lat="46.22736" lon="7.29436"><ele></ele><time>2023-7-27T22:38:41Z</time></trkpt>
<trkpt lat="46.22737" lon="7.29437"><ele></ele><time>2023-7-27T22:38:44Z</time></trkpt>
<trkpt lat="46.22736" lon="7.29436"><ele></ele><time>2023-7-27T22:38:47Z</time></trkpt>
<trkpt lat="46.22736" lon="7.29436"><ele></ele><time>2023-7-27T22:38:50Z</time></trkpt>
<trkpt lat="46.22737" lon="7.29436"><ele></ele><time>2023-7-27T22:38:53Z</time></trkpt>
<trkpt lat="46.22736" lon="7.29435"><ele></ele><time>2023-7-27T22:38:56Z</time></trkpt>
<trkpt lat="46.22735" lon="7.29433"><ele></ele><time>2023-7-27T22:38:59Z</time></trkpt>
<trkpt lat="46.22736" lon="7.29432"><ele></ele><time>2023-7-27T22:39:2Z</time></trkpt>
<trkpt lat="46.22736" lon="7.29433"><ele></ele><time>2023-7-27T22:39:5Z</time></trkpt>
<trkpt lat="46.22737" lon="7.29434"><ele></ele><time>2023-7-27T22:39:8Z</time></trkpt>
<trkpt lat="46.22737" lon="7.29435"><ele></ele><time>2023-7-27T22:39:11Z</time></trkpt>
<trkpt lat="46.22737" lon="7.29435"><ele></ele><time>2023-7-27T22:39:14Z</time></trkpt>
<trkpt lat="46.22737" lon="7.29435"><ele></ele><time>2023-7-27T22:39:17Z</time></trkpt>
<trkpt lat="46.22738" lon="7.29435"><ele></ele><time>2023-7-27T22:39:20Z</time></trkpt>
<trkpt lat="46.22737" lon="7.29436"><ele></ele><time>2023-7-27T22:39:23Z</time></trkpt>
<trkpt lat="46.22738" lon="7.29436"><ele></ele><time>2023-7-27T22:39:26Z</time></trkpt>
<trkpt lat="46.22738" lon="7.29439"><ele></ele><time>2023-7-27T22:39:29Z</time></trkpt>
<trkpt lat="46.22739" lon="7.2944"><ele></ele><time>2023-7-27T22:39:32Z</time></trkpt>
<trkpt lat="46.22737" lon="7.29443"><ele></ele><time>2023-7-27T22:39:35Z</time></trkpt>
<trkpt lat="46.22737" lon="7.29446"><ele></ele><time>2023-7-27T22:39:38Z</time></trkpt>
<trkpt lat="46.22741" lon="7.29468"><ele></ele><time>2023-7-27T22:39:41Z</time></trkpt>
<trkpt lat="46.22744" lon="7.29473"><ele></ele><time>2023-7-27T22:39:44Z</time></trkpt>
<trkpt lat="46.22748" lon="7.29475"><ele></ele><time>2023-7-27T22:39:47Z</time></trkpt>
<trkpt lat="46.22752" lon="7.29479"><ele></ele><time>2023-7-27T22:39:50Z</time></trkpt>
<trkpt lat="46.22774" lon="7.29489"><ele></ele><time>2023-7-27T22:39:53Z</time></trkpt>
<trkpt lat="46.2278" lon="7.2949"><ele></ele><time>2023-7-27T22:39:56Z</time></trkpt>
<trkpt lat="46.22802" lon="7.29495"><ele></ele><time>2023-7-27T22:39:59Z</time></trkpt>
<trkpt lat="46.22819" lon="7.29497"><ele></ele><time>2023-7-27T22:40:2Z</time></trkpt>
<trkpt lat="46.22825" lon="7.29498"><ele></ele><time>2023-7-27T22:40:5Z</time></trkpt>
<trkpt lat="46.22836" lon="7.29502"><ele></ele><time>2023-7-27T22:40:8Z</time></trkpt>
<trkpt lat="46.22845" lon="7.29513"><ele></ele><time>2023-7-27T22:40:11Z</time></trkpt>
<trkpt lat="46.22871" lon="7.29561"><ele></ele><time>2023-7-27T22:40:14Z</time></trkpt>
<trkpt lat="46.22874" lon="7.29569"><ele></ele><time>2023-7-27T22:40:17Z</time></trkpt>
<trkpt lat="46.22878" lon="7.29585"><ele></ele><time>2023-7-27T22:40:20Z</time></trkpt>
<trkpt lat="46.22879" lon="7.29594"><ele></ele><time>2023-7-27T22:40:23Z</time></trkpt>
<trkpt lat="46.22881" lon="7.29603"><ele></ele><time>2023-7-27T22:40:26Z</time></trkpt>
<trkpt lat="46.22882" lon="7.2962"><ele></ele><time>2023-7-27T22:40:29Z</time></trkpt>
<trkpt lat="46.22884" lon="7.29645"><ele></ele><time>2023-7-27T22:40:32Z</time></trkpt>
<trkpt lat="46.22884" lon="7.29654"><ele></ele><time>2023-7-27T22:40:35Z</time></trkpt>
<trkpt lat="46.22889" lon="7.29678"><ele></ele><time>2023-7-27T22:40:38Z</time></trkpt>
<trkpt lat="46.22893" lon="7.29703"><ele></ele><time>2023-7-27T22:40:41Z</time></trkpt>
<trkpt lat="46.22895" lon="7.2971"><ele></ele><time>2023-7-27T22:40:44Z</time></trkpt>
<trkpt lat="46.229" lon="7.29725"><ele></ele><time>2023-7-27T22:40:47Z</time></trkpt>
<trkpt lat="46.22902" lon="7.29732"><ele></ele><time>2023-7-27T22:40:50Z</time></trkpt>
<trkpt lat="46.22906" lon="7.29746"><ele></ele><time>2023-7-27T22:40:53Z</time></trkpt>
<trkpt lat="46.22914" lon="7.29775"><ele></ele><time>2023-7-27T22:40:56Z</time></trkpt>
<trkpt lat="46.22925" lon="7.29814"><ele></ele><time>2023-7-27T22:40:59Z</time></trkpt>
<trkpt lat="46.22927" lon="7.29831"><ele></ele><time>2023-7-27T22:41:2Z</time></trkpt>
<trkpt lat="46.22928" lon="7.29883"><ele></ele><time>2023-7-27T22:41:5Z</time></trkpt>
<trkpt lat="46.22928" lon="7.29891"><ele></ele><time>2023-7-27T22:41:8Z</time></trkpt>
<trkpt lat="46.22931" lon="7.29907"><ele></ele><time>2023-7-27T22:41:11Z</time></trkpt>
<trkpt lat="46.22933" lon="7.29914"><ele></ele><time>2023-7-27T22:41:14Z</time></trkpt>
<trkpt lat="46.22947" lon="7.29952"><ele></ele><time>2023-7-27T22:41:17Z</time></trkpt>
<trkpt lat="46.22952" lon="7.29967"><ele></ele><time>2023-7-27T22:41:20Z</time></trkpt>
<trkpt lat="46.22971" lon="7.3003"><ele></ele><time>2023-7-27T22:41:23Z</time></trkpt>
<trkpt lat="46.22977" lon="7.30054"><ele></ele><time>2023-7-27T22:41:26Z</time></trkpt>
<trkpt lat="46.22987" lon="7.30085"><ele></ele><time>2023-7-27T22:41:29Z</time></trkpt>
<trkpt lat="46.22993" lon="7.30115"><ele></ele><time>2023-7-27T22:41:32Z</time></trkpt>
<trkpt lat="46.22995" lon="7.3014"><ele></ele><time>2023-7-27T22:41:35Z</time></trkpt>
<trkpt lat="46.22995" lon="7.30157"><ele></ele><time>2023-7-27T22:41:38Z</time></trkpt>
<trkpt lat="46.22996" lon="7.30207"><ele></ele><time>2023-7-27T22:41:41Z</time></trkpt>
<trkpt lat="46.22998" lon="7.30281"><ele></ele><time>2023-7-27T22:41:44Z</time></trkpt>
<trkpt lat="46.22998" lon="7.30289"><ele></ele><time>2023-7-27T22:41:47Z</time></trkpt>
<trkpt lat="46.23001" lon="7.30338"><ele></ele><time>2023-7-27T22:41:50Z</time></trkpt>
<trkpt lat="46.23012" lon="7.30389"><ele></ele><time>2023-7-27T22:41:53Z</time></trkpt>
<trkpt lat="46.2302" lon="7.30435"><ele></ele><time>2023-7-27T22:41:56Z</time></trkpt>
<trkpt lat="46.23025" lon="7.30451"><ele></ele><time>2023-7-27T22:41:59Z</time></trkpt>
<trkpt lat="46.23038" lon="7.30497"><ele></ele><time>2023-7-27T22:42:2Z</time></trkpt>
<trkpt lat="46.2304" lon="7.30504"><ele></ele><time>2023-7-27T22:42:5Z</time></trkpt>
<trkpt lat="46.2305" lon="7.30551"><ele></ele><time>2023-7-27T22:42:8Z</time></trkpt>
<trkpt lat="46.23059" lon="7.3058"><ele></ele><time>2023-7-27T22:42:11Z</time></trkpt>
<trkpt lat="46.23068" lon="7.3061"><ele></ele><time>2023-7-27T22:42:14Z</time></trkpt>
<trkpt lat="46.23077" lon="7.30659"><ele></ele><time>2023-7-27T22:42:17Z</time></trkpt>
<trkpt lat="46.23078" lon="7.30672"><ele></ele><time>2023-7-27T22:42:20Z</time></trkpt>
<trkpt lat="46.23085" lon="7.30705"><ele></ele><time>2023-7-27T22:42:23Z</time></trkpt>
<trkpt lat="46.23092" lon="7.30738"><ele></ele><time>2023-7-27T22:42:26Z</time></trkpt>
<trkpt lat="46.23095" lon="7.30751"><ele></ele><time>2023-7-27T22:42:29Z</time></trkpt>
<trkpt lat="46.23104" lon="7.30784"><ele></ele><time>2023-7-27T22:42:32Z</time></trkpt>
<trkpt lat="46.23111" lon="7.30803"><ele></ele><time>2023-7-27T22:42:35Z</time></trkpt>
<trkpt lat="46.23133" lon="7.30845"><ele></ele><time>2023-7-27T22:42:38Z</time></trkpt>
<trkpt lat="46.23136" lon="7.30851"><ele></ele><time>2023-7-27T22:42:41Z</time></trkpt>
<trkpt lat="46.23147" lon="7.30874"><ele></ele><time>2023-7-27T22:42:44Z</time></trkpt>
<trkpt lat="46.23147" lon="7.30882"><ele></ele><time>2023-7-27T22:42:47Z</time></trkpt>
<trkpt lat="46.23148" lon="7.30896"><ele></ele><time>2023-7-27T22:42:50Z</time></trkpt>
<trkpt lat="46.23154" lon="7.3091"><ele></ele><time>2023-7-27T22:42:53Z</time></trkpt>
<trkpt lat="46.23156" lon="7.30917"><ele></ele><time>2023-7-27T22:42:56Z</time></trkpt>
<trkpt lat="46.23158" lon="7.30932"><ele></ele><time>2023-7-27T22:42:59Z</time></trkpt>
<trkpt lat="46.23158" lon="7.3094"><ele></ele><time>2023-7-27T22:43:2Z</time></trkpt>
<trkpt lat="46.23159" lon="7.30962"><ele></ele><time>2023-7-27T22:43:5Z</time></trkpt>
<trkpt lat="46.2316" lon="7.30984"><ele></ele><time>2023-7-27T22:43:8Z</time></trkpt>
<trkpt lat="46.23161" lon="7.30991"><ele></ele><time>2023-7-27T22:43:11Z</time></trkpt>
<trkpt lat="46.23165" lon="7.31006"><ele></ele><time>2023-7-27T22:43:14Z</time></trkpt>
<trkpt lat="46.23168" lon="7.31012"><ele></ele><time>2023-7-27T22:43:17Z</time></trkpt>
<trkpt lat="46.23174" lon="7.31025"><ele></ele><time>2023-7-27T22:43:20Z</time></trkpt>
<trkpt lat="46.23186" lon="7.31051"><ele></ele><time>2023-7-27T22:43:23Z</time></trkpt>
<trkpt lat="46.23208" lon="7.31103"><ele></ele><time>2023-7-27T22:43:26Z</time></trkpt>
<trkpt lat="46.23215" lon="7.31122"><ele></ele><time>2023-7-27T22:43:29Z</time></trkpt>
<trkpt lat="46.23227" lon="7.31139"><ele></ele><time>2023-7-27T22:43:32Z</time></trkpt>
<trkpt lat="46.23231" lon="7.31148"><ele></ele><time>2023-7-27T22:43:35Z</time></trkpt>
<trkpt lat="46.23234" lon="7.31158"><ele></ele><time>2023-7-27T22:43:38Z</time></trkpt>
<trkpt lat="46.23244" lon="7.31196"><ele></ele><time>2023-7-27T22:43:41Z</time></trkpt>
<trkpt lat="46.23253" lon="7.31232"><ele></ele><time>2023-7-27T22:43:44Z</time></trkpt>
<trkpt lat="46.23256" lon="7.31236"><ele></ele><time>2023-7-27T22:43:47Z</time></trkpt>
<trkpt lat="46.23268" lon="7.31241"><ele></ele><time>2023-7-27T22:43:50Z</time></trkpt>
<trkpt lat="46.23282" lon="7.31237"><ele></ele><time>2023-7-27T22:43:53Z</time></trkpt>
<trkpt lat="46.23289" lon="7.31234"><ele></ele><time>2023-7-27T22:43:56Z</time></trkpt>
<trkpt lat="46.23327" lon="7.31217"><ele></ele><time>2023-7-27T22:43:59Z</time></trkpt>
<trkpt lat="46.23331" lon="7.31216"><ele></ele><time>2023-7-27T22:44:2Z</time></trkpt>
<trkpt lat="46.23376" lon="7.31196"><ele></ele><time>2023-7-27T22:44:5Z</time></trkpt>
<trkpt lat="46.23409" lon="7.31182"><ele></ele><time>2023-7-27T22:44:8Z</time></trkpt>
<trkpt lat="46.23427" lon="7.31173"><ele></ele><time>2023-7-27T22:44:11Z</time></trkpt>
<trkpt lat="46.23442" lon="7.31169"><ele></ele><time>2023-7-27T22:44:14Z</time></trkpt>
<trkpt lat="46.23445" lon="7.31169"><ele></ele><time>2023-7-27T22:44:17Z</time></trkpt>
<trkpt lat="46.23457" lon="7.31171"><ele></ele><time>2023-7-27T22:44:20Z</time></trkpt>
<trkpt lat="46.23461" lon="7.31174"><ele></ele><time>2023-7-27T22:44:23Z</time></trkpt>
<trkpt lat="46.23464" lon="7.31176"><ele></ele><time>2023-7-27T22:44:26Z</time></trkpt>
<trkpt lat="46.23471" lon="7.31185"><ele></ele><time>2023-7-27T22:44:29Z</time></trkpt>
<trkpt lat="46.23482" lon="7.31198"><ele></ele><time>2023-7-27T22:44:32Z</time></trkpt>
<trkpt lat="46.23486" lon="7.31204"><ele></ele><time>2023-7-27T22:44:35Z</time></trkpt>
<trkpt lat="46.23487" lon="7.31206"><ele></ele><time>2023-7-27T22:44:38Z</time></trkpt>
<trkpt lat="46.23495" lon="7.31217"><ele></ele><time>2023-7-27T22:44:41Z</time></trkpt>
<trkpt lat="46.23499" lon="7.31221"><ele></ele><time>2023-7-27T22:44:44Z</time></trkpt>
<trkpt lat="46.23504" lon="7.31226"><ele></ele><time>2023-7-27T22:44:47Z</time></trkpt>
<trkpt lat="46.23514" lon="7.31236"><ele></ele><time>2023-7-27T22:44:50Z</time></trkpt>
<trkpt lat="46.23517" lon="7.31239"><ele></ele><time>2023-7-27T22:44:53Z</time></trkpt>
<trkpt lat="46.23524" lon="7.31247"><ele></ele><time>2023-7-27T22:44:56Z</time></trkpt>
<trkpt lat="46.23529" lon="7.3125"><ele></ele><time>2023-7-27T22:44:59Z</time></trkpt>
<trkpt lat="46.23536" lon="7.31256"><ele></ele><time>2023-7-27T22:45:2Z</time></trkpt>
<trkpt lat="46.23543" lon="7.31261"><ele></ele><time>2023-7-27T22:45:5Z</time></trkpt>
<trkpt lat="46.23548" lon="7.31265"><ele></ele><time>2023-7-27T22:45:8Z</time></trkpt>
<trkpt lat="46.23556" lon="7.31271"><ele></ele><time>2023-7-27T22:45:11Z</time></trkpt>
<trkpt lat="46.23558" lon="7.31272"><ele></ele><time>2023-7-27T22:45:14Z</time></trkpt>
<trkpt lat="46.23568" lon="7.3128"><ele></ele><time>2023-7-27T22:45:17Z</time></trkpt>
<trkpt lat="46.23574" lon="7.31285"><ele></ele><time>2023-7-27T22:45:20Z</time></trkpt>
<trkpt lat="46.23578" lon="7.31287"><ele></ele><time>2023-7-27T22:45:23Z</time></trkpt>
<trkpt lat="46.23587" lon="7.31295"><ele></ele><time>2023-7-27T22:45:26Z</time></trkpt>
<trkpt lat="46.23601" lon="7.31307"><ele></ele><time>2023-7-27T22:45:29Z</time></trkpt>
<trkpt lat="46.23603" lon="7.31308"><ele></ele><time>2023-7-27T22:45:32Z</time></trkpt>
<trkpt lat="46.23617" lon="7.31322"><ele></ele><time>2023-7-27T22:45:35Z</time></trkpt>
<trkpt lat="46.23631" lon="7.31335"><ele></ele><time>2023-7-27T22:45:38Z</time></trkpt>
<trkpt lat="46.23635" lon="7.31339"><ele></ele><time>2023-7-27T22:45:41Z</time></trkpt>
<trkpt lat="46.23648" lon="7.31352"><ele></ele><time>2023-7-27T22:45:44Z</time></trkpt>
<trkpt lat="46.23657" lon="7.3136"><ele></ele><time>2023-7-27T22:45:47Z</time></trkpt>
<trkpt lat="46.23658" lon="7.31362"><ele></ele><time>2023-7-27T22:45:50Z</time></trkpt>
<trkpt lat="46.2367" lon="7.31371"><ele></ele><time>2023-7-27T22:45:53Z</time></trkpt>
<trkpt lat="46.23674" lon="7.31376"><ele></ele><time>2023-7-27T22:45:56Z</time></trkpt>
<trkpt lat="46.23678" lon="7.31379"><ele></ele><time>2023-7-27T22:45:59Z</time></trkpt>
<trkpt lat="46.23686" lon="7.31387"><ele></ele><time>2023-7-27T22:46:2Z</time></trkpt>
<trkpt lat="46.23691" lon="7.31391"><ele></ele><time>2023-7-27T22:46:5Z</time></trkpt>
<trkpt lat="46.23693" lon="7.31392"><ele></ele><time>2023-7-27T22:46:8Z</time></trkpt>
<trkpt lat="46.23707" lon="7.31399"><ele></ele><time>2023-7-27T22:46:11Z</time></trkpt>
<trkpt lat="46.23709" lon="7.31399"><ele></ele><time>2023-7-27T22:46:14Z</time></trkpt>
<trkpt lat="46.23718" lon="7.31401"><ele></ele><time>2023-7-27T22:46:17Z</time></trkpt>
<trkpt lat="46.23724" lon="7.31402"><ele></ele><time>2023-7-27T22:46:20Z</time></trkpt>
<trkpt lat="46.23739" lon="7.31401"><ele></ele><time>2023-7-27T22:46:23Z</time></trkpt>
<trkpt lat="46.23741" lon="7.314"><ele></ele><time>2023-7-27T22:46:26Z</time></trkpt>
<trkpt lat="46.23756" lon="7.31399"><ele></ele><time>2023-7-27T22:46:29Z</time></trkpt>
<trkpt lat="46.23759" lon="7.31399"><ele></ele><time>2023-7-27T22:46:32Z</time></trkpt>
<trkpt lat="46.23767" lon="7.31401"><ele></ele><time>2023-7-27T22:46:35Z</time></trkpt>
<trkpt lat="46.23777" lon="7.31402"><ele></ele><time>2023-7-27T22:46:38Z</time></trkpt>
<trkpt lat="46.23787" lon="7.31405"><ele></ele><time>2023-7-27T22:46:41Z</time></trkpt>
<trkpt lat="46.23791" lon="7.31405"><ele></ele><time>2023-7-27T22:46:44Z</time></trkpt>
<trkpt lat="46.238" lon="7.31405"><ele></ele><time>2023-7-27T22:46:47Z</time></trkpt>
<trkpt lat="46.23807" lon="7.31406"><ele></ele><time>2023-7-27T22:46:50Z</time></trkpt>
<trkpt lat="46.23816" lon="7.31408"><ele></ele><time>2023-7-27T22:46:53Z</time></trkpt>
<trkpt lat="46.23826" lon="7.31411"><ele></ele><time>2023-7-27T22:46:56Z</time></trkpt>
<trkpt lat="46.23828" lon="7.31411"><ele></ele><time>2023-7-27T22:46:59Z</time></trkpt>
<trkpt lat="46.23844" lon="7.31414"><ele></ele><time>2023-7-27T22:47:2Z</time></trkpt>
<trkpt lat="46.23856" lon="7.31412"><ele></ele><time>2023-7-27T22:47:5Z</time></trkpt>
<trkpt lat="46.23862" lon="7.31411"><ele></ele><time>2023-7-27T22:47:8Z</time></trkpt>
<trkpt lat="46.23876" lon="7.31406"><ele></ele><time>2023-7-27T22:47:11Z</time></trkpt>
<trkpt lat="46.2388" lon="7.31405"><ele></ele><time>2023-7-27T22:47:14Z</time></trkpt>
<trkpt lat="46.23891" lon="7.31404"><ele></ele><time>2023-7-27T22:47:17Z</time></trkpt>
<trkpt lat="46.239" lon="7.31404"><ele></ele><time>2023-7-27T22:47:20Z</time></trkpt>
<trkpt lat="46.2391" lon="7.31408"><ele></ele><time>2023-7-27T22:47:23Z</time></trkpt>
<trkpt lat="46.23914" lon="7.31409"><ele></ele><time>2023-7-27T22:47:26Z</time></trkpt>
<trkpt lat="46.23919" lon="7.31413"><ele></ele><time>2023-7-27T22:47:29Z</time></trkpt>
<trkpt lat="46.23925" lon="7.31416"><ele></ele><time>2023-7-27T22:47:32Z</time></trkpt>
<trkpt lat="46.23929" lon="7.31417"><ele></ele><time>2023-7-27T22:47:35Z</time></trkpt>
<trkpt lat="46.23944" lon="7.31426"><ele></ele><time>2023-7-27T22:47:38Z</time></trkpt>
<trkpt lat="46.23947" lon="7.31427"><ele></ele><time>2023-7-27T22:47:41Z</time></trkpt>
<trkpt lat="46.23955" lon="7.31433"><ele></ele><time>2023-7-27T22:47:44Z</time></trkpt>
<trkpt lat="46.23958" lon="7.31436"><ele></ele><time>2023-7-27T22:47:47Z</time></trkpt>
<trkpt lat="46.23966" lon="7.31443"><ele></ele><time>2023-7-27T22:47:50Z</time></trkpt>
<trkpt lat="46.23975" lon="7.31447"><ele></ele><time>2023-7-27T22:47:53Z</time></trkpt>
<trkpt lat="46.2398" lon="7.31449"><ele></ele><time>2023-7-27T22:47:56Z</time></trkpt>
<trkpt lat="46.23987" lon="7.31452"><ele></ele><time>2023-7-27T22:47:59Z</time></trkpt>
<trkpt lat="46.23991" lon="7.31454"><ele></ele><time>2023-7-27T22:48:2Z</time></trkpt>
<trkpt lat="46.24003" lon="7.31459"><ele></ele><time>2023-7-27T22:48:5Z</time></trkpt>
<trkpt lat="46.24006" lon="7.3146"><ele></ele><time>2023-7-27T22:48:8Z</time></trkpt>
<trkpt lat="46.2402" lon="7.31465"><ele></ele><time>2023-7-27T22:48:11Z</time></trkpt>
<trkpt lat="46.24032" lon="7.31474"><ele></ele><time>2023-7-27T22:48:14Z</time></trkpt>
<trkpt lat="46.24033" lon="7.31477"><ele></ele><time>2023-7-27T22:48:17Z</time></trkpt>
<trkpt lat="46.24036" lon="7.31493"><ele></ele><time>2023-7-27T22:48:20Z</time></trkpt>
<trkpt lat="46.24035" lon="7.31496"><ele></ele><time>2023-7-27T22:48:23Z</time></trkpt>
<trkpt lat="46.24032" lon="7.31503"><ele></ele><time>2023-7-27T22:48:26Z</time></trkpt>
<trkpt lat="46.24024" lon="7.31513"><ele></ele><time>2023-7-27T22:48:29Z</time></trkpt>
<trkpt lat="46.24022" lon="7.31514"><ele></ele><time>2023-7-27T22:48:32Z</time></trkpt>
<trkpt lat="46.24014" lon="7.31521"><ele></ele><time>2023-7-27T22:48:35Z</time></trkpt>
<trkpt lat="46.24005" lon="7.31529"><ele></ele><time>2023-7-27T22:48:38Z</time></trkpt>
<trkpt lat="46.23998" lon="7.31536"><ele></ele><time>2023-7-27T22:48:41Z</time></trkpt>
<trkpt lat="46.23993" lon="7.3154"><ele></ele><time>2023-7-27T22:48:44Z</time></trkpt>
<trkpt lat="46.23982" lon="7.31552"><ele></ele><time>2023-7-27T22:48:47Z</time></trkpt>
<trkpt lat="46.2398" lon="7.31555"><ele></ele><time>2023-7-27T22:48:50Z</time></trkpt>
<trkpt lat="46.23979" lon="7.31557"><ele></ele><time>2023-7-27T22:48:53Z</time></trkpt>
<trkpt lat="46.23969" lon="7.31574"><ele></ele><time>2023-7-27T22:48:56Z</time></trkpt>
<trkpt lat="46.23958" lon="7.31592"><ele></ele><time>2023-7-27T22:48:59Z</time></trkpt>
<trkpt lat="46.23953" lon="7.31608"><ele></ele><time>2023-7-27T22:49:2Z</time></trkpt>
<trkpt lat="46.23954" lon="7.3161"><ele></ele><time>2023-7-27T22:49:5Z</time></trkpt>
<trkpt lat="46.23959" lon="7.31617"><ele></ele><time>2023-7-27T22:49:8Z</time></trkpt>
<trkpt lat="46.2396" lon="7.31618"><ele></ele><time>2023-7-27T22:49:11Z</time></trkpt>
<trkpt lat="46.23971" lon="7.31617"><ele></ele><time>2023-7-27T22:49:14Z</time></trkpt>
<trkpt lat="46.23973" lon="7.31617"><ele></ele><time>2023-7-27T22:49:17Z</time></trkpt>
<trkpt lat="46.23986" lon="7.31622"><ele></ele><time>2023-7-27T22:49:20Z</time></trkpt>
<trkpt lat="46.23995" lon="7.3163"><ele></ele><time>2023-7-27T22:49:23Z</time></trkpt>
<trkpt lat="46.23999" lon="7.31634"><ele></ele><time>2023-7-27T22:49:26Z</time></trkpt>
<trkpt lat="46.24005" lon="7.31638"><ele></ele><time>2023-7-27T22:49:29Z</time></trkpt>
<trkpt lat="46.24014" lon="7.31642"><ele></ele><time>2023-7-27T22:49:32Z</time></trkpt>
<trkpt lat="46.24017" lon="7.31642"><ele></ele><time>2023-7-27T22:49:35Z</time></trkpt>
<trkpt lat="46.24028" lon="7.31643"><ele></ele><time>2023-7-27T22:49:38Z</time></trkpt>
<trkpt lat="46.2403" lon="7.31643"><ele></ele><time>2023-7-27T22:49:41Z</time></trkpt>
<trkpt lat="46.24044" lon="7.31648"><ele></ele><time>2023-7-27T22:49:44Z</time></trkpt>
<trkpt lat="46.24055" lon="7.31653"><ele></ele><time>2023-7-27T22:49:47Z</time></trkpt>
<trkpt lat="46.2406" lon="7.31656"><ele></ele><time>2023-7-27T22:49:50Z</time></trkpt>
<trkpt lat="46.24063" lon="7.31658"><ele></ele><time>2023-7-27T22:49:53Z</time></trkpt>
<trkpt lat="46.24075" lon="7.31661"><ele></ele><time>2023-7-27T22:49:56Z</time></trkpt>
<trkpt lat="46.24079" lon="7.3166"><ele></ele><time>2023-7-27T22:49:59Z</time></trkpt>
<trkpt lat="46.2408" lon="7.31659"><ele></ele><time>2023-7-27T22:50:2Z</time></trkpt>
<trkpt lat="46.24091" lon="7.31652"><ele></ele><time>2023-7-27T22:50:5Z</time></trkpt>
<trkpt lat="46.24096" lon="7.31648"><ele></ele><time>2023-7-27T22:50:8Z</time></trkpt>
<trkpt lat="46.24102" lon="7.31642"><ele></ele><time>2023-7-27T22:50:11Z</time></trkpt>
<trkpt lat="46.24105" lon="7.3164"><ele></ele><time>2023-7-27T22:50:14Z</time></trkpt>
<trkpt lat="46.24113" lon="7.31639"><ele></ele><time>2023-7-27T22:50:17Z</time></trkpt>
<trkpt lat="46.24116" lon="7.3164"><ele></ele><time>2023-7-27T22:50:20Z</time></trkpt>
<trkpt lat="46.24125" lon="7.31646"><ele></ele><time>2023-7-27T22:50:23Z</time></trkpt>
<trkpt lat="46.24127" lon="7.31647"><ele></ele><time>2023-7-27T22:50:26Z</time></trkpt>
<trkpt lat="46.2414" lon="7.31655"><ele></ele><time>2023-7-27T22:50:29Z</time></trkpt>
<trkpt lat="46.24143" lon="7.31657"><ele></ele><time>2023-7-27T22:50:32Z</time></trkpt>
<trkpt lat="46.24147" lon="7.31659"><ele></ele><time>2023-7-27T22:50:35Z</time></trkpt>
<trkpt lat="46.24154" lon="7.31665"><ele></ele><time>2023-7-27T22:50:38Z</time></trkpt>
<trkpt lat="46.24163" lon="7.31677"><ele></ele><time>2023-7-27T22:50:41Z</time></trkpt>
<trkpt lat="46.2416" lon="7.3169"><ele></ele><time>2023-7-27T22:50:44Z</time></trkpt>
<trkpt lat="46.24159" lon="7.31691"><ele></ele><time>2023-7-27T22:50:47Z</time></trkpt>
<trkpt lat="46.24155" lon="7.31696"><ele></ele><time>2023-7-27T22:50:50Z</time></trkpt>
<trkpt lat="46.2415" lon="7.31701"><ele></ele><time>2023-7-27T22:50:53Z</time></trkpt>
<trkpt lat="46.24142" lon="7.31709"><ele></ele><time>2023-7-27T22:50:56Z</time></trkpt>
<trkpt lat="46.24141" lon="7.31713"><ele></ele><time>2023-7-27T22:50:59Z</time></trkpt>
<trkpt lat="46.2414" lon="7.31736"><ele></ele><time>2023-7-27T22:51:2Z</time></trkpt>
<trkpt lat="46.24142" lon="7.31745"><ele></ele><time>2023-7-27T22:51:5Z</time></trkpt>
<trkpt lat="46.24147" lon="7.3176"><ele></ele><time>2023-7-27T22:51:8Z</time></trkpt>
<trkpt lat="46.24151" lon="7.31769"><ele></ele><time>2023-7-27T22:51:11Z</time></trkpt>
<trkpt lat="46.24156" lon="7.31775"><ele></ele><time>2023-7-27T22:51:14Z</time></trkpt>
<trkpt lat="46.24158" lon="7.31777"><ele></ele><time>2023-7-27T22:51:17Z</time></trkpt>
<trkpt lat="46.24169" lon="7.31781"><ele></ele><time>2023-7-27T22:51:20Z</time></trkpt>
<trkpt lat="46.24171" lon="7.31781"><ele></ele><time>2023-7-27T22:51:23Z</time></trkpt>
<trkpt lat="46.24181" lon="7.31781"><ele></ele><time>2023-7-27T22:51:26Z</time></trkpt>
<trkpt lat="46.24183" lon="7.31781"><ele></ele><time>2023-7-27T22:51:29Z</time></trkpt>
<trkpt lat="46.24196" lon="7.31782"><ele></ele><time>2023-7-27T22:51:32Z</time></trkpt>
<trkpt lat="46.24197" lon="7.31783"><ele></ele><time>2023-7-27T22:51:35Z</time></trkpt>
<trkpt lat="46.24204" lon="7.31784"><ele></ele><time>2023-7-27T22:51:38Z</time></trkpt>
<trkpt lat="46.24212" lon="7.31788"><ele></ele><time>2023-7-27T22:51:41Z</time></trkpt>
<trkpt lat="46.24221" lon="7.31792"><ele></ele><time>2023-7-27T22:51:44Z</time></trkpt>
<trkpt lat="46.2423" lon="7.31797"><ele></ele><time>2023-7-27T22:51:47Z</time></trkpt>
<trkpt lat="46.24232" lon="7.31797"><ele></ele><time>2023-7-27T22:51:50Z</time></trkpt>
<trkpt lat="46.24244" lon="7.31801"><ele></ele><time>2023-7-27T22:51:53Z</time></trkpt>
<trkpt lat="46.24249" lon="7.31803"><ele></ele><time>2023-7-27T22:51:56Z</time></trkpt>
<trkpt lat="46.24254" lon="7.31805"><ele></ele><time>2023-7-27T22:51:59Z</time></trkpt>
<trkpt lat="46.24264" lon="7.31809"><ele></ele><time>2023-7-27T22:52:2Z</time></trkpt>
<trkpt lat="46.24267" lon="7.31811"><ele></ele><time>2023-7-27T22:52:5Z</time></trkpt>
<trkpt lat="46.24281" lon="7.31816"><ele></ele><time>2023-7-27T22:52:8Z</time></trkpt>
<trkpt lat="46.24284" lon="7.31818"><ele></ele><time>2023-7-27T22:52:11Z</time></trkpt>
<trkpt lat="46.24293" lon="7.31822"><ele></ele><time>2023-7-27T22:52:14Z</time></trkpt>
<trkpt lat="46.24296" lon="7.31825"><ele></ele><time>2023-7-27T22:52:17Z</time></trkpt>
<trkpt lat="46.24303" lon="7.31829"><ele></ele><time>2023-7-27T22:52:20Z</time></trkpt>
<trkpt lat="46.24307" lon="7.31833"><ele></ele><time>2023-7-27T22:52:23Z</time></trkpt>
<trkpt lat="46.24312" lon="7.3184"><ele></ele><time>2023-7-27T22:52:26Z</time></trkpt>
<trkpt lat="46.24319" lon="7.31847"><ele></ele><time>2023-7-27T22:52:29Z</time></trkpt>
<trkpt lat="46.2432" lon="7.31848"><ele></ele><time>2023-7-27T22:52:32Z</time></trkpt>
<trkpt lat="46.24331" lon="7.31854"><ele></ele><time>2023-7-27T22:52:35Z</time></trkpt>
<trkpt lat="46.24335" lon="7.31855"><ele></ele><time>2023-7-27T22:52:38Z</time></trkpt>
<trkpt lat="46.24346" lon="7.31851"><ele></ele><time>2023-7-27T22:52:41Z</time></trkpt>
<trkpt lat="46.24347" lon="7.3185"><ele></ele><time>2023-7-27T22:52:44Z</time></trkpt>
<trkpt lat="46.24356" lon="7.31844"><ele></ele><time>2023-7-27T22:52:47Z</time></trkpt>
<trkpt lat="46.24364" lon="7.31838"><ele></ele><time>2023-7-27T22:52:50Z</time></trkpt>
<trkpt lat="46.24368" lon="7.31835"><ele></ele><time>2023-7-27T22:52:53Z</time></trkpt>
<trkpt lat="46.24378" lon="7.31826"><ele></ele><time>2023-7-27T22:52:56Z</time></trkpt>
<trkpt lat="46.24379" lon="7.31825"><ele></ele><time>2023-7-27T22:52:59Z</time></trkpt>
<trkpt lat="46.24393" lon="7.31812"><ele></ele><time>2023-7-27T22:53:2Z</time></trkpt>
<trkpt lat="46.24396" lon="7.3181"><ele></ele><time>2023-7-27T22:53:5Z</time></trkpt>
<trkpt lat="46.24403" lon="7.31803"><ele></ele><time>2023-7-27T22:53:8Z</time></trkpt>
<trkpt lat="46.2441" lon="7.31797"><ele></ele><time>2023-7-27T22:53:11Z</time></trkpt>
<trkpt lat="46.24414" lon="7.31794"><ele></ele><time>2023-7-27T22:53:14Z</time></trkpt>
<trkpt lat="46.2442" lon="7.31786"><ele></ele><time>2023-7-27T22:53:17Z</time></trkpt>
<trkpt lat="46.24426" lon="7.31773"><ele></ele><time>2023-7-27T22:53:20Z</time></trkpt>
<trkpt lat="46.24427" lon="7.31761"><ele></ele><time>2023-7-27T22:53:23Z</time></trkpt>
<trkpt lat="46.24427" lon="7.3175"><ele></ele><time>2023-7-27T22:53:26Z</time></trkpt>
<trkpt lat="46.24427" lon="7.31743"><ele></ele><time>2023-7-27T22:53:29Z</time></trkpt>
<trkpt lat="46.24425" lon="7.3173"><ele></ele><time>2023-7-27T22:53:32Z</time></trkpt>
<trkpt lat="46.24425" lon="7.31728"><ele></ele><time>2023-7-27T22:53:35Z</time></trkpt>
<trkpt lat="46.24421" lon="7.3171"><ele></ele><time>2023-7-27T22:53:38Z</time></trkpt>
<trkpt lat="46.24418" lon="7.31696"><ele></ele><time>2023-7-27T22:53:41Z</time></trkpt>
<trkpt lat="46.24417" lon="7.31689"><ele></ele><time>2023-7-27T22:53:44Z</time></trkpt>
<trkpt lat="46.24416" lon="7.31686"><ele></ele><time>2023-7-27T22:53:47Z</time></trkpt>
<trkpt lat="46.24414" lon="7.31678"><ele></ele><time>2023-7-27T22:53:50Z</time></trkpt>
<trkpt lat="46.2441" lon="7.31664"><ele></ele><time>2023-7-27T22:53:53Z</time></trkpt>
<trkpt lat="46.24409" lon="7.31658"><ele></ele><time>2023-7-27T22:53:56Z</time></trkpt>
<trkpt lat="46.24409" lon="7.31653"><ele></ele><time>2023-7-27T22:53:59Z</time></trkpt>
<trkpt lat="46.24407" lon="7.31641"><ele></ele><time>2023-7-27T22:54:2Z</time></trkpt>
<trkpt lat="46.24406" lon="7.31634"><ele></ele><time>2023-7-27T22:54:5Z</time></trkpt>
<trkpt lat="46.24405" lon="7.31624"><ele></ele><time>2023-7-27T22:54:8Z</time></trkpt>
<trkpt lat="46.24403" lon="7.31608"><ele></ele><time>2023-7-27T22:54:11Z</time></trkpt>
<trkpt lat="46.244" lon="7.31591"><ele></ele><time>2023-7-27T22:54:14Z</time></trkpt>
<trkpt lat="46.24398" lon="7.31581"><ele></ele><time>2023-7-27T22:54:17Z</time></trkpt>
<trkpt lat="46.24397" lon="7.31576"><ele></ele><time>2023-7-27T22:54:20Z</time></trkpt>
<trkpt lat="46.24396" lon="7.31568"><ele></ele><time>2023-7-27T22:54:23Z</time></trkpt>
<trkpt lat="46.24395" lon="7.31558"><ele></ele><time>2023-7-27T22:54:26Z</time></trkpt>
<trkpt lat="46.24394" lon="7.3155"><ele></ele><time>2023-7-27T22:54:29Z</time></trkpt>
<trkpt lat="46.24393" lon="7.31539"><ele></ele><time>2023-7-27T22:54:32Z</time></trkpt>
<trkpt lat="46.24391" lon="7.31527"><ele></ele><time>2023-7-27T22:54:35Z</time></trkpt>
<trkpt lat="46.24391" lon="7.31525"><ele></ele><time>2023-7-27T22:54:38Z</time></trkpt>
<trkpt lat="46.2439" lon="7.31514"><ele></ele><time>2023-7-27T22:54:41Z</time></trkpt>
<trkpt lat="46.24393" lon="7.31499"><ele></ele><time>2023-7-27T22:54:44Z</time></trkpt>
<trkpt lat="46.24397" lon="7.3149"><ele></ele><time>2023-7-27T22:54:47Z</time></trkpt>
<trkpt lat="46.24402" lon="7.31481"><ele></ele><time>2023-7-27T22:54:50Z</time></trkpt>
<trkpt lat="46.24403" lon="7.31479"><ele></ele><time>2023-7-27T22:54:53Z</time></trkpt>
<trkpt lat="46.24407" lon="7.31467"><ele></ele><time>2023-7-27T22:54:56Z</time></trkpt>
<trkpt lat="46.24408" lon="7.31464"><ele></ele><time>2023-7-27T22:54:59Z</time></trkpt>
<trkpt lat="46.24409" lon="7.31462"><ele></ele><time>2023-7-27T22:55:2Z</time></trkpt>
<trkpt lat="46.2441" lon="7.31452"><ele></ele><time>2023-7-27T22:55:5Z</time></trkpt>
<trkpt lat="46.2441" lon="7.31445"><ele></ele><time>2023-7-27T22:55:8Z</time></trkpt>
<trkpt lat="46.24408" lon="7.31429"><ele></ele><time>2023-7-27T22:55:11Z</time></trkpt>
<trkpt lat="46.24403" lon="7.31409"><ele></ele><time>2023-7-27T22:55:14Z</time></trkpt>
<trkpt lat="46.24402" lon="7.31399"><ele></ele><time>2023-7-27T22:55:17Z</time></trkpt>
<trkpt lat="46.24401" lon="7.31394"><ele></ele><time>2023-7-27T22:55:20Z</time></trkpt>
<trkpt lat="46.24402" lon="7.31382"><ele></ele><time>2023-7-27T22:55:23Z</time></trkpt>
<trkpt lat="46.24403" lon="7.31371"><ele></ele><time>2023-7-27T22:55:26Z</time></trkpt>
<trkpt lat="46.24407" lon="7.31346"><ele></ele><time>2023-7-27T22:55:29Z</time></trkpt>
<trkpt lat="46.24408" lon="7.31336"><ele></ele><time>2023-7-27T22:55:32Z</time></trkpt>
<trkpt lat="46.24409" lon="7.3133"><ele></ele><time>2023-7-27T22:55:35Z</time></trkpt>
<trkpt lat="46.24411" lon="7.31318"><ele></ele><time>2023-7-27T22:55:38Z</time></trkpt>
<trkpt lat="46.24411" lon="7.31311"><ele></ele><time>2023-7-27T22:55:41Z</time></trkpt>
<trkpt lat="46.24413" lon="7.31299"><ele></ele><time>2023-7-27T22:55:44Z</time></trkpt>
<trkpt lat="46.24415" lon="7.31287"><ele></ele><time>2023-7-27T22:55:47Z</time></trkpt>
<trkpt lat="46.24416" lon="7.31284"><ele></ele><time>2023-7-27T22:55:50Z</time></trkpt>
<trkpt lat="46.2442" lon="7.31274"><ele></ele><time>2023-7-27T22:55:53Z</time></trkpt>
<trkpt lat="46.24421" lon="7.31272"><ele></ele><time>2023-7-27T22:55:56Z</time></trkpt>
<trkpt lat="46.2443" lon="7.31266"><ele></ele><time>2023-7-27T22:55:59Z</time></trkpt>
<trkpt lat="46.24435" lon="7.31265"><ele></ele><time>2023-7-27T22:56:2Z</time></trkpt>
<trkpt lat="46.24444" lon="7.31264"><ele></ele><time>2023-7-27T22:56:5Z</time></trkpt>
<trkpt lat="46.24447" lon="7.31263"><ele></ele><time>2023-7-27T22:56:8Z</time></trkpt>
<trkpt lat="46.24455" lon="7.31261"><ele></ele><time>2023-7-27T22:56:11Z</time></trkpt>
<trkpt lat="46.24458" lon="7.31261"><ele></ele><time>2023-7-27T22:56:14Z</time></trkpt>
<trkpt lat="46.24471" lon="7.31259"><ele></ele><time>2023-7-27T22:56:17Z</time></trkpt>
<trkpt lat="46.24473" lon="7.31259"><ele></ele><time>2023-7-27T22:56:20Z</time></trkpt>
<trkpt lat="46.24477" lon="7.31267"><ele></ele><time>2023-7-27T22:56:23Z</time></trkpt>
<trkpt lat="46.24475" lon="7.31275"><ele></ele><time>2023-7-27T22:56:26Z</time></trkpt>
<trkpt lat="46.24473" lon="7.31277"><ele></ele><time>2023-7-27T22:56:29Z</time></trkpt>
<trkpt lat="46.24469" lon="7.31281"><ele></ele><time>2023-7-27T22:56:32Z</time></trkpt>
<trkpt lat="46.24464" lon="7.31286"><ele></ele><time>2023-7-27T22:56:35Z</time></trkpt>
<trkpt lat="46.2446" lon="7.31291"><ele></ele><time>2023-7-27T22:56:38Z</time></trkpt>
<trkpt lat="46.24458" lon="7.31299"><ele></ele><time>2023-7-27T22:56:41Z</time></trkpt>
<trkpt lat="46.24457" lon="7.31307"><ele></ele><time>2023-7-27T22:56:44Z</time></trkpt>
<trkpt lat="46.24458" lon="7.31316"><ele></ele><time>2023-7-27T22:56:47Z</time></trkpt>
<trkpt lat="46.24458" lon="7.3132"><ele></ele><time>2023-7-27T22:56:50Z</time></trkpt>
<trkpt lat="46.24462" lon="7.31334"><ele></ele><time>2023-7-27T22:56:53Z</time></trkpt>
<trkpt lat="46.24463" lon="7.31338"><ele></ele><time>2023-7-27T22:56:56Z</time></trkpt>
<trkpt lat="46.24467" lon="7.31351"><ele></ele><time>2023-7-27T22:56:59Z</time></trkpt>
<trkpt lat="46.24469" lon="7.31358"><ele></ele><time>2023-7-27T22:57:2Z</time></trkpt>
<trkpt lat="46.24469" lon="7.3136"><ele></ele><time>2023-7-27T22:57:5Z</time></trkpt>
<trkpt lat="46.24474" lon="7.31375"><ele></ele><time>2023-7-27T22:57:8Z</time></trkpt>
<trkpt lat="46.24475" lon="7.31378"><ele></ele><time>2023-7-27T22:57:11Z</time></trkpt>
<trkpt lat="46.24478" lon="7.31389"><ele></ele><time>2023-7-27T22:57:14Z</time></trkpt>
<trkpt lat="46.24479" lon="7.31395"><ele></ele><time>2023-7-27T22:57:17Z</time></trkpt>
<trkpt lat="46.24482" lon="7.31402"><ele></ele><time>2023-7-27T22:57:20Z</time></trkpt>
<trkpt lat="46.24484" lon="7.31411"><ele></ele><time>2023-7-27T22:57:23Z</time></trkpt>
<trkpt lat="46.24487" lon="7.31421"><ele></ele><time>2023-7-27T22:57:26Z</time></trkpt>
<trkpt lat="46.2449" lon="7.31435"><ele></ele><time>2023-7-27T22:57:29Z</time></trkpt>
<trkpt lat="46.24491" lon="7.31437"><ele></ele><time>2023-7-27T22:57:32Z</time></trkpt>
<trkpt lat="46.24495" lon="7.31448"><ele></ele><time>2023-7-27T22:57:35Z</time></trkpt>
<trkpt lat="46.24497" lon="7.31458"><ele></ele><time>2023-7-27T22:57:38Z</time></trkpt>
<trkpt lat="46.24499" lon="7.31464"><ele></ele><time>2023-7-27T22:57:41Z</time></trkpt>
<trkpt lat="46.24504" lon="7.31484"><ele></ele><time>2023-7-27T22:57:44Z</time></trkpt>
<trkpt lat="46.24504" lon="7.31487"><ele></ele><time>2023-7-27T22:57:47Z</time></trkpt>
<trkpt lat="46.24507" lon="7.31498"><ele></ele><time>2023-7-27T22:57:50Z</time></trkpt>
<trkpt lat="46.24508" lon="7.31506"><ele></ele><time>2023-7-27T22:57:53Z</time></trkpt>
<trkpt lat="46.24509" lon="7.31513"><ele></ele><time>2023-7-27T22:57:56Z</time></trkpt>
<trkpt lat="46.2451" lon="7.31522"><ele></ele><time>2023-7-27T22:57:59Z</time></trkpt>
<trkpt lat="46.24511" lon="7.31527"><ele></ele><time>2023-7-27T22:58:2Z</time></trkpt>
<trkpt lat="46.24517" lon="7.31544"><ele></ele><time>2023-7-27T22:58:5Z</time></trkpt>
<trkpt lat="46.24518" lon="7.31546"><ele></ele><time>2023-7-27T22:58:8Z</time></trkpt>
<trkpt lat="46.2452" lon="7.31556"><ele></ele><time>2023-7-27T22:58:11Z</time></trkpt>
<trkpt lat="46.24524" lon="7.31568"><ele></ele><time>2023-7-27T22:58:14Z</time></trkpt>
<trkpt lat="46.24524" lon="7.3157"><ele></ele><time>2023-7-27T22:58:17Z</time></trkpt>
<trkpt lat="46.24527" lon="7.31582"><ele></ele><time>2023-7-27T22:58:20Z</time></trkpt>
<trkpt lat="46.24528" lon="7.31589"><ele></ele><time>2023-7-27T22:58:23Z</time></trkpt>
<trkpt lat="46.2453" lon="7.316"><ele></ele><time>2023-7-27T22:58:26Z</time></trkpt>
<trkpt lat="46.24531" lon="7.31605"><ele></ele><time>2023-7-27T22:58:29Z</time></trkpt>
<trkpt lat="46.24533" lon="7.31614"><ele></ele><time>2023-7-27T22:58:32Z</time></trkpt>
<trkpt lat="46.24535" lon="7.31627"><ele></ele><time>2023-7-27T22:58:35Z</time></trkpt>
<trkpt lat="46.24535" lon="7.31629"><ele></ele><time>2023-7-27T22:58:38Z</time></trkpt>
<trkpt lat="46.24538" lon="7.31643"><ele></ele><time>2023-7-27T22:58:41Z</time></trkpt>
<trkpt lat="46.24538" lon="7.31646"><ele></ele><time>2023-7-27T22:58:44Z</time></trkpt>
<trkpt lat="46.2454" lon="7.3166"><ele></ele><time>2023-7-27T22:58:47Z</time></trkpt>
<trkpt lat="46.24542" lon="7.31673"><ele></ele><time>2023-7-27T22:58:50Z</time></trkpt>
<trkpt lat="46.24543" lon="7.31677"><ele></ele><time>2023-7-27T22:58:53Z</time></trkpt>
<trkpt lat="46.24543" lon="7.31687"><ele></ele><time>2023-7-27T22:58:56Z</time></trkpt>
<trkpt lat="46.24543" lon="7.31691"><ele></ele><time>2023-7-27T22:58:59Z</time></trkpt>
<trkpt lat="46.24543" lon="7.31701"><ele></ele><time>2023-7-27T22:59:2Z</time></trkpt>
<trkpt lat="46.24543" lon="7.31705"><ele></ele><time>2023-7-27T22:59:5Z</time></trkpt>
<trkpt lat="46.24546" lon="7.3172"><ele></ele><time>2023-7-27T22:59:8Z</time></trkpt>
<trkpt lat="46.24546" lon="7.3173"><ele></ele><time>2023-7-27T22:59:11Z</time></trkpt>
<trkpt lat="46.24546" lon="7.31733"><ele></ele><time>2023-7-27T22:59:14Z</time></trkpt>
<trkpt lat="46.24547" lon="7.31743"><ele></ele><time>2023-7-27T22:59:17Z</time></trkpt>
<trkpt lat="46.24547" lon="7.31745"><ele></ele><time>2023-7-27T22:59:20Z</time></trkpt>
<trkpt lat="46.2455" lon="7.31761"><ele></ele><time>2023-7-27T22:59:23Z</time></trkpt>
<trkpt lat="46.24553" lon="7.31764"><ele></ele><time>2023-7-27T22:59:26Z</time></trkpt>
<trkpt lat="46.24561" lon="7.31764"><ele></ele><time>2023-7-27T22:59:29Z</time></trkpt>
<trkpt lat="46.24563" lon="7.31762"><ele></ele><time>2023-7-27T22:59:32Z</time></trkpt>
<trkpt lat="46.24564" lon="7.31758"><ele></ele><time>2023-7-27T22:59:35Z</time></trkpt>
<trkpt lat="46.24564" lon="7.31756"><ele></ele><time>2023-7-27T22:59:38Z</time></trkpt>
<trkpt lat="46.24564" lon="7.31742"><ele></ele><time>2023-7-27T22:59:41Z</time></trkpt>
<trkpt lat="46.24563" lon="7.31732"><ele></ele><time>2023-7-27T22:59:44Z</time></trkpt>
<trkpt lat="46.24564" lon="7.31721"><ele></ele><time>2023-7-27T22:59:47Z</time></trkpt>
<trkpt lat="46.24564" lon="7.31714"><ele></ele><time>2023-7-27T22:59:50Z</time></trkpt>
<trkpt lat="46.24565" lon="7.31704"><ele></ele><time>2023-7-27T22:59:53Z</time></trkpt>
<trkpt lat="46.24566" lon="7.31701"><ele></ele><time>2023-7-27T22:59:56Z</time></trkpt>
<trkpt lat="46.24567" lon="7.31693"><ele></ele><time>2023-7-27T22:59:59Z</time></trkpt>
<trkpt lat="46.24569" lon="7.31682"><ele></ele><time>2023-7-27T23:0:2Z</time></trkpt>
<trkpt lat="46.2457" lon="7.31674"><ele></ele><time>2023-7-27T23:0:5Z</time></trkpt>
<trkpt lat="46.24573" lon="7.31665"><ele></ele><time>2023-7-27T23:0:8Z</time></trkpt>
<trkpt lat="46.24573" lon="7.31663"><ele></ele><time>2023-7-27T23:0:11Z</time></trkpt>
<trkpt lat="46.24577" lon="7.31651"><ele></ele><time>2023-7-27T23:0:14Z</time></trkpt>
<trkpt lat="46.2458" lon="7.31642"><ele></ele><time>2023-7-27T23:0:17Z</time></trkpt>
<trkpt lat="46.24583" lon="7.31631"><ele></ele><time>2023-7-27T23:0:20Z</time></trkpt>
<trkpt lat="46.24585" lon="7.3162"><ele></ele><time>2023-7-27T23:0:23Z</time></trkpt>
<trkpt lat="46.24586" lon="7.31617"><ele></ele><time>2023-7-27T23:0:26Z</time></trkpt>
<trkpt lat="46.24589" lon="7.31607"><ele></ele><time>2023-7-27T23:0:29Z</time></trkpt>
<trkpt lat="46.24589" lon="7.31603"><ele></ele><time>2023-7-27T23:0:32Z</time></trkpt>
<trkpt lat="46.24591" lon="7.31589"><ele></ele><time>2023-7-27T23:0:35Z</time></trkpt>
<trkpt lat="46.24591" lon="7.31587"><ele></ele><time>2023-7-27T23:0:38Z</time></trkpt>
<trkpt lat="46.24593" lon="7.31574"><ele></ele><time>2023-7-27T23:0:41Z</time></trkpt>
<trkpt lat="46.24596" lon="7.31555"><ele></ele><time>2023-7-27T23:0:44Z</time></trkpt>
<trkpt lat="46.24597" lon="7.31553"><ele></ele><time>2023-7-27T23:0:47Z</time></trkpt>
<trkpt lat="46.24599" lon="7.31534"><ele></ele><time>2023-7-27T23:0:50Z</time></trkpt>
<trkpt lat="46.24599" lon="7.31532"><ele></ele><time>2023-7-27T23:0:53Z</time></trkpt>
<trkpt lat="46.24601" lon="7.31523"><ele></ele><time>2023-7-27T23:0:56Z</time></trkpt>
<trkpt lat="46.24601" lon="7.31514"><ele></ele><time>2023-7-27T23:0:59Z</time></trkpt>
<trkpt lat="46.24602" lon="7.31512"><ele></ele><time>2023-7-27T23:1:2Z</time></trkpt>
<trkpt lat="46.24604" lon="7.31497"><ele></ele><time>2023-7-27T23:1:5Z</time></trkpt>
<trkpt lat="46.24605" lon="7.31495"><ele></ele><time>2023-7-27T23:1:8Z</time></trkpt>
<trkpt lat="46.24606" lon="7.31481"><ele></ele><time>2023-7-27T23:1:11Z</time></trkpt>
<trkpt lat="46.24607" lon="7.31479"><ele></ele><time>2023-7-27T23:1:14Z</time></trkpt>
<trkpt lat="46.24609" lon="7.31469"><ele></ele><time>2023-7-27T23:1:17Z</time></trkpt>
<trkpt lat="46.2461" lon="7.31466"><ele></ele><time>2023-7-27T23:1:20Z</time></trkpt>
<trkpt lat="46.24613" lon="7.31455"><ele></ele><time>2023-7-27T23:1:23Z</time></trkpt>
<trkpt lat="46.24614" lon="7.31451"><ele></ele><time>2023-7-27T23:1:26Z</time></trkpt>
<trkpt lat="46.24619" lon="7.31435"><ele></ele><time>2023-7-27T23:1:29Z</time></trkpt>
<trkpt lat="46.2462" lon="7.31433"><ele></ele><time>2023-7-27T23:1:32Z</time></trkpt>
<trkpt lat="46.24625" lon="7.31426"><ele></ele><time>2023-7-27T23:1:35Z</time></trkpt>
<trkpt lat="46.24628" lon="7.31419"><ele></ele><time>2023-7-27T23:1:38Z</time></trkpt>
<trkpt lat="46.24631" lon="7.31414"><ele></ele><time>2023-7-27T23:1:41Z</time></trkpt>
<trkpt lat="46.24638" lon="7.31401"><ele></ele><time>2023-7-27T23:1:44Z</time></trkpt>
<trkpt lat="46.24639" lon="7.314"><ele></ele><time>2023-7-27T23:1:47Z</time></trkpt>
<trkpt lat="46.24646" lon="7.31388"><ele></ele><time>2023-7-27T23:1:50Z</time></trkpt>
<trkpt lat="46.24647" lon="7.31386"><ele></ele><time>2023-7-27T23:1:53Z</time></trkpt>
<trkpt lat="46.24654" lon="7.31376"><ele></ele><time>2023-7-27T23:1:56Z</time></trkpt>
<trkpt lat="46.24655" lon="7.31375"><ele></ele><time>2023-7-27T23:1:59Z</time></trkpt>
<trkpt lat="46.24661" lon="7.31365"><ele></ele><time>2023-7-27T23:2:2Z</time></trkpt>
<trkpt lat="46.24664" lon="7.31361"><ele></ele><time>2023-7-27T23:2:5Z</time></trkpt>
<trkpt lat="46.2467" lon="7.31355"><ele></ele><time>2023-7-27T23:2:8Z</time></trkpt>
<trkpt lat="46.24672" lon="7.31352"><ele></ele><time>2023-7-27T23:2:11Z</time></trkpt>
<trkpt lat="46.24677" lon="7.3135"><ele></ele><time>2023-7-27T23:2:14Z</time></trkpt>
<trkpt lat="46.24682" lon="7.3135"><ele></ele><time>2023-7-27T23:2:17Z</time></trkpt>
<trkpt lat="46.24687" lon="7.31351"><ele></ele><time>2023-7-27T23:2:20Z</time></trkpt>
<trkpt lat="46.24692" lon="7.31353"><ele></ele><time>2023-7-27T23:2:23Z</time></trkpt>
<trkpt lat="46.24696" lon="7.31357"><ele></ele><time>2023-7-27T23:2:26Z</time></trkpt>
<trkpt lat="46.24701" lon="7.3136"><ele></ele><time>2023-7-27T23:2:29Z</time></trkpt>
<trkpt lat="46.24706" lon="7.31363"><ele></ele><time>2023-7-27T23:2:32Z</time></trkpt>
<trkpt lat="46.24708" lon="7.31365"><ele></ele><time>2023-7-27T23:2:35Z</time></trkpt>
<trkpt lat="46.24715" lon="7.31371"><ele></ele><time>2023-7-27T23:2:38Z</time></trkpt>
<trkpt lat="46.24716" lon="7.31372"><ele></ele><time>2023-7-27T23:2:41Z</time></trkpt>
<trkpt lat="46.24725" lon="7.31379"><ele></ele><time>2023-7-27T23:2:44Z</time></trkpt>
<trkpt lat="46.24728" lon="7.31383"><ele></ele><time>2023-7-27T23:2:47Z</time></trkpt>
<trkpt lat="46.24732" lon="7.31391"><ele></ele><time>2023-7-27T23:2:50Z</time></trkpt>
<trkpt lat="46.24734" lon="7.31395"><ele></ele><time>2023-7-27T23:2:53Z</time></trkpt>
<trkpt lat="46.24733" lon="7.31403"><ele></ele><time>2023-7-27T23:2:56Z</time></trkpt>
<trkpt lat="46.24731" lon="7.31406"><ele></ele><time>2023-7-27T23:2:59Z</time></trkpt>
<trkpt lat="46.24726" lon="7.3141"><ele></ele><time>2023-7-27T23:3:2Z</time></trkpt>
<trkpt lat="46.24724" lon="7.31412"><ele></ele><time>2023-7-27T23:3:5Z</time></trkpt>
<trkpt lat="46.24715" lon="7.31413"><ele></ele><time>2023-7-27T23:3:8Z</time></trkpt>
<trkpt lat="46.24709" lon="7.31416"><ele></ele><time>2023-7-27T23:3:11Z</time></trkpt>
<trkpt lat="46.247" lon="7.31425"><ele></ele><time>2023-7-27T23:3:14Z</time></trkpt>
<trkpt lat="46.24698" lon="7.31427"><ele></ele><time>2023-7-27T23:3:17Z</time></trkpt>
<trkpt lat="46.24692" lon="7.31447"><ele></ele><time>2023-7-27T23:3:20Z</time></trkpt>
<trkpt lat="46.24689" lon="7.31462"><ele></ele><time>2023-7-27T23:3:23Z</time></trkpt>
<trkpt lat="46.24686" lon="7.31473"><ele></ele><time>2023-7-27T23:3:26Z</time></trkpt>
<trkpt lat="46.24684" lon="7.31483"><ele></ele><time>2023-7-27T23:3:29Z</time></trkpt>
<trkpt lat="46.24681" lon="7.31496"><ele></ele><time>2023-7-27T23:3:32Z</time></trkpt>
<trkpt lat="46.2468" lon="7.31498"><ele></ele><time>2023-7-27T23:3:35Z</time></trkpt>
<trkpt lat="46.24677" lon="7.31515"><ele></ele><time>2023-7-27T23:3:38Z</time></trkpt>
<trkpt lat="46.24677" lon="7.31517"><ele></ele><time>2023-7-27T23:3:41Z</time></trkpt>
<trkpt lat="46.24681" lon="7.31537"><ele></ele><time>2023-7-27T23:3:44Z</time></trkpt>
<trkpt lat="46.24682" lon="7.3154"><ele></ele><time>2023-7-27T23:3:47Z</time></trkpt>
<trkpt lat="46.24685" lon="7.31554"><ele></ele><time>2023-7-27T23:3:50Z</time></trkpt>
<trkpt lat="46.24686" lon="7.3156"><ele></ele><time>2023-7-27T23:3:53Z</time></trkpt>
<trkpt lat="46.24688" lon="7.31571"><ele></ele><time>2023-7-27T23:3:56Z</time></trkpt>
<trkpt lat="46.2469" lon="7.31579"><ele></ele><time>2023-7-27T23:3:59Z</time></trkpt>
<trkpt lat="46.24691" lon="7.31583"><ele></ele><time>2023-7-27T23:4:2Z</time></trkpt>
<trkpt lat="46.24694" lon="7.31595"><ele></ele><time>2023-7-27T23:4:5Z</time></trkpt>
<trkpt lat="46.24696" lon="7.31599"><ele></ele><time>2023-7-27T23:4:8Z</time></trkpt>
<trkpt lat="46.24699" lon="7.31613"><ele></ele><time>2023-7-27T23:4:11Z</time></trkpt>
<trkpt lat="46.24702" lon="7.31622"><ele></ele><time>2023-7-27T23:4:14Z</time></trkpt>
<trkpt lat="46.24704" lon="7.31629"><ele></ele><time>2023-7-27T23:4:17Z</time></trkpt>
<trkpt lat="46.24707" lon="7.31641"><ele></ele><time>2023-7-27T23:4:20Z</time></trkpt>
<trkpt lat="46.2471" lon="7.31648"><ele></ele><time>2023-7-27T23:4:23Z</time></trkpt>
<trkpt lat="46.24712" lon="7.31656"><ele></ele><time>2023-7-27T23:4:26Z</time></trkpt>
<trkpt lat="46.24715" lon="7.31667"><ele></ele><time>2023-7-27T23:4:29Z</time></trkpt>
<trkpt lat="46.24716" lon="7.31669"><ele></ele><time>2023-7-27T23:4:32Z</time></trkpt>
<trkpt lat="46.2472" lon="7.31682"><ele></ele><time>2023-7-27T23:4:35Z</time></trkpt>
<trkpt lat="46.24721" lon="7.31685"><ele></ele><time>2023-7-27T23:4:38Z</time></trkpt>
<trkpt lat="46.24723" lon="7.31699"><ele></ele><time>2023-7-27T23:4:41Z</time></trkpt>
<trkpt lat="46.24723" lon="7.31701"><ele></ele><time>2023-7-27T23:4:44Z</time></trkpt>
<trkpt lat="46.24724" lon="7.31713"><ele></ele><time>2023-7-27T23:4:47Z</time></trkpt>
<trkpt lat="46.24724" lon="7.31717"><ele></ele><time>2023-7-27T23:4:50Z</time></trkpt>
<trkpt lat="46.24724" lon="7.31729"><ele></ele><time>2023-7-27T23:4:53Z</time></trkpt>
<trkpt lat="46.24724" lon="7.31733"><ele></ele><time>2023-7-27T23:4:56Z</time></trkpt>
<trkpt lat="46.24725" lon="7.31745"><ele></ele><time>2023-7-27T23:4:59Z</time></trkpt>
<trkpt lat="46.24726" lon="7.31765"><ele></ele><time>2023-7-27T23:5:2Z</time></trkpt>
<trkpt lat="46.24727" lon="7.31771"><ele></ele><time>2023-7-27T23:5:5Z</time></trkpt>
<trkpt lat="46.24727" lon="7.31775"><ele></ele><time>2023-7-27T23:5:8Z</time></trkpt>
<trkpt lat="46.24729" lon="7.31792"><ele></ele><time>2023-7-27T23:5:11Z</time></trkpt>
<trkpt lat="46.24732" lon="7.31803"><ele></ele><time>2023-7-27T23:5:14Z</time></trkpt>
<trkpt lat="46.24734" lon="7.31809"><ele></ele><time>2023-7-27T23:5:17Z</time></trkpt>
<trkpt lat="46.24739" lon="7.31822"><ele></ele><time>2023-7-27T23:5:20Z</time></trkpt>
<trkpt lat="46.24742" lon="7.31831"><ele></ele><time>2023-7-27T23:5:23Z</time></trkpt>
<trkpt lat="46.24746" lon="7.31838"><ele></ele><time>2023-7-27T23:5:26Z</time></trkpt>
<trkpt lat="46.2475" lon="7.31845"><ele></ele><time>2023-7-27T23:5:29Z</time></trkpt>
<trkpt lat="46.24752" lon="7.31849"><ele></ele><time>2023-7-27T23:5:32Z</time></trkpt>
<trkpt lat="46.24758" lon="7.31858"><ele></ele><time>2023-7-27T23:5:35Z</time></trkpt>
<trkpt lat="46.24759" lon="7.31859"><ele></ele><time>2023-7-27T23:5:38Z</time></trkpt>
<trkpt lat="46.24765" lon="7.31872"><ele></ele><time>2023-7-27T23:5:41Z</time></trkpt>
<trkpt lat="46.24768" lon="7.31885"><ele></ele><time>2023-7-27T23:5:44Z</time></trkpt>
<trkpt lat="46.24768" lon="7.31891"><ele></ele><time>2023-7-27T23:5:47Z</time></trkpt>
<trkpt lat="46.24765" lon="7.31897"><ele></ele><time>2023-7-27T23:5:50Z</time></trkpt>
<trkpt lat="46.24759" lon="7.31908"><ele></ele><time>2023-7-27T23:5:53Z</time></trkpt>
<trkpt lat="46.24757" lon="7.31913"><ele></ele><time>2023-7-27T23:5:56Z</time></trkpt>
<trkpt lat="46.24751" lon="7.31923"><ele></ele><time>2023-7-27T23:5:59Z</time></trkpt>
<trkpt lat="46.2475" lon="7.31926"><ele></ele><time>2023-7-27T23:6:2Z</time></trkpt>
<trkpt lat="46.24746" lon="7.31938"><ele></ele><time>2023-7-27T23:6:5Z</time></trkpt>
<trkpt lat="46.24745" lon="7.31942"><ele></ele><time>2023-7-27T23:6:8Z</time></trkpt>
<trkpt lat="46.24746" lon="7.31949"><ele></ele><time>2023-7-27T23:6:11Z</time></trkpt>
<trkpt lat="46.24748" lon="7.31961"><ele></ele><time>2023-7-27T23:6:14Z</time></trkpt>
<trkpt lat="46.24748" lon="7.31963"><ele></ele><time>2023-7-27T23:6:17Z</time></trkpt>
<trkpt lat="46.24752" lon="7.31976"><ele></ele><time>2023-7-27T23:6:20Z</time></trkpt>
<trkpt lat="46.24753" lon="7.3198"><ele></ele><time>2023-7-27T23:6:23Z</time></trkpt>
<trkpt lat="46.24758" lon="7.31995"><ele></ele><time>2023-7-27T23:6:26Z</time></trkpt>
<trkpt lat="46.24759" lon="7.31997"><ele></ele><time>2023-7-27T23:6:29Z</time></trkpt>
<trkpt lat="46.24764" lon="7.32011"><ele></ele><time>2023-7-27T23:6:32Z</time></trkpt>
<trkpt lat="46.24765" lon="7.32015"><ele></ele><time>2023-7-27T23:6:35Z</time></trkpt>
<trkpt lat="46.24769" lon="7.32024"><ele></ele><time>2023-7-27T23:6:38Z</time></trkpt>
<trkpt lat="46.24775" lon="7.32036"><ele></ele><time>2023-7-27T23:6:41Z</time></trkpt>
<trkpt lat="46.24776" lon="7.32038"><ele></ele><time>2023-7-27T23:6:44Z</time></trkpt>
<trkpt lat="46.24781" lon="7.32048"><ele></ele><time>2023-7-27T23:6:47Z</time></trkpt>
<trkpt lat="46.24781" lon="7.32051"><ele></ele><time>2023-7-27T23:6:50Z</time></trkpt>
<trkpt lat="46.24786" lon="7.3206"><ele></ele><time>2023-7-27T23:6:53Z</time></trkpt>
<trkpt lat="46.24788" lon="7.32068"><ele></ele><time>2023-7-27T23:6:56Z</time></trkpt>
<trkpt lat="46.24792" lon="7.32079"><ele></ele><time>2023-7-27T23:6:59Z</time></trkpt>
<trkpt lat="46.24794" lon="7.32084"><ele></ele><time>2023-7-27T23:7:2Z</time></trkpt>
<trkpt lat="46.24795" lon="7.32089"><ele></ele><time>2023-7-27T23:7:5Z</time></trkpt>
<trkpt lat="46.24798" lon="7.32102"><ele></ele><time>2023-7-27T23:7:8Z</time></trkpt>
<trkpt lat="46.24798" lon="7.32106"><ele></ele><time>2023-7-27T23:7:11Z</time></trkpt>
<trkpt lat="46.24799" lon="7.32109"><ele></ele><time>2023-7-27T23:7:14Z</time></trkpt>
<trkpt lat="46.24802" lon="7.3211"><ele></ele><time>2023-7-27T23:7:17Z</time></trkpt>
<trkpt lat="46.24804" lon="7.32109"><ele></ele><time>2023-7-27T23:7:20Z</time></trkpt>
<trkpt lat="46.24806" lon="7.32108"><ele></ele><time>2023-7-27T23:7:23Z</time></trkpt>
<trkpt lat="46.24807" lon="7.321"><ele></ele><time>2023-7-27T23:7:26Z</time></trkpt>
<trkpt lat="46.24807" lon="7.32084"><ele></ele><time>2023-7-27T23:7:29Z</time></trkpt>
<trkpt lat="46.24806" lon="7.32079"><ele></ele><time>2023-7-27T23:7:32Z</time></trkpt>
<trkpt lat="46.24804" lon="7.32064"><ele></ele><time>2023-7-27T23:7:35Z</time></trkpt>
<trkpt lat="46.24803" lon="7.32055"><ele></ele><time>2023-7-27T23:7:38Z</time></trkpt>
<trkpt lat="46.24803" lon="7.3205"><ele></ele><time>2023-7-27T23:7:41Z</time></trkpt>
<trkpt lat="46.24802" lon="7.32042"><ele></ele><time>2023-7-27T23:7:44Z</time></trkpt>
<trkpt lat="46.24802" lon="7.32029"><ele></ele><time>2023-7-27T23:7:47Z</time></trkpt>
<trkpt lat="46.24801" lon="7.32009"><ele></ele><time>2023-7-27T23:7:50Z</time></trkpt>
<trkpt lat="46.248" lon="7.31991"><ele></ele><time>2023-7-27T23:7:53Z</time></trkpt>
<trkpt lat="46.24802" lon="7.31975"><ele></ele><time>2023-7-27T23:7:56Z</time></trkpt>
<trkpt lat="46.24808" lon="7.31961"><ele></ele><time>2023-7-27T23:7:59Z</time></trkpt>
<trkpt lat="46.24821" lon="7.31946"><ele></ele><time>2023-7-27T23:8:2Z</time></trkpt>
<trkpt lat="46.24828" lon="7.31939"><ele></ele><time>2023-7-27T23:8:5Z</time></trkpt>
<trkpt lat="46.24836" lon="7.31929"><ele></ele><time>2023-7-27T23:8:8Z</time></trkpt>
<trkpt lat="46.24838" lon="7.31921"><ele></ele><time>2023-7-27T23:8:11Z</time></trkpt>
<trkpt lat="46.24838" lon="7.31913"><ele></ele><time>2023-7-27T23:8:14Z</time></trkpt>
<trkpt lat="46.24837" lon="7.31905"><ele></ele><time>2023-7-27T23:8:17Z</time></trkpt>
<trkpt lat="46.24834" lon="7.31896"><ele></ele><time>2023-7-27T23:8:20Z</time></trkpt>
<trkpt lat="46.24829" lon="7.31863"><ele></ele><time>2023-7-27T23:8:23Z</time></trkpt>
<trkpt lat="46.24829" lon="7.31853"><ele></ele><time>2023-7-27T23:8:26Z</time></trkpt>
<trkpt lat="46.24832" lon="7.31844"><ele></ele><time>2023-7-27T23:8:29Z</time></trkpt>
<trkpt lat="46.24839" lon="7.31835"><ele></ele><time>2023-7-27T23:8:32Z</time></trkpt>
<trkpt lat="46.24842" lon="7.31826"><ele></ele><time>2023-7-27T23:8:35Z</time></trkpt>
<trkpt lat="46.24845" lon="7.31816"><ele></ele><time>2023-7-27T23:8:38Z</time></trkpt>
<trkpt lat="46.24847" lon="7.3181"><ele></ele><time>2023-7-27T23:8:41Z</time></trkpt>
<trkpt lat="46.24848" lon="7.31805"><ele></ele><time>2023-7-27T23:8:44Z</time></trkpt>
<trkpt lat="46.24852" lon="7.31794"><ele></ele><time>2023-7-27T23:8:47Z</time></trkpt>
<trkpt lat="46.24853" lon="7.31792"><ele></ele><time>2023-7-27T23:8:50Z</time></trkpt>
<trkpt lat="46.24854" lon="7.31783"><ele></ele><time>2023-7-27T23:8:53Z</time></trkpt>
<trkpt lat="46.24856" lon="7.31774"><ele></ele><time>2023-7-27T23:8:56Z</time></trkpt>
<trkpt lat="46.24857" lon="7.31768"><ele></ele><time>2023-7-27T23:8:59Z</time></trkpt>
<trkpt lat="46.24858" lon="7.31758"><ele></ele><time>2023-7-27T23:9:2Z</time></trkpt>
<trkpt lat="46.24859" lon="7.31754"><ele></ele><time>2023-7-27T23:9:5Z</time></trkpt>
<trkpt lat="46.24861" lon="7.31739"><ele></ele><time>2023-7-27T23:9:8Z</time></trkpt>
<trkpt lat="46.24862" lon="7.31734"><ele></ele><time>2023-7-27T23:9:11Z</time></trkpt>
<trkpt lat="46.24862" lon="7.31726"><ele></ele><time>2023-7-27T23:9:14Z</time></trkpt>
<trkpt lat="46.24864" lon="7.31717"><ele></ele><time>2023-7-27T23:9:17Z</time></trkpt>
<trkpt lat="46.24864" lon="7.31715"><ele></ele><time>2023-7-27T23:9:20Z</time></trkpt>
<trkpt lat="46.24868" lon="7.31701"><ele></ele><time>2023-7-27T23:9:23Z</time></trkpt>
<trkpt lat="46.24868" lon="7.31698"><ele></ele><time>2023-7-27T23:9:26Z</time></trkpt>
<trkpt lat="46.24874" lon="7.31686"><ele></ele><time>2023-7-27T23:9:29Z</time></trkpt>
<trkpt lat="46.24877" lon="7.31677"><ele></ele><time>2023-7-27T23:9:32Z</time></trkpt>
<trkpt lat="46.24877" lon="7.31673"><ele></ele><time>2023-7-27T23:9:35Z</time></trkpt>
<trkpt lat="46.24879" lon="7.31666"><ele></ele><time>2023-7-27T23:9:38Z</time></trkpt>
<trkpt lat="46.24882" lon="7.3166"><ele></ele><time>2023-7-27T23:9:41Z</time></trkpt>
<trkpt lat="46.24887" lon="7.31653"><ele></ele><time>2023-7-27T23:9:44Z</time></trkpt>
<trkpt lat="46.24888" lon="7.3165"><ele></ele><time>2023-7-27T23:9:47Z</time></trkpt>
<trkpt lat="46.2489" lon="7.31639"><ele></ele><time>2023-7-27T23:9:50Z</time></trkpt>
<trkpt lat="46.24891" lon="7.31636"><ele></ele><time>2023-7-27T23:9:53Z</time></trkpt>
<trkpt lat="46.24891" lon="7.31637"><ele></ele><time>2023-7-27T23:9:56Z</time></trkpt>
<trkpt lat="46.24891" lon="7.31637"><ele></ele><time>2023-7-27T23:9:59Z</time></trkpt>
<trkpt lat="46.24891" lon="7.31637"><ele></ele><time>2023-7-27T23:10:2Z</time></trkpt>
<trkpt lat="46.24893" lon="7.31636"><ele></ele><time>2023-7-27T23:10:5Z</time></trkpt>
<trkpt lat="46.24905" lon="7.31629"><ele></ele><time>2023-7-27T23:10:8Z</time></trkpt>
<trkpt lat="46.24924" lon="7.31616"><ele></ele><time>2023-7-27T23:10:11Z</time></trkpt>
<trkpt lat="46.24936" lon="7.31602"><ele></ele><time>2023-7-27T23:10:14Z</time></trkpt>
<trkpt lat="46.24942" lon="7.31597"><ele></ele><time>2023-7-27T23:10:17Z</time></trkpt>
<trkpt lat="46.24949" lon="7.31592"><ele></ele><time>2023-7-27T23:10:20Z</time></trkpt>
<trkpt lat="46.24956" lon="7.31587"><ele></ele><time>2023-7-27T23:10:23Z</time></trkpt>
<trkpt lat="46.24964" lon="7.31584"><ele></ele><time>2023-7-27T23:10:26Z</time></trkpt>
<trkpt lat="46.24974" lon="7.31582"><ele></ele><time>2023-7-27T23:10:29Z</time></trkpt>
<trkpt lat="46.24993" lon="7.31579"><ele></ele><time>2023-7-27T23:10:32Z</time></trkpt>
<trkpt lat="46.25003" lon="7.31579"><ele></ele><time>2023-7-27T23:10:35Z</time></trkpt>
<trkpt lat="46.25024" lon="7.31577"><ele></ele><time>2023-7-27T23:10:38Z</time></trkpt>
<trkpt lat="46.25047" lon="7.31575"><ele></ele><time>2023-7-27T23:10:41Z</time></trkpt>
<trkpt lat="46.25057" lon="7.31573"><ele></ele><time>2023-7-27T23:10:44Z</time></trkpt>
<trkpt lat="46.25079" lon="7.31571"><ele></ele><time>2023-7-27T23:10:47Z</time></trkpt>
<trkpt lat="46.2509" lon="7.31575"><ele></ele><time>2023-7-27T23:10:50Z</time></trkpt>
<trkpt lat="46.251" lon="7.31582"><ele></ele><time>2023-7-27T23:10:53Z</time></trkpt>
<trkpt lat="46.2511" lon="7.31592"><ele></ele><time>2023-7-27T23:10:56Z</time></trkpt>
<trkpt lat="46.25119" lon="7.31602"><ele></ele><time>2023-7-27T23:10:59Z</time></trkpt>
<trkpt lat="46.25128" lon="7.3161"><ele></ele><time>2023-7-27T23:11:2Z</time></trkpt>
<trkpt lat="46.25148" lon="7.31624"><ele></ele><time>2023-7-27T23:11:5Z</time></trkpt>
<trkpt lat="46.25158" lon="7.31629"><ele></ele><time>2023-7-27T23:11:8Z</time></trkpt>
<trkpt lat="46.25169" lon="7.31634"><ele></ele><time>2023-7-27T23:11:11Z</time></trkpt>
<trkpt lat="46.25199" lon="7.31643"><ele></ele><time>2023-7-27T23:11:14Z</time></trkpt>
<trkpt lat="46.25209" lon="7.31646"><ele></ele><time>2023-7-27T23:11:17Z</time></trkpt>
<trkpt lat="46.2526" lon="7.31659"><ele></ele><time>2023-7-27T23:11:20Z</time></trkpt>
<trkpt lat="46.25269" lon="7.3166"><ele></ele><time>2023-7-27T23:11:23Z</time></trkpt>
<trkpt lat="46.25279" lon="7.31663"><ele></ele><time>2023-7-27T23:11:26Z</time></trkpt>
<trkpt lat="46.25309" lon="7.31662"><ele></ele><time>2023-7-27T23:11:29Z</time></trkpt>
<trkpt lat="46.25326" lon="7.31654"><ele></ele><time>2023-7-27T23:11:32Z</time></trkpt>
<trkpt lat="46.25334" lon="7.31648"><ele></ele><time>2023-7-27T23:11:35Z</time></trkpt>
<trkpt lat="46.25342" lon="7.3164"><ele></ele><time>2023-7-27T23:11:38Z</time></trkpt>
<trkpt lat="46.25355" lon="7.31619"><ele></ele><time>2023-7-27T23:11:41Z</time></trkpt>
<trkpt lat="46.25374" lon="7.31586"><ele></ele><time>2023-7-27T23:11:44Z</time></trkpt>
<trkpt lat="46.25383" lon="7.31578"><ele></ele><time>2023-7-27T23:11:47Z</time></trkpt>
<trkpt lat="46.25393" lon="7.31574"><ele></ele><time>2023-7-27T23:11:50Z</time></trkpt>
<trkpt lat="46.25404" lon="7.31576"><ele></ele><time>2023-7-27T23:11:53Z</time></trkpt>
<trkpt lat="46.25414" lon="7.31578"><ele></ele><time>2023-7-27T23:11:56Z</time></trkpt>
<trkpt lat="46.25424" lon="7.31582"><ele></ele><time>2023-7-27T23:11:59Z</time></trkpt>
<trkpt lat="46.25434" lon="7.3159"><ele></ele><time>2023-7-27T23:12:2Z</time></trkpt>
<trkpt lat="46.25451" lon="7.3161"><ele></ele><time>2023-7-27T23:12:5Z</time></trkpt>
<trkpt lat="46.25458" lon="7.31623"><ele></ele><time>2023-7-27T23:12:8Z</time></trkpt>
<trkpt lat="46.25464" lon="7.31638"><ele></ele><time>2023-7-27T23:12:11Z</time></trkpt>
<trkpt lat="46.2547" lon="7.31654"><ele></ele><time>2023-7-27T23:12:14Z</time></trkpt>
<trkpt lat="46.25476" lon="7.31669"><ele></ele><time>2023-7-27T23:12:17Z</time></trkpt>
<trkpt lat="46.25485" lon="7.31683"><ele></ele><time>2023-7-27T23:12:20Z</time></trkpt>
<trkpt lat="46.25494" lon="7.31694"><ele></ele><time>2023-7-27T23:12:23Z</time></trkpt>
<trkpt lat="46.25503" lon="7.31705"><ele></ele><time>2023-7-27T23:12:26Z</time></trkpt>
<trkpt lat="46.25517" lon="7.31733"><ele></ele><time>2023-7-27T23:12:29Z</time></trkpt>
<trkpt lat="46.25524" lon="7.31748"><ele></ele><time>2023-7-27T23:12:32Z</time></trkpt>
<trkpt lat="46.25534" lon="7.3176"><ele></ele><time>2023-7-27T23:12:35Z</time></trkpt>
<trkpt lat="46.25544" lon="7.3177"><ele></ele><time>2023-7-27T23:12:38Z</time></trkpt>
<trkpt lat="46.25555" lon="7.31778"><ele></ele><time>2023-7-27T23:12:41Z</time></trkpt>
<trkpt lat="46.25577" lon="7.31779"><ele></ele><time>2023-7-27T23:12:44Z</time></trkpt>
<trkpt lat="46.25597" lon="7.31765"><ele></ele><time>2023-7-27T23:12:47Z</time></trkpt>
<trkpt lat="46.25606" lon="7.31755"><ele></ele><time>2023-7-27T23:12:50Z</time></trkpt>
<trkpt lat="46.25627" lon="7.31745"><ele></ele><time>2023-7-27T23:12:53Z</time></trkpt>
<trkpt lat="46.25636" lon="7.31746"><ele></ele><time>2023-7-27T23:12:56Z</time></trkpt>
<trkpt lat="46.25646" lon="7.31752"><ele></ele><time>2023-7-27T23:12:59Z</time></trkpt>
<trkpt lat="46.25657" lon="7.31754"><ele></ele><time>2023-7-27T23:13:2Z</time></trkpt>
<trkpt lat="46.25668" lon="7.31752"><ele></ele><time>2023-7-27T23:13:5Z</time></trkpt>
<trkpt lat="46.25692" lon="7.31746"><ele></ele><time>2023-7-27T23:13:8Z</time></trkpt>
<trkpt lat="46.25706" lon="7.31745"><ele></ele><time>2023-7-27T23:13:11Z</time></trkpt>
<trkpt lat="46.25706" lon="7.31745"><ele></ele><time>2023-7-27T23:13:14Z</time></trkpt>
<trkpt lat="46.25706" lon="7.31745"><ele></ele><time>2023-7-27T23:13:17Z</time></trkpt>
<trkpt lat="46.25786" lon="7.31775"><ele></ele><time>2023-7-27T23:13:20Z</time></trkpt>
<trkpt lat="46.25822" lon="7.318"><ele></ele><time>2023-7-27T23:13:23Z</time></trkpt>
<trkpt lat="46.25832" lon="7.31802"><ele></ele><time>2023-7-27T23:13:26Z</time></trkpt>
<trkpt lat="46.2585" lon="7.31796"><ele></ele><time>2023-7-27T23:13:29Z</time></trkpt>
<trkpt lat="46.25857" lon="7.31791"><ele></ele><time>2023-7-27T23:13:32Z</time></trkpt>
<trkpt lat="46.25887" lon="7.31775"><ele></ele><time>2023-7-27T23:13:35Z</time></trkpt>
<trkpt lat="46.25902" lon="7.31781"><ele></ele><time>2023-7-27T23:13:38Z</time></trkpt>
<trkpt lat="46.25907" lon="7.31786"><ele></ele><time>2023-7-27T23:13:41Z</time></trkpt>
<trkpt lat="46.25913" lon="7.31791"><ele></ele><time>2023-7-27T23:13:44Z</time></trkpt>
<trkpt lat="46.25928" lon="7.31809"><ele></ele><time>2023-7-27T23:13:47Z</time></trkpt>
<trkpt lat="46.25941" lon="7.31824"><ele></ele><time>2023-7-27T23:13:50Z</time></trkpt>
<trkpt lat="46.25945" lon="7.31827"><ele></ele><time>2023-7-27T23:13:53Z</time></trkpt>
<trkpt lat="46.25949" lon="7.31829"><ele></ele><time>2023-7-27T23:13:56Z</time></trkpt>
<trkpt lat="46.25958" lon="7.31835"><ele></ele><time>2023-7-27T23:13:59Z</time></trkpt>
<trkpt lat="46.25962" lon="7.31839"><ele></ele><time>2023-7-27T23:14:2Z</time></trkpt>
<trkpt lat="46.2597" lon="7.31843"><ele></ele><time>2023-7-27T23:14:5Z</time></trkpt>
<trkpt lat="46.25978" lon="7.31847"><ele></ele><time>2023-7-27T23:14:8Z</time></trkpt>
<trkpt lat="46.2598" lon="7.31848"><ele></ele><time>2023-7-27T23:14:11Z</time></trkpt>
<trkpt lat="46.25987" lon="7.31851"><ele></ele><time>2023-7-27T23:14:14Z</time></trkpt>
<trkpt lat="46.25994" lon="7.31854"><ele></ele><time>2023-7-27T23:14:17Z</time></trkpt>
<trkpt lat="46.26004" lon="7.31859"><ele></ele><time>2023-7-27T23:14:20Z</time></trkpt>
<trkpt lat="46.26014" lon="7.31869"><ele></ele><time>2023-7-27T23:14:23Z</time></trkpt>
<trkpt lat="46.26018" lon="7.31877"><ele></ele><time>2023-7-27T23:14:26Z</time></trkpt>
<trkpt lat="46.26026" lon="7.31891"><ele></ele><time>2023-7-27T23:14:29Z</time></trkpt>
<trkpt lat="46.26038" lon="7.31909"><ele></ele><time>2023-7-27T23:14:32Z</time></trkpt>
<trkpt lat="46.2604" lon="7.31911"><ele></ele><time>2023-7-27T23:14:35Z</time></trkpt>
<trkpt lat="46.26045" lon="7.31915"><ele></ele><time>2023-7-27T23:14:38Z</time></trkpt>
<trkpt lat="46.26057" lon="7.31919"><ele></ele><time>2023-7-27T23:14:41Z</time></trkpt>
<trkpt lat="46.26077" lon="7.31919"><ele></ele><time>2023-7-27T23:14:44Z</time></trkpt>
<trkpt lat="46.26082" lon="7.31918"><ele></ele><time>2023-7-27T23:14:47Z</time></trkpt>
<trkpt lat="46.26098" lon="7.31915"><ele></ele><time>2023-7-27T23:14:50Z</time></trkpt>
<trkpt lat="46.26118" lon="7.31913"><ele></ele><time>2023-7-27T23:14:53Z</time></trkpt>
<trkpt lat="46.26132" lon="7.31913"><ele></ele><time>2023-7-27T23:14:56Z</time></trkpt>
<trkpt lat="46.26135" lon="7.31914"><ele></ele><time>2023-7-27T23:14:59Z</time></trkpt>
<trkpt lat="46.26144" lon="7.31917"><ele></ele><time>2023-7-27T23:15:2Z</time></trkpt>
<trkpt lat="46.26152" lon="7.31918"><ele></ele><time>2023-7-27T23:15:5Z</time></trkpt>
<trkpt lat="46.26154" lon="7.3192"><ele></ele><time>2023-7-27T23:15:8Z</time></trkpt>
<trkpt lat="46.26162" lon="7.31922"><ele></ele><time>2023-7-27T23:15:11Z</time></trkpt>
<trkpt lat="46.26166" lon="7.31923"><ele></ele><time>2023-7-27T23:15:14Z</time></trkpt>
<trkpt lat="46.26177" lon="7.31926"><ele></ele><time>2023-7-27T23:15:17Z</time></trkpt>
<trkpt lat="46.2618" lon="7.31926"><ele></ele><time>2023-7-27T23:15:20Z</time></trkpt>
<trkpt lat="46.26192" lon="7.3193"><ele></ele><time>2023-7-27T23:15:23Z</time></trkpt>
<trkpt lat="46.26195" lon="7.31931"><ele></ele><time>2023-7-27T23:15:26Z</time></trkpt>
<trkpt lat="46.26203" lon="7.31934"><ele></ele><time>2023-7-27T23:15:29Z</time></trkpt>
<trkpt lat="46.26206" lon="7.31937"><ele></ele><time>2023-7-27T23:15:32Z</time></trkpt>
<trkpt lat="46.26212" lon="7.31941"><ele></ele><time>2023-7-27T23:15:35Z</time></trkpt>
<trkpt lat="46.26217" lon="7.31945"><ele></ele><time>2023-7-27T23:15:38Z</time></trkpt>
<trkpt lat="46.26225" lon="7.31952"><ele></ele><time>2023-7-27T23:15:41Z</time></trkpt>
<trkpt lat="46.26228" lon="7.31955"><ele></ele><time>2023-7-27T23:15:44Z</time></trkpt>
<trkpt lat="46.26237" lon="7.31961"><ele></ele><time>2023-7-27T23:15:47Z</time></trkpt>
<trkpt lat="46.26241" lon="7.31962"><ele></ele><time>2023-7-27T23:15:50Z</time></trkpt>
<trkpt lat="46.26249" lon="7.31966"><ele></ele><time>2023-7-27T23:15:53Z</time></trkpt>
<trkpt lat="46.26253" lon="7.31969"><ele></ele><time>2023-7-27T23:15:56Z</time></trkpt>
<trkpt lat="46.26259" lon="7.31974"><ele></ele><time>2023-7-27T23:15:59Z</time></trkpt>
<trkpt lat="46.26262" lon="7.31976"><ele></ele><time>2023-7-27T23:16:2Z</time></trkpt>
<trkpt lat="46.26268" lon="7.3198"><ele></ele><time>2023-7-27T23:16:5Z</time></trkpt>
<trkpt lat="46.26275" lon="7.31984"><ele></ele><time>2023-7-27T23:16:8Z</time></trkpt>
<trkpt lat="46.2628" lon="7.31987"><ele></ele><time>2023-7-27T23:16:11Z</time></trkpt>
<trkpt lat="46.2629" lon="7.31992"><ele></ele><time>2023-7-27T23:16:14Z</time></trkpt>
<trkpt lat="46.26298" lon="7.32003"><ele></ele><time>2023-7-27T23:16:17Z</time></trkpt>
<trkpt lat="46.26301" lon="7.3201"><ele></ele><time>2023-7-27T23:16:20Z</time></trkpt>
<trkpt lat="46.26302" lon="7.32011"><ele></ele><time>2023-7-27T23:16:23Z</time></trkpt>
<trkpt lat="46.2631" lon="7.32024"><ele></ele><time>2023-7-27T23:16:26Z</time></trkpt>
<trkpt lat="46.26319" lon="7.32032"><ele></ele><time>2023-7-27T23:16:29Z</time></trkpt>
<trkpt lat="46.2632" lon="7.32033"><ele></ele><time>2023-7-27T23:16:32Z</time></trkpt>
<trkpt lat="46.26326" lon="7.32036"><ele></ele><time>2023-7-27T23:16:35Z</time></trkpt>
<trkpt lat="46.2633" lon="7.32036"><ele></ele><time>2023-7-27T23:16:38Z</time></trkpt>
<trkpt lat="46.26333" lon="7.32036"><ele></ele><time>2023-7-27T23:16:41Z</time></trkpt>
<trkpt lat="46.26338" lon="7.32035"><ele></ele><time>2023-7-27T23:16:44Z</time></trkpt>
<trkpt lat="46.26341" lon="7.32034"><ele></ele><time>2023-7-27T23:16:47Z</time></trkpt>
<trkpt lat="46.26342" lon="7.32034"><ele></ele><time>2023-7-27T23:16:50Z</time></trkpt>
<trkpt lat="46.26349" lon="7.32032"><ele></ele><time>2023-7-27T23:16:53Z</time></trkpt>
<trkpt lat="46.2635" lon="7.32032"><ele></ele><time>2023-7-27T23:16:56Z</time></trkpt>
<trkpt lat="46.26351" lon="7.32033"><ele></ele><time>2023-7-27T23:16:59Z</time></trkpt>
<trkpt lat="46.26355" lon="7.32034"><ele></ele><time>2023-7-27T23:17:2Z</time></trkpt>
<trkpt lat="46.2636" lon="7.32035"><ele></ele><time>2023-7-27T23:17:5Z</time></trkpt>
<trkpt lat="46.26363" lon="7.32035"><ele></ele><time>2023-7-27T23:17:8Z</time></trkpt>
<trkpt lat="46.26369" lon="7.32037"><ele></ele><time>2023-7-27T23:17:11Z</time></trkpt>
<trkpt lat="46.2637" lon="7.32037"><ele></ele><time>2023-7-27T23:17:14Z</time></trkpt>
<trkpt lat="46.26376" lon="7.32037"><ele></ele><time>2023-7-27T23:17:17Z</time></trkpt>
<trkpt lat="46.26379" lon="7.32037"><ele></ele><time>2023-7-27T23:17:20Z</time></trkpt>
<trkpt lat="46.26383" lon="7.32036"><ele></ele><time>2023-7-27T23:17:23Z</time></trkpt>
<trkpt lat="46.26386" lon="7.32036"><ele></ele><time>2023-7-27T23:17:26Z</time></trkpt>
<trkpt lat="46.26389" lon="7.32036"><ele></ele><time>2023-7-27T23:17:29Z</time></trkpt>
<trkpt lat="46.26393" lon="7.32036"><ele></ele><time>2023-7-27T23:17:32Z</time></trkpt>
<trkpt lat="46.26397" lon="7.32035"><ele></ele><time>2023-7-27T23:17:35Z</time></trkpt>
<trkpt lat="46.26402" lon="7.32035"><ele></ele><time>2023-7-27T23:17:38Z</time></trkpt>
<trkpt lat="46.26403" lon="7.32036"><ele></ele><time>2023-7-27T23:17:41Z</time></trkpt>
<trkpt lat="46.2641" lon="7.32034"><ele></ele><time>2023-7-27T23:17:44Z</time></trkpt>
<trkpt lat="46.26412" lon="7.32034"><ele></ele><time>2023-7-27T23:17:47Z</time></trkpt>
<trkpt lat="46.26418" lon="7.32034"><ele></ele><time>2023-7-27T23:17:50Z</time></trkpt>
<trkpt lat="46.26422" lon="7.32037"><ele></ele><time>2023-7-27T23:17:53Z</time></trkpt>
<trkpt lat="46.26425" lon="7.32039"><ele></ele><time>2023-7-27T23:17:56Z</time></trkpt>
<trkpt lat="46.26429" lon="7.32043"><ele></ele><time>2023-7-27T23:17:59Z</time></trkpt>
<trkpt lat="46.26431" lon="7.32045"><ele></ele><time>2023-7-27T23:18:2Z</time></trkpt>
<trkpt lat="46.26435" lon="7.32048"><ele></ele><time>2023-7-27T23:18:5Z</time></trkpt>
<trkpt lat="46.26437" lon="7.3205"><ele></ele><time>2023-7-27T23:18:8Z</time></trkpt>
<trkpt lat="46.26441" lon="7.32054"><ele></ele><time>2023-7-27T23:18:11Z</time></trkpt>
<trkpt lat="46.26443" lon="7.32055"><ele></ele><time>2023-7-27T23:18:14Z</time></trkpt>
<trkpt lat="46.26449" lon="7.32061"><ele></ele><time>2023-7-27T23:18:17Z</time></trkpt>
<trkpt lat="46.2645" lon="7.32065"><ele></ele><time>2023-7-27T23:18:20Z</time></trkpt>
<trkpt lat="46.26452" lon="7.32066"><ele></ele><time>2023-7-27T23:18:23Z</time></trkpt>
<trkpt lat="46.26455" lon="7.32071"><ele></ele><time>2023-7-27T23:18:26Z</time></trkpt>
<trkpt lat="46.26457" lon="7.32074"><ele></ele><time>2023-7-27T23:18:29Z</time></trkpt>
<trkpt lat="46.26464" lon="7.3208"><ele></ele><time>2023-7-27T23:18:32Z</time></trkpt>
<trkpt lat="46.26469" lon="7.3208"><ele></ele><time>2023-7-27T23:18:35Z</time></trkpt>
<trkpt lat="46.26472" lon="7.32081"><ele></ele><time>2023-7-27T23:18:38Z</time></trkpt>
<trkpt lat="46.26476" lon="7.32083"><ele></ele><time>2023-7-27T23:18:41Z</time></trkpt>
<trkpt lat="46.26477" lon="7.32084"><ele></ele><time>2023-7-27T23:18:44Z</time></trkpt>
<trkpt lat="46.2648" lon="7.32086"><ele></ele><time>2023-7-27T23:18:47Z</time></trkpt>
<trkpt lat="46.26483" lon="7.32089"><ele></ele><time>2023-7-27T23:18:50Z</time></trkpt>
<trkpt lat="46.26486" lon="7.3209"><ele></ele><time>2023-7-27T23:18:53Z</time></trkpt>
<trkpt lat="46.26488" lon="7.32091"><ele></ele><time>2023-7-27T23:18:56Z</time></trkpt>
<trkpt lat="46.26495" lon="7.3209"><ele></ele><time>2023-7-27T23:18:59Z</time></trkpt>
<trkpt lat="46.26496" lon="7.3209"><ele></ele><time>2023-7-27T23:19:2Z</time></trkpt>
<trkpt lat="46.26504" lon="7.3209"><ele></ele><time>2023-7-27T23:19:5Z</time></trkpt>
<trkpt lat="46.26506" lon="7.32091"><ele></ele><time>2023-7-27T23:19:8Z</time></trkpt>
<trkpt lat="46.26509" lon="7.32094"><ele></ele><time>2023-7-27T23:19:11Z</time></trkpt>
<trkpt lat="46.26514" lon="7.32097"><ele></ele><time>2023-7-27T23:19:14Z</time></trkpt>
<trkpt lat="46.26515" lon="7.321"><ele></ele><time>2023-7-27T23:19:17Z</time></trkpt>
<trkpt lat="46.26516" lon="7.32104"><ele></ele><time>2023-7-27T23:19:20Z</time></trkpt>
<trkpt lat="46.26521" lon="7.32106"><ele></ele><time>2023-7-27T23:19:23Z</time></trkpt>
<trkpt lat="46.26525" lon="7.32107"><ele></ele><time>2023-7-27T23:19:26Z</time></trkpt>
<trkpt lat="46.26527" lon="7.32108"><ele></ele><time>2023-7-27T23:19:29Z</time></trkpt>
<trkpt lat="46.26534" lon="7.32112"><ele></ele><time>2023-7-27T23:19:32Z</time></trkpt>
<trkpt lat="46.26537" lon="7.32115"><ele></ele><time>2023-7-27T23:19:35Z</time></trkpt>
<trkpt lat="46.26539" lon="7.32117"><ele></ele><time>2023-7-27T23:19:38Z</time></trkpt>
<trkpt lat="46.26544" lon="7.32123"><ele></ele><time>2023-7-27T23:19:41Z</time></trkpt>
<trkpt lat="46.26546" lon="7.32125"><ele></ele><time>2023-7-27T23:19:44Z</time></trkpt>
<trkpt lat="46.2655" lon="7.3213"><ele></ele><time>2023-7-27T23:19:47Z</time></trkpt>
<trkpt lat="46.26552" lon="7.32133"><ele></ele><time>2023-7-27T23:19:50Z</time></trkpt>
<trkpt lat="46.26556" lon="7.32138"><ele></ele><time>2023-7-27T23:19:53Z</time></trkpt>
<trkpt lat="46.26557" lon="7.32141"><ele></ele><time>2023-7-27T23:19:56Z</time></trkpt>
<trkpt lat="46.26558" lon="7.32145"><ele></ele><time>2023-7-27T23:19:59Z</time></trkpt>
<trkpt lat="46.26559" lon="7.32152"><ele></ele><time>2023-7-27T23:20:2Z</time></trkpt>
<trkpt lat="46.2656" lon="7.32156"><ele></ele><time>2023-7-27T23:20:5Z</time></trkpt>
<trkpt lat="46.26563" lon="7.32162"><ele></ele><time>2023-7-27T23:20:8Z</time></trkpt>
<trkpt lat="46.26563" lon="7.32164"><ele></ele><time>2023-7-27T23:20:11Z</time></trkpt>
<trkpt lat="46.26564" lon="7.32165"><ele></ele><time>2023-7-27T23:20:14Z</time></trkpt>
<trkpt lat="46.26569" lon="7.32169"><ele></ele><time>2023-7-27T23:20:17Z</time></trkpt>
<trkpt lat="46.26576" lon="7.32173"><ele></ele><time>2023-7-27T23:20:20Z</time></trkpt>
<trkpt lat="46.26577" lon="7.32173"><ele></ele><time>2023-7-27T23:20:23Z</time></trkpt>
<trkpt lat="46.26582" lon="7.32169"><ele></ele><time>2023-7-27T23:20:26Z</time></trkpt>
<trkpt lat="46.26585" lon="7.32168"><ele></ele><time>2023-7-27T23:20:29Z</time></trkpt>
<trkpt lat="46.26588" lon="7.32166"><ele></ele><time>2023-7-27T23:20:32Z</time></trkpt>
<trkpt lat="46.26592" lon="7.32163"><ele></ele><time>2023-7-27T23:20:35Z</time></trkpt>
<trkpt lat="46.26596" lon="7.32161"><ele></ele><time>2023-7-27T23:20:38Z</time></trkpt>
<trkpt lat="46.26599" lon="7.32159"><ele></ele><time>2023-7-27T23:20:41Z</time></trkpt>
<trkpt lat="46.26603" lon="7.32159"><ele></ele><time>2023-7-27T23:20:44Z</time></trkpt>
<trkpt lat="46.26608" lon="7.32158"><ele></ele><time>2023-7-27T23:20:47Z</time></trkpt>
<trkpt lat="46.26612" lon="7.32159"><ele></ele><time>2023-7-27T23:20:50Z</time></trkpt>
<trkpt lat="46.26614" lon="7.32159"><ele></ele><time>2023-7-27T23:20:53Z</time></trkpt>
<trkpt lat="46.26622" lon="7.32163"><ele></ele><time>2023-7-27T23:20:56Z</time></trkpt>
<trkpt lat="46.26623" lon="7.32165"><ele></ele><time>2023-7-27T23:20:59Z</time></trkpt>
<trkpt lat="46.26629" lon="7.32168"><ele></ele><time>2023-7-27T23:21:2Z</time></trkpt>
<trkpt lat="46.26631" lon="7.32168"><ele></ele><time>2023-7-27T23:21:5Z</time></trkpt>
<trkpt lat="46.26637" lon="7.32168"><ele></ele><time>2023-7-27T23:21:8Z</time></trkpt>
<trkpt lat="46.2664" lon="7.32167"><ele></ele><time>2023-7-27T23:21:11Z</time></trkpt>
<trkpt lat="46.26644" lon="7.32165"><ele></ele><time>2023-7-27T23:21:14Z</time></trkpt>
<trkpt lat="46.26649" lon="7.32162"><ele></ele><time>2023-7-27T23:21:17Z</time></trkpt>
<trkpt lat="46.26652" lon="7.32161"><ele></ele><time>2023-7-27T23:21:20Z</time></trkpt>
<trkpt lat="46.26658" lon="7.32158"><ele></ele><time>2023-7-27T23:21:23Z</time></trkpt>
<trkpt lat="46.2666" lon="7.32157"><ele></ele><time>2023-7-27T23:21:26Z</time></trkpt>
<trkpt lat="46.26668" lon="7.32154"><ele></ele><time>2023-7-27T23:21:29Z</time></trkpt>
<trkpt lat="46.26672" lon="7.32154"><ele></ele><time>2023-7-27T23:21:32Z</time></trkpt>
<trkpt lat="46.26673" lon="7.32154"><ele></ele><time>2023-7-27T23:21:35Z</time></trkpt>
<trkpt lat="46.26675" lon="7.32155"><ele></ele><time>2023-7-27T23:21:38Z</time></trkpt>
<trkpt lat="46.26683" lon="7.32155"><ele></ele><time>2023-7-27T23:21:41Z</time></trkpt>
<trkpt lat="46.26685" lon="7.32155"><ele></ele><time>2023-7-27T23:21:44Z</time></trkpt>
<trkpt lat="46.26692" lon="7.32157"><ele></ele><time>2023-7-27T23:21:47Z</time></trkpt>
<trkpt lat="46.26695" lon="7.32158"><ele></ele><time>2023-7-27T23:21:50Z</time></trkpt>
<trkpt lat="46.26699" lon="7.32159"><ele></ele><time>2023-7-27T23:21:53Z</time></trkpt>
<trkpt lat="46.26703" lon="7.32161"><ele></ele><time>2023-7-27T23:21:56Z</time></trkpt>
<trkpt lat="46.26706" lon="7.32162"><ele></ele><time>2023-7-27T23:21:59Z</time></trkpt>
<trkpt lat="46.26709" lon="7.32165"><ele></ele><time>2023-7-27T23:22:2Z</time></trkpt>
<trkpt lat="46.26712" lon="7.32171"><ele></ele><time>2023-7-27T23:22:5Z</time></trkpt>
<trkpt lat="46.26713" lon="7.32172"><ele></ele><time>2023-7-27T23:22:8Z</time></trkpt>
<trkpt lat="46.26714" lon="7.32173"><ele></ele><time>2023-7-27T23:22:11Z</time></trkpt>
<trkpt lat="46.26721" lon="7.32177"><ele></ele><time>2023-7-27T23:22:14Z</time></trkpt>
<trkpt lat="46.26724" lon="7.32181"><ele></ele><time>2023-7-27T23:22:17Z</time></trkpt>
<trkpt lat="46.26727" lon="7.32186"><ele></ele><time>2023-7-27T23:22:20Z</time></trkpt>
<trkpt lat="46.2673" lon="7.32191"><ele></ele><time>2023-7-27T23:22:23Z</time></trkpt>
<trkpt lat="46.26732" lon="7.32196"><ele></ele><time>2023-7-27T23:22:26Z</time></trkpt>
<trkpt lat="46.26738" lon="7.32204"><ele></ele><time>2023-7-27T23:22:29Z</time></trkpt>
<trkpt lat="46.26739" lon="7.32205"><ele></ele><time>2023-7-27T23:22:32Z</time></trkpt>
<trkpt lat="46.26746" lon="7.32214"><ele></ele><time>2023-7-27T23:22:35Z</time></trkpt>
<trkpt lat="46.26747" lon="7.32215"><ele></ele><time>2023-7-27T23:22:38Z</time></trkpt>
<trkpt lat="46.2675" lon="7.32221"><ele></ele><time>2023-7-27T23:22:41Z</time></trkpt>
<trkpt lat="46.26753" lon="7.32224"><ele></ele><time>2023-7-27T23:22:44Z</time></trkpt>
<trkpt lat="46.26755" lon="7.32227"><ele></ele><time>2023-7-27T23:22:47Z</time></trkpt>
<trkpt lat="46.26761" lon="7.32233"><ele></ele><time>2023-7-27T23:22:50Z</time></trkpt>
<trkpt lat="46.26764" lon="7.32236"><ele></ele><time>2023-7-27T23:22:53Z</time></trkpt>
<trkpt lat="46.26772" lon="7.32244"><ele></ele><time>2023-7-27T23:22:56Z</time></trkpt>
<trkpt lat="46.26782" lon="7.32257"><ele></ele><time>2023-7-27T23:22:59Z</time></trkpt>
<trkpt lat="46.26783" lon="7.32259"><ele></ele><time>2023-7-27T23:23:2Z</time></trkpt>
<trkpt lat="46.26789" lon="7.32265"><ele></ele><time>2023-7-27T23:23:5Z</time></trkpt>
<trkpt lat="46.26793" lon="7.32267"><ele></ele><time>2023-7-27T23:23:8Z</time></trkpt>
<trkpt lat="46.26797" lon="7.3227"><ele></ele><time>2023-7-27T23:23:11Z</time></trkpt>
<trkpt lat="46.26802" lon="7.32272"><ele></ele><time>2023-7-27T23:23:14Z</time></trkpt>
<trkpt lat="46.2681" lon="7.32274"><ele></ele><time>2023-7-27T23:23:17Z</time></trkpt>
<trkpt lat="46.26813" lon="7.32276"><ele></ele><time>2023-7-27T23:23:20Z</time></trkpt>
<trkpt lat="46.2682" lon="7.32279"><ele></ele><time>2023-7-27T23:23:23Z</time></trkpt>
<trkpt lat="46.26821" lon="7.32279"><ele></ele><time>2023-7-27T23:23:26Z</time></trkpt>
<trkpt lat="46.2683" lon="7.32273"><ele></ele><time>2023-7-27T23:23:29Z</time></trkpt>
<trkpt lat="46.26838" lon="7.32275"><ele></ele><time>2023-7-27T23:23:32Z</time></trkpt>
<trkpt lat="46.2684" lon="7.32276"><ele></ele><time>2023-7-27T23:23:35Z</time></trkpt>
<trkpt lat="46.26847" lon="7.3228"><ele></ele><time>2023-7-27T23:23:38Z</time></trkpt>
<trkpt lat="46.26849" lon="7.32285"><ele></ele><time>2023-7-27T23:23:41Z</time></trkpt>
<trkpt lat="46.26853" lon="7.32302"><ele></ele><time>2023-7-27T23:23:44Z</time></trkpt>
<trkpt lat="46.26855" lon="7.32306"><ele></ele><time>2023-7-27T23:23:47Z</time></trkpt>
<trkpt lat="46.26865" lon="7.32318"><ele></ele><time>2023-7-27T23:23:50Z</time></trkpt>
<trkpt lat="46.26866" lon="7.3232"><ele></ele><time>2023-7-27T23:23:53Z</time></trkpt>
<trkpt lat="46.26876" lon="7.32331"><ele></ele><time>2023-7-27T23:23:56Z</time></trkpt>
<trkpt lat="46.26878" lon="7.32334"><ele></ele><time>2023-7-27T23:23:59Z</time></trkpt>
<trkpt lat="46.26882" lon="7.32343"><ele></ele><time>2023-7-27T23:24:2Z</time></trkpt>
<trkpt lat="46.26884" lon="7.32347"><ele></ele><time>2023-7-27T23:24:5Z</time></trkpt>
<trkpt lat="46.26888" lon="7.32354"><ele></ele><time>2023-7-27T23:24:8Z</time></trkpt>
<trkpt lat="46.26888" lon="7.32355"><ele></ele><time>2023-7-27T23:24:11Z</time></trkpt>
<trkpt lat="46.26892" lon="7.32361"><ele></ele><time>2023-7-27T23:24:14Z</time></trkpt>
<trkpt lat="46.26893" lon="7.32364"><ele></ele><time>2023-7-27T23:24:17Z</time></trkpt>
<trkpt lat="46.26897" lon="7.3237"><ele></ele><time>2023-7-27T23:24:20Z</time></trkpt>
<trkpt lat="46.26899" lon="7.32373"><ele></ele><time>2023-7-27T23:24:23Z</time></trkpt>
<trkpt lat="46.26902" lon="7.32376"><ele></ele><time>2023-7-27T23:24:26Z</time></trkpt>
<trkpt lat="46.26906" lon="7.32379"><ele></ele><time>2023-7-27T23:24:29Z</time></trkpt>
<trkpt lat="46.26908" lon="7.3238"><ele></ele><time>2023-7-27T23:24:32Z</time></trkpt>
<trkpt lat="46.26913" lon="7.32383"><ele></ele><time>2023-7-27T23:24:35Z</time></trkpt>
<trkpt lat="46.26915" lon="7.32383"><ele></ele><time>2023-7-27T23:24:38Z</time></trkpt>
<trkpt lat="46.26923" lon="7.32387"><ele></ele><time>2023-7-27T23:24:41Z</time></trkpt>
<trkpt lat="46.26924" lon="7.32388"><ele></ele><time>2023-7-27T23:24:44Z</time></trkpt>
<trkpt lat="46.26929" lon="7.32388"><ele></ele><time>2023-7-27T23:24:47Z</time></trkpt>
<trkpt lat="46.26932" lon="7.32388"><ele></ele><time>2023-7-27T23:24:50Z</time></trkpt>
<trkpt lat="46.26933" lon="7.32387"><ele></ele><time>2023-7-27T23:24:53Z</time></trkpt>
<trkpt lat="46.26942" lon="7.32385"><ele></ele><time>2023-7-27T23:24:56Z</time></trkpt>
<trkpt lat="46.2695" lon="7.32383"><ele></ele><time>2023-7-27T23:24:59Z</time></trkpt>
<trkpt lat="46.26953" lon="7.32381"><ele></ele><time>2023-7-27T23:25:2Z</time></trkpt>
<trkpt lat="46.26958" lon="7.32381"><ele></ele><time>2023-7-27T23:25:5Z</time></trkpt>
<trkpt lat="46.26962" lon="7.32382"><ele></ele><time>2023-7-27T23:25:8Z</time></trkpt>
<trkpt lat="46.26965" lon="7.32382"><ele></ele><time>2023-7-27T23:25:11Z</time></trkpt>
<trkpt lat="46.26969" lon="7.32382"><ele></ele><time>2023-7-27T23:25:14Z</time></trkpt>
<trkpt lat="46.26973" lon="7.32381"><ele></ele><time>2023-7-27T23:25:17Z</time></trkpt>
<trkpt lat="46.26976" lon="7.32381"><ele></ele><time>2023-7-27T23:25:20Z</time></trkpt>
<trkpt lat="46.26977" lon="7.32383"><ele></ele><time>2023-7-27T23:25:23Z</time></trkpt>
<trkpt lat="46.26979" lon="7.32384"><ele></ele><time>2023-7-27T23:25:26Z</time></trkpt>
<trkpt lat="46.2698" lon="7.32385"><ele></ele><time>2023-7-27T23:25:29Z</time></trkpt>
<trkpt lat="46.26987" lon="7.32388"><ele></ele><time>2023-7-27T23:25:32Z</time></trkpt>
<trkpt lat="46.26989" lon="7.32388"><ele></ele><time>2023-7-27T23:25:35Z</time></trkpt>
<trkpt lat="46.26993" lon="7.32387"><ele></ele><time>2023-7-27T23:25:38Z</time></trkpt>
<trkpt lat="46.26999" lon="7.32388"><ele></ele><time>2023-7-27T23:25:41Z</time></trkpt>
<trkpt lat="46.27004" lon="7.32388"><ele></ele><time>2023-7-27T23:25:44Z</time></trkpt>
<trkpt lat="46.27005" lon="7.32388"><ele></ele><time>2023-7-27T23:25:47Z</time></trkpt>
<trkpt lat="46.27013" lon="7.32384"><ele></ele><time>2023-7-27T23:25:50Z</time></trkpt>
<trkpt lat="46.2702" lon="7.32373"><ele></ele><time>2023-7-27T23:25:53Z</time></trkpt>
<trkpt lat="46.27022" lon="7.32364"><ele></ele><time>2023-7-27T23:25:56Z</time></trkpt>
<trkpt lat="46.27024" lon="7.3236"><ele></ele><time>2023-7-27T23:25:59Z</time></trkpt>
<trkpt lat="46.27027" lon="7.32349"><ele></ele><time>2023-7-27T23:26:2Z</time></trkpt>
<trkpt lat="46.27027" lon="7.32347"><ele></ele><time>2023-7-27T23:26:5Z</time></trkpt>
<trkpt lat="46.27027" lon="7.32341"><ele></ele><time>2023-7-27T23:26:8Z</time></trkpt>
<trkpt lat="46.27029" lon="7.32325"><ele></ele><time>2023-7-27T23:26:11Z</time></trkpt>
<trkpt lat="46.27031" lon="7.32319"><ele></ele><time>2023-7-27T23:26:14Z</time></trkpt>
<trkpt lat="46.27035" lon="7.32305"><ele></ele><time>2023-7-27T23:26:17Z</time></trkpt>
<trkpt lat="46.27037" lon="7.323"><ele></ele><time>2023-7-27T23:26:20Z</time></trkpt>
<trkpt lat="46.27042" lon="7.32289"><ele></ele><time>2023-7-27T23:26:23Z</time></trkpt>
<trkpt lat="46.27043" lon="7.32287"><ele></ele><time>2023-7-27T23:26:26Z</time></trkpt>
<trkpt lat="46.27049" lon="7.32277"><ele></ele><time>2023-7-27T23:26:29Z</time></trkpt>
<trkpt lat="46.27051" lon="7.32274"><ele></ele><time>2023-7-27T23:26:32Z</time></trkpt>
<trkpt lat="46.27057" lon="7.32266"><ele></ele><time>2023-7-27T23:26:35Z</time></trkpt>
<trkpt lat="46.27058" lon="7.32265"><ele></ele><time>2023-7-27T23:26:38Z</time></trkpt>
<trkpt lat="46.27066" lon="7.32258"><ele></ele><time>2023-7-27T23:26:41Z</time></trkpt>
<trkpt lat="46.27067" lon="7.32258"><ele></ele><time>2023-7-27T23:26:44Z</time></trkpt>
<trkpt lat="46.27077" lon="7.32251"><ele></ele><time>2023-7-27T23:26:47Z</time></trkpt>
<trkpt lat="46.27078" lon="7.3225"><ele></ele><time>2023-7-27T23:26:50Z</time></trkpt>
<trkpt lat="46.27086" lon="7.32235"><ele></ele><time>2023-7-27T23:26:53Z</time></trkpt>
<trkpt lat="46.27087" lon="7.32233"><ele></ele><time>2023-7-27T23:26:56Z</time></trkpt>
<trkpt lat="46.27088" lon="7.32223"><ele></ele><time>2023-7-27T23:26:59Z</time></trkpt>
<trkpt lat="46.27088" lon="7.32223"><ele></ele><time>2023-7-27T23:27:2Z</time></trkpt>
<trkpt lat="46.27088" lon="7.32224"><ele></ele><time>2023-7-27T23:27:5Z</time></trkpt>
<trkpt lat="46.27088" lon="7.32222"><ele></ele><time>2023-7-27T23:27:8Z</time></trkpt>
<trkpt lat="46.27087" lon="7.32221"><ele></ele><time>2023-7-27T23:27:11Z</time></trkpt>
<trkpt lat="46.27085" lon="7.32216"><ele></ele><time>2023-7-27T23:27:14Z</time></trkpt>
<trkpt lat="46.27081" lon="7.32203"><ele></ele><time>2023-7-27T23:27:17Z</time></trkpt>
<trkpt lat="46.27081" lon="7.32203"><ele></ele><time>2023-7-27T23:27:20Z</time></trkpt>
<trkpt lat="46.27081" lon="7.32203"><ele></ele><time>2023-7-27T23:27:23Z</time></trkpt>
<trkpt lat="46.27081" lon="7.32203"><ele></ele><time>2023-7-27T23:27:26Z</time></trkpt>
<trkpt lat="46.27081" lon="7.32203"><ele></ele><time>2023-7-27T23:27:29Z</time></trkpt>
<trkpt lat="46.27081" lon="7.32203"><ele></ele><time>2023-7-27T23:27:32Z</time></trkpt>
<trkpt lat="46.27047" lon="7.32125"><ele></ele><time>2023-7-27T23:27:35Z</time></trkpt>
<trkpt lat="46.27046" lon="7.32123"><ele></ele><time>2023-7-27T23:27:38Z</time></trkpt>
<trkpt lat="46.27042" lon="7.32111"><ele></ele><time>2023-7-27T23:27:41Z</time></trkpt>
<trkpt lat="46.2704" lon="7.32108"><ele></ele><time>2023-7-27T23:27:44Z</time></trkpt>
<trkpt lat="46.2704" lon="7.32108"><ele></ele><time>2023-7-27T23:27:47Z</time></trkpt>
<trkpt lat="46.2704" lon="7.32108"><ele></ele><time>2023-7-27T23:27:50Z</time></trkpt>
<trkpt lat="46.27024" lon="7.32092"><ele></ele><time>2023-7-27T23:27:53Z</time></trkpt>
<trkpt lat="46.27023" lon="7.32088"><ele></ele><time>2023-7-27T23:27:56Z</time></trkpt>
<trkpt lat="46.27019" lon="7.32078"><ele></ele><time>2023-7-27T23:27:59Z</time></trkpt>
<trkpt lat="46.27018" lon="7.32077"><ele></ele><time>2023-7-27T23:28:2Z</time></trkpt>
<trkpt lat="46.27009" lon="7.32072"><ele></ele><time>2023-7-27T23:28:5Z</time></trkpt>
<trkpt lat="46.27007" lon="7.32071"><ele></ele><time>2023-7-27T23:28:8Z</time></trkpt>
<trkpt lat="46.26995" lon="7.32071"><ele></ele><time>2023-7-27T23:28:11Z</time></trkpt>
<trkpt lat="46.26991" lon="7.32069"><ele></ele><time>2023-7-27T23:28:14Z</time></trkpt>
<trkpt lat="46.26986" lon="7.32069"><ele></ele><time>2023-7-27T23:28:17Z</time></trkpt>
<trkpt lat="46.26976" lon="7.32069"><ele></ele><time>2023-7-27T23:28:20Z</time></trkpt>
<trkpt lat="46.26971" lon="7.32068"><ele></ele><time>2023-7-27T23:28:23Z</time></trkpt>
<trkpt lat="46.26963" lon="7.32066"><ele></ele><time>2023-7-27T23:28:26Z</time></trkpt>
<trkpt lat="46.26956" lon="7.32062"><ele></ele><time>2023-7-27T23:28:29Z</time></trkpt>
<trkpt lat="46.26952" lon="7.32059"><ele></ele><time>2023-7-27T23:28:32Z</time></trkpt>
<trkpt lat="46.26944" lon="7.32053"><ele></ele><time>2023-7-27T23:28:35Z</time></trkpt>
<trkpt lat="46.26941" lon="7.3205"><ele></ele><time>2023-7-27T23:28:38Z</time></trkpt>
<trkpt lat="46.26932" lon="7.32039"><ele></ele><time>2023-7-27T23:28:41Z</time></trkpt>
<trkpt lat="46.26932" lon="7.32037"><ele></ele><time>2023-7-27T23:28:44Z</time></trkpt>
<trkpt lat="46.26925" lon="7.32026"><ele></ele><time>2023-7-27T23:28:47Z</time></trkpt>
<trkpt lat="46.26925" lon="7.32024"><ele></ele><time>2023-7-27T23:28:50Z</time></trkpt>
<trkpt lat="46.2692" lon="7.32016"><ele></ele><time>2023-7-27T23:28:53Z</time></trkpt>
<trkpt lat="46.26916" lon="7.32011"><ele></ele><time>2023-7-27T23:28:56Z</time></trkpt>
<trkpt lat="46.26911" lon="7.32006"><ele></ele><time>2023-7-27T23:28:59Z</time></trkpt>
<trkpt lat="46.26906" lon="7.32001"><ele></ele><time>2023-7-27T23:29:2Z</time></trkpt>
<trkpt lat="46.269" lon="7.31996"><ele></ele><time>2023-7-27T23:29:5Z</time></trkpt>
<trkpt lat="46.26896" lon="7.31992"><ele></ele><time>2023-7-27T23:29:8Z</time></trkpt>
<trkpt lat="46.26891" lon="7.31987"><ele></ele><time>2023-7-27T23:29:11Z</time></trkpt>
<trkpt lat="46.26886" lon="7.31983"><ele></ele><time>2023-7-27T23:29:14Z</time></trkpt>
<trkpt lat="46.2688" lon="7.31976"><ele></ele><time>2023-7-27T23:29:17Z</time></trkpt>
<trkpt lat="46.26876" lon="7.3197"><ele></ele><time>2023-7-27T23:29:20Z</time></trkpt>
<trkpt lat="46.26869" lon="7.31958"><ele></ele><time>2023-7-27T23:29:23Z</time></trkpt>
<trkpt lat="46.26869" lon="7.31956"><ele></ele><time>2023-7-27T23:29:26Z</time></trkpt>
<trkpt lat="46.26864" lon="7.31945"><ele></ele><time>2023-7-27T23:29:29Z</time></trkpt>
<trkpt lat="46.26862" lon="7.3194"><ele></ele><time>2023-7-27T23:29:32Z</time></trkpt>
<trkpt lat="46.26857" lon="7.3193"><ele></ele><time>2023-7-27T23:29:35Z</time></trkpt>
<trkpt lat="46.26855" lon="7.31927"><ele></ele><time>2023-7-27T23:29:38Z</time></trkpt>
<trkpt lat="46.26849" lon="7.31915"><ele></ele><time>2023-7-27T23:29:41Z</time></trkpt>
<trkpt lat="46.26847" lon="7.31914"><ele></ele><time>2023-7-27T23:29:44Z</time></trkpt>
<trkpt lat="46.26839" lon="7.31905"><ele></ele><time>2023-7-27T23:29:47Z</time></trkpt>
<trkpt lat="46.26828" lon="7.31895"><ele></ele><time>2023-7-27T23:29:50Z</time></trkpt>
<trkpt lat="46.26827" lon="7.31893"><ele></ele><time>2023-7-27T23:29:53Z</time></trkpt>
<trkpt lat="46.2682" lon="7.31885"><ele></ele><time>2023-7-27T23:29:56Z</time></trkpt>
<trkpt lat="46.26818" lon="7.31883"><ele></ele><time>2023-7-27T23:29:59Z</time></trkpt>
<trkpt lat="46.26816" lon="7.31877"><ele></ele><time>2023-7-27T23:30:2Z</time></trkpt>
<trkpt lat="46.26817" lon="7.31874"><ele></ele><time>2023-7-27T23:30:5Z</time></trkpt>
<trkpt lat="46.26821" lon="7.3187"><ele></ele><time>2023-7-27T23:30:8Z</time></trkpt>
<trkpt lat="46.26824" lon="7.31871"><ele></ele><time>2023-7-27T23:30:11Z</time></trkpt>
<trkpt lat="46.26828" lon="7.31874"><ele></ele><time>2023-7-27T23:30:14Z</time></trkpt>
<trkpt lat="46.26835" lon="7.31882"><ele></ele><time>2023-7-27T23:30:17Z</time></trkpt>
<trkpt lat="46.26841" lon="7.31889"><ele></ele><time>2023-7-27T23:30:20Z</time></trkpt>
<trkpt lat="46.26843" lon="7.31892"><ele></ele><time>2023-7-27T23:30:23Z</time></trkpt>
<trkpt lat="46.2685" lon="7.319"><ele></ele><time>2023-7-27T23:30:26Z</time></trkpt>
<trkpt lat="46.26853" lon="7.31905"><ele></ele><time>2023-7-27T23:30:29Z</time></trkpt>
<trkpt lat="46.26862" lon="7.31916"><ele></ele><time>2023-7-27T23:30:32Z</time></trkpt>
<trkpt lat="46.26864" lon="7.31917"><ele></ele><time>2023-7-27T23:30:35Z</time></trkpt>
<trkpt lat="46.26873" lon="7.31925"><ele></ele><time>2023-7-27T23:30:38Z</time></trkpt>
<trkpt lat="46.26876" lon="7.31927"><ele></ele><time>2023-7-27T23:30:41Z</time></trkpt>
<trkpt lat="46.26884" lon="7.31932"><ele></ele><time>2023-7-27T23:30:44Z</time></trkpt>
<trkpt lat="46.26888" lon="7.31935"><ele></ele><time>2023-7-27T23:30:47Z</time></trkpt>
<trkpt lat="46.26894" lon="7.31937"><ele></ele><time>2023-7-27T23:30:50Z</time></trkpt>
<trkpt lat="46.269" lon="7.31942"><ele></ele><time>2023-7-27T23:30:53Z</time></trkpt>
<trkpt lat="46.26903" lon="7.31943"><ele></ele><time>2023-7-27T23:30:56Z</time></trkpt>
<trkpt lat="46.2691" lon="7.31948"><ele></ele><time>2023-7-27T23:30:59Z</time></trkpt>
<trkpt lat="46.26915" lon="7.31951"><ele></ele><time>2023-7-27T23:31:2Z</time></trkpt>
<trkpt lat="46.26922" lon="7.31953"><ele></ele><time>2023-7-27T23:31:5Z</time></trkpt>
<trkpt lat="46.26927" lon="7.31956"><ele></ele><time>2023-7-27T23:31:8Z</time></trkpt>
<trkpt lat="46.26934" lon="7.31959"><ele></ele><time>2023-7-27T23:31:11Z</time></trkpt>
<trkpt lat="46.26938" lon="7.3196"><ele></ele><time>2023-7-27T23:31:14Z</time></trkpt>
<trkpt lat="46.26943" lon="7.31962"><ele></ele><time>2023-7-27T23:31:17Z</time></trkpt>
<trkpt lat="46.26948" lon="7.31964"><ele></ele><time>2023-7-27T23:31:20Z</time></trkpt>
<trkpt lat="46.26959" lon="7.31966"><ele></ele><time>2023-7-27T23:31:23Z</time></trkpt>
<trkpt lat="46.2696" lon="7.31966"><ele></ele><time>2023-7-27T23:31:26Z</time></trkpt>
<trkpt lat="46.26971" lon="7.31964"><ele></ele><time>2023-7-27T23:31:29Z</time></trkpt>
<trkpt lat="46.26973" lon="7.31963"><ele></ele><time>2023-7-27T23:31:32Z</time></trkpt>
<trkpt lat="46.26983" lon="7.3196"><ele></ele><time>2023-7-27T23:31:35Z</time></trkpt>
<trkpt lat="46.26985" lon="7.31961"><ele></ele><time>2023-7-27T23:31:38Z</time></trkpt>
<trkpt lat="46.26992" lon="7.31961"><ele></ele><time>2023-7-27T23:31:41Z</time></trkpt>
<trkpt lat="46.26997" lon="7.31961"><ele></ele><time>2023-7-27T23:31:44Z</time></trkpt>
<trkpt lat="46.27004" lon="7.31963"><ele></ele><time>2023-7-27T23:31:47Z</time></trkpt>
<trkpt lat="46.27009" lon="7.31965"><ele></ele><time>2023-7-27T23:31:50Z</time></trkpt>
<trkpt lat="46.27018" lon="7.31973"><ele></ele><time>2023-7-27T23:31:53Z</time></trkpt>
<trkpt lat="46.27019" lon="7.31975"><ele></ele><time>2023-7-27T23:31:56Z</time></trkpt>
<trkpt lat="46.27027" lon="7.31984"><ele></ele><time>2023-7-27T23:31:59Z</time></trkpt>
<trkpt lat="46.27028" lon="7.31985"><ele></ele><time>2023-7-27T23:32:2Z</time></trkpt>
<trkpt lat="46.27039" lon="7.31994"><ele></ele><time>2023-7-27T23:32:5Z</time></trkpt>
<trkpt lat="46.27041" lon="7.31995"><ele></ele><time>2023-7-27T23:32:8Z</time></trkpt>
<trkpt lat="46.2705" lon="7.32002"><ele></ele><time>2023-7-27T23:32:11Z</time></trkpt>
<trkpt lat="46.27063" lon="7.32006"><ele></ele><time>2023-7-27T23:32:14Z</time></trkpt>
<trkpt lat="46.27064" lon="7.32006"><ele></ele><time>2023-7-27T23:32:17Z</time></trkpt>
<trkpt lat="46.27074" lon="7.32009"><ele></ele><time>2023-7-27T23:32:20Z</time></trkpt>
<trkpt lat="46.27077" lon="7.3201"><ele></ele><time>2023-7-27T23:32:23Z</time></trkpt>
<trkpt lat="46.27086" lon="7.32013"><ele></ele><time>2023-7-27T23:32:26Z</time></trkpt>
<trkpt lat="46.27089" lon="7.32014"><ele></ele><time>2023-7-27T23:32:29Z</time></trkpt>
<trkpt lat="46.27098" lon="7.32017"><ele></ele><time>2023-7-27T23:32:32Z</time></trkpt>
<trkpt lat="46.27101" lon="7.32019"><ele></ele><time>2023-7-27T23:32:35Z</time></trkpt>
<trkpt lat="46.27113" lon="7.32022"><ele></ele><time>2023-7-27T23:32:38Z</time></trkpt>
<trkpt lat="46.27125" lon="7.32026"><ele></ele><time>2023-7-27T23:32:41Z</time></trkpt>
<trkpt lat="46.27126" lon="7.32027"><ele></ele><time>2023-7-27T23:32:44Z</time></trkpt>
<trkpt lat="46.27134" lon="7.32029"><ele></ele><time>2023-7-27T23:32:47Z</time></trkpt>
<trkpt lat="46.27135" lon="7.32029"><ele></ele><time>2023-7-27T23:32:50Z</time></trkpt>
<trkpt lat="46.27144" lon="7.32028"><ele></ele><time>2023-7-27T23:32:53Z</time></trkpt>
<trkpt lat="46.27148" lon="7.32025"><ele></ele><time>2023-7-27T23:32:56Z</time></trkpt>
<trkpt lat="46.27149" lon="7.32024"><ele></ele><time>2023-7-27T23:32:59Z</time></trkpt>
<trkpt lat="46.27158" lon="7.32017"><ele></ele><time>2023-7-27T23:33:2Z</time></trkpt>
<trkpt lat="46.27167" lon="7.32014"><ele></ele><time>2023-7-27T23:33:5Z</time></trkpt>
<trkpt lat="46.27168" lon="7.32014"><ele></ele><time>2023-7-27T23:33:8Z</time></trkpt>
<trkpt lat="46.27178" lon="7.32016"><ele></ele><time>2023-7-27T23:33:11Z</time></trkpt>
<trkpt lat="46.27181" lon="7.32018"><ele></ele><time>2023-7-27T23:33:14Z</time></trkpt>
<trkpt lat="46.27189" lon="7.32022"><ele></ele><time>2023-7-27T23:33:17Z</time></trkpt>
<trkpt lat="46.27195" lon="7.32027"><ele></ele><time>2023-7-27T23:33:20Z</time></trkpt>
<trkpt lat="46.27197" lon="7.32028"><ele></ele><time>2023-7-27T23:33:23Z</time></trkpt>
<trkpt lat="46.27207" lon="7.32036"><ele></ele><time>2023-7-27T23:33:26Z</time></trkpt>
<trkpt lat="46.2721" lon="7.32039"><ele></ele><time>2023-7-27T23:33:29Z</time></trkpt>
<trkpt lat="46.27217" lon="7.32049"><ele></ele><time>2023-7-27T23:33:32Z</time></trkpt>
<trkpt lat="46.27219" lon="7.32053"><ele></ele><time>2023-7-27T23:33:35Z</time></trkpt>
<trkpt lat="46.27226" lon="7.3206"><ele></ele><time>2023-7-27T23:33:38Z</time></trkpt>
<trkpt lat="46.27233" lon="7.32067"><ele></ele><time>2023-7-27T23:33:41Z</time></trkpt>
<trkpt lat="46.27234" lon="7.32068"><ele></ele><time>2023-7-27T23:33:44Z</time></trkpt>
<trkpt lat="46.27244" lon="7.32075"><ele></ele><time>2023-7-27T23:33:47Z</time></trkpt>
<trkpt lat="46.27248" lon="7.32078"><ele></ele><time>2023-7-27T23:33:50Z</time></trkpt>
<trkpt lat="46.27259" lon="7.32087"><ele></ele><time>2023-7-27T23:33:53Z</time></trkpt>
<trkpt lat="46.27269" lon="7.32094"><ele></ele><time>2023-7-27T23:33:56Z</time></trkpt>
<trkpt lat="46.27278" lon="7.321"><ele></ele><time>2023-7-27T23:33:59Z</time></trkpt>
<trkpt lat="46.2728" lon="7.32102"><ele></ele><time>2023-7-27T23:34:2Z</time></trkpt>
<trkpt lat="46.27287" lon="7.32108"><ele></ele><time>2023-7-27T23:34:5Z</time></trkpt>
<trkpt lat="46.2729" lon="7.32111"><ele></ele><time>2023-7-27T23:34:8Z</time></trkpt>
<trkpt lat="46.273" lon="7.32121"><ele></ele><time>2023-7-27T23:34:11Z</time></trkpt>
<trkpt lat="46.27302" lon="7.32123"><ele></ele><time>2023-7-27T23:34:14Z</time></trkpt>
<trkpt lat="46.27308" lon="7.32127"><ele></ele><time>2023-7-27T23:34:17Z</time></trkpt>
<trkpt lat="46.27314" lon="7.32133"><ele></ele><time>2023-7-27T23:34:20Z</time></trkpt>
<trkpt lat="46.27317" lon="7.32137"><ele></ele><time>2023-7-27T23:34:23Z</time></trkpt>
<trkpt lat="46.27323" lon="7.32145"><ele></ele><time>2023-7-27T23:34:26Z</time></trkpt>
<trkpt lat="46.27327" lon="7.32151"><ele></ele><time>2023-7-27T23:34:29Z</time></trkpt>
<trkpt lat="46.27333" lon="7.32159"><ele></ele><time>2023-7-27T23:34:32Z</time></trkpt>
<trkpt lat="46.27335" lon="7.32161"><ele></ele><time>2023-7-27T23:34:35Z</time></trkpt>
<trkpt lat="46.27338" lon="7.32167"><ele></ele><time>2023-7-27T23:34:38Z</time></trkpt>
<trkpt lat="46.27341" lon="7.32172"><ele></ele><time>2023-7-27T23:34:41Z</time></trkpt>
<trkpt lat="46.27343" lon="7.32178"><ele></ele><time>2023-7-27T23:34:44Z</time></trkpt>
<trkpt lat="46.27345" lon="7.32178"><ele></ele><time>2023-7-27T23:34:47Z</time></trkpt>
<trkpt lat="46.27348" lon="7.32185"><ele></ele><time>2023-7-27T23:34:50Z</time></trkpt>
<trkpt lat="46.27356" lon="7.32198"><ele></ele><time>2023-7-27T23:34:53Z</time></trkpt>
<trkpt lat="46.27362" lon="7.3221"><ele></ele><time>2023-7-27T23:34:56Z</time></trkpt>
<trkpt lat="46.27364" lon="7.32215"><ele></ele><time>2023-7-27T23:34:59Z</time></trkpt>
<trkpt lat="46.27366" lon="7.32217"><ele></ele><time>2023-7-27T23:35:2Z</time></trkpt>
<trkpt lat="46.27368" lon="7.32228"><ele></ele><time>2023-7-27T23:35:5Z</time></trkpt>
<trkpt lat="46.27369" lon="7.32234"><ele></ele><time>2023-7-27T23:35:8Z</time></trkpt>
<trkpt lat="46.27369" lon="7.32238"><ele></ele><time>2023-7-27T23:35:11Z</time></trkpt>
<trkpt lat="46.2737" lon="7.32246"><ele></ele><time>2023-7-27T23:35:14Z</time></trkpt>
<trkpt lat="46.27371" lon="7.32254"><ele></ele><time>2023-7-27T23:35:17Z</time></trkpt>
<trkpt lat="46.27373" lon="7.32261"><ele></ele><time>2023-7-27T23:35:20Z</time></trkpt>
<trkpt lat="46.27374" lon="7.32264"><ele></ele><time>2023-7-27T23:35:23Z</time></trkpt>
<trkpt lat="46.27379" lon="7.32276"><ele></ele><time>2023-7-27T23:35:26Z</time></trkpt>
<trkpt lat="46.2738" lon="7.32278"><ele></ele><time>2023-7-27T23:35:29Z</time></trkpt>
<trkpt lat="46.27385" lon="7.32287"><ele></ele><time>2023-7-27T23:35:32Z</time></trkpt>
<trkpt lat="46.27388" lon="7.3229"><ele></ele><time>2023-7-27T23:35:35Z</time></trkpt>
<trkpt lat="46.27392" lon="7.32294"><ele></ele><time>2023-7-27T23:35:38Z</time></trkpt>
<trkpt lat="46.27404" lon="7.32293"><ele></ele><time>2023-7-27T23:35:41Z</time></trkpt>
<trkpt lat="46.27405" lon="7.32288"><ele></ele><time>2023-7-27T23:35:44Z</time></trkpt>
<trkpt lat="46.27405" lon="7.32283"><ele></ele><time>2023-7-27T23:35:47Z</time></trkpt>
<trkpt lat="46.27405" lon="7.32281"><ele></ele><time>2023-7-27T23:35:50Z</time></trkpt>
<trkpt lat="46.27402" lon="7.32272"><ele></ele><time>2023-7-27T23:35:53Z</time></trkpt>
<trkpt lat="46.274" lon="7.32268"><ele></ele><time>2023-7-27T23:35:56Z</time></trkpt>
<trkpt lat="46.27394" lon="7.32255"><ele></ele><time>2023-7-27T23:35:59Z</time></trkpt>
<trkpt lat="46.27391" lon="7.32247"><ele></ele><time>2023-7-27T23:36:2Z</time></trkpt>
<trkpt lat="46.2739" lon="7.32243"><ele></ele><time>2023-7-27T23:36:5Z</time></trkpt>
<trkpt lat="46.27387" lon="7.32231"><ele></ele><time>2023-7-27T23:36:8Z</time></trkpt>
<trkpt lat="46.27387" lon="7.32228"><ele></ele><time>2023-7-27T23:36:11Z</time></trkpt>
<trkpt lat="46.27385" lon="7.32218"><ele></ele><time>2023-7-27T23:36:14Z</time></trkpt>
<trkpt lat="46.27385" lon="7.32215"><ele></ele><time>2023-7-27T23:36:17Z</time></trkpt>
<trkpt lat="46.27384" lon="7.32199"><ele></ele><time>2023-7-27T23:36:20Z</time></trkpt>
<trkpt lat="46.27383" lon="7.32196"><ele></ele><time>2023-7-27T23:36:23Z</time></trkpt>
<trkpt lat="46.27381" lon="7.32184"><ele></ele><time>2023-7-27T23:36:26Z</time></trkpt>
<trkpt lat="46.2738" lon="7.32181"><ele></ele><time>2023-7-27T23:36:29Z</time></trkpt>
<trkpt lat="46.27373" lon="7.32167"><ele></ele><time>2023-7-27T23:36:32Z</time></trkpt>
<trkpt lat="46.27369" lon="7.3216"><ele></ele><time>2023-7-27T23:36:35Z</time></trkpt>
<trkpt lat="46.27366" lon="7.32154"><ele></ele><time>2023-7-27T23:36:38Z</time></trkpt>
<trkpt lat="46.27361" lon="7.32142"><ele></ele><time>2023-7-27T23:36:41Z</time></trkpt>
<trkpt lat="46.27359" lon="7.32137"><ele></ele><time>2023-7-27T23:36:44Z</time></trkpt>
<trkpt lat="46.27352" lon="7.32123"><ele></ele><time>2023-7-27T23:36:47Z</time></trkpt>
<trkpt lat="46.27343" lon="7.32106"><ele></ele><time>2023-7-27T23:36:50Z</time></trkpt>
<trkpt lat="46.27341" lon="7.32101"><ele></ele><time>2023-7-27T23:36:53Z</time></trkpt>
<trkpt lat="46.27335" lon="7.32092"><ele></ele><time>2023-7-27T23:36:56Z</time></trkpt>
<trkpt lat="46.27331" lon="7.32086"><ele></ele><time>2023-7-27T23:36:59Z</time></trkpt>
<trkpt lat="46.27328" lon="7.32081"><ele></ele><time>2023-7-27T23:37:2Z</time></trkpt>
<trkpt lat="46.27318" lon="7.32065"><ele></ele><time>2023-7-27T23:37:5Z</time></trkpt>
<trkpt lat="46.27317" lon="7.32063"><ele></ele><time>2023-7-27T23:37:8Z</time></trkpt>
<trkpt lat="46.27308" lon="7.32053"><ele></ele><time>2023-7-27T23:37:11Z</time></trkpt>
<trkpt lat="46.27302" lon="7.32045"><ele></ele><time>2023-7-27T23:37:14Z</time></trkpt>
<trkpt lat="46.27301" lon="7.32043"><ele></ele><time>2023-7-27T23:37:17Z</time></trkpt>
<trkpt lat="46.27292" lon="7.32032"><ele></ele><time>2023-7-27T23:37:20Z</time></trkpt>
<trkpt lat="46.27288" lon="7.32028"><ele></ele><time>2023-7-27T23:37:23Z</time></trkpt>
<trkpt lat="46.2728" lon="7.32016"><ele></ele><time>2023-7-27T23:37:26Z</time></trkpt>
<trkpt lat="46.27273" lon="7.32007"><ele></ele><time>2023-7-27T23:37:29Z</time></trkpt>
<trkpt lat="46.2727" lon="7.32003"><ele></ele><time>2023-7-27T23:37:32Z</time></trkpt>
<trkpt lat="46.27262" lon="7.31989"><ele></ele><time>2023-7-27T23:37:35Z</time></trkpt>
<trkpt lat="46.27257" lon="7.31981"><ele></ele><time>2023-7-27T23:37:38Z</time></trkpt>
<trkpt lat="46.27252" lon="7.31973"><ele></ele><time>2023-7-27T23:37:41Z</time></trkpt>
<trkpt lat="46.27243" lon="7.3196"><ele></ele><time>2023-7-27T23:37:44Z</time></trkpt>
<trkpt lat="46.27241" lon="7.31958"><ele></ele><time>2023-7-27T23:37:47Z</time></trkpt>
<trkpt lat="46.27231" lon="7.31943"><ele></ele><time>2023-7-27T23:37:50Z</time></trkpt>
<trkpt lat="46.27223" lon="7.31937"><ele></ele><time>2023-7-27T23:37:53Z</time></trkpt>
<trkpt lat="46.27221" lon="7.31936"><ele></ele><time>2023-7-27T23:37:56Z</time></trkpt>
<trkpt lat="46.27211" lon="7.31932"><ele></ele><time>2023-7-27T23:37:59Z</time></trkpt>
<trkpt lat="46.27206" lon="7.31931"><ele></ele><time>2023-7-27T23:38:2Z</time></trkpt>
<trkpt lat="46.27202" lon="7.31929"><ele></ele><time>2023-7-27T23:38:5Z</time></trkpt>
<trkpt lat="46.27201" lon="7.31928"><ele></ele><time>2023-7-27T23:38:8Z</time></trkpt>
<trkpt lat="46.272" lon="7.31927"><ele></ele><time>2023-7-27T23:38:11Z</time></trkpt>
<trkpt lat="46.27195" lon="7.31918"><ele></ele><time>2023-7-27T23:38:14Z</time></trkpt>
<trkpt lat="46.27182" lon="7.31911"><ele></ele><time>2023-7-27T23:38:17Z</time></trkpt>
<trkpt lat="46.27177" lon="7.3191"><ele></ele><time>2023-7-27T23:38:20Z</time></trkpt>
<trkpt lat="46.27163" lon="7.31901"><ele></ele><time>2023-7-27T23:38:23Z</time></trkpt>
<trkpt lat="46.27151" lon="7.31892"><ele></ele><time>2023-7-27T23:38:26Z</time></trkpt>
<trkpt lat="46.27132" lon="7.31878"><ele></ele><time>2023-7-27T23:38:29Z</time></trkpt>
<trkpt lat="46.27117" lon="7.31867"><ele></ele><time>2023-7-27T23:38:32Z</time></trkpt>
<trkpt lat="46.27109" lon="7.31862"><ele></ele><time>2023-7-27T23:38:35Z</time></trkpt>
<trkpt lat="46.27094" lon="7.31849"><ele></ele><time>2023-7-27T23:38:38Z</time></trkpt>
<trkpt lat="46.27078" lon="7.31832"><ele></ele><time>2023-7-27T23:38:41Z</time></trkpt>
<trkpt lat="46.2707" lon="7.31823"><ele></ele><time>2023-7-27T23:38:44Z</time></trkpt>
<trkpt lat="46.27063" lon="7.31813"><ele></ele><time>2023-7-27T23:38:47Z</time></trkpt>
<trkpt lat="46.27056" lon="7.31801"><ele></ele><time>2023-7-27T23:38:50Z</time></trkpt>
<trkpt lat="46.2704" lon="7.31781"><ele></ele><time>2023-7-27T23:38:53Z</time></trkpt>
<trkpt lat="46.27031" lon="7.31772"><ele></ele><time>2023-7-27T23:38:56Z</time></trkpt>
<trkpt lat="46.27021" lon="7.31766"><ele></ele><time>2023-7-27T23:38:59Z</time></trkpt>
<trkpt lat="46.27009" lon="7.31762"><ele></ele><time>2023-7-27T23:39:2Z</time></trkpt>
<trkpt lat="46.26998" lon="7.31761"><ele></ele><time>2023-7-27T23:39:5Z</time></trkpt>
<trkpt lat="46.26986" lon="7.31763"><ele></ele><time>2023-7-27T23:39:8Z</time></trkpt>
<trkpt lat="46.26975" lon="7.31768"><ele></ele><time>2023-7-27T23:39:11Z</time></trkpt>
<trkpt lat="46.26965" lon="7.31777"><ele></ele><time>2023-7-27T23:39:14Z</time></trkpt>
<trkpt lat="46.26955" lon="7.31787"><ele></ele><time>2023-7-27T23:39:17Z</time></trkpt>
<trkpt lat="46.26945" lon="7.31797"><ele></ele><time>2023-7-27T23:39:20Z</time></trkpt>
<trkpt lat="46.26933" lon="7.31803"><ele></ele><time>2023-7-27T23:39:23Z</time></trkpt>
<trkpt lat="46.26922" lon="7.31808"><ele></ele><time>2023-7-27T23:39:26Z</time></trkpt>
<trkpt lat="46.26909" lon="7.31807"><ele></ele><time>2023-7-27T23:39:29Z</time></trkpt>
<trkpt lat="46.26898" lon="7.318"><ele></ele><time>2023-7-27T23:39:32Z</time></trkpt>
<trkpt lat="46.26887" lon="7.31792"><ele></ele><time>2023-7-27T23:39:35Z</time></trkpt>
<trkpt lat="46.26877" lon="7.31781"><ele></ele><time>2023-7-27T23:39:38Z</time></trkpt>
<trkpt lat="46.26869" lon="7.31767"><ele></ele><time>2023-7-27T23:39:41Z</time></trkpt>
<trkpt lat="46.26859" lon="7.31755"><ele></ele><time>2023-7-27T23:39:44Z</time></trkpt>
<trkpt lat="46.26839" lon="7.31732"><ele></ele><time>2023-7-27T23:39:47Z</time></trkpt>
<trkpt lat="46.26829" lon="7.3172"><ele></ele><time>2023-7-27T23:39:50Z</time></trkpt>
<trkpt lat="46.26819" lon="7.31707"><ele></ele><time>2023-7-27T23:39:53Z</time></trkpt>
<trkpt lat="46.26811" lon="7.31692"><ele></ele><time>2023-7-27T23:39:56Z</time></trkpt>
<trkpt lat="46.26804" lon="7.31676"><ele></ele><time>2023-7-27T23:39:59Z</time></trkpt>
<trkpt lat="46.26798" lon="7.31658"><ele></ele><time>2023-7-27T23:40:2Z</time></trkpt>
<trkpt lat="46.26794" lon="7.31638"><ele></ele><time>2023-7-27T23:40:5Z</time></trkpt>
<trkpt lat="46.26796" lon="7.316"><ele></ele><time>2023-7-27T23:40:8Z</time></trkpt>
<trkpt lat="46.26806" lon="7.31565"><ele></ele><time>2023-7-27T23:40:11Z</time></trkpt>
<trkpt lat="46.26813" lon="7.31549"><ele></ele><time>2023-7-27T23:40:14Z</time></trkpt>
<trkpt lat="46.26831" lon="7.31523"><ele></ele><time>2023-7-27T23:40:17Z</time></trkpt>
<trkpt lat="46.26853" lon="7.31501"><ele></ele><time>2023-7-27T23:40:20Z</time></trkpt>
<trkpt lat="46.26872" lon="7.31473"><ele></ele><time>2023-7-27T23:40:23Z</time></trkpt>
<trkpt lat="46.2688" lon="7.31435"><ele></ele><time>2023-7-27T23:40:26Z</time></trkpt>
<trkpt lat="46.26884" lon="7.31396"><ele></ele><time>2023-7-27T23:40:29Z</time></trkpt>
<trkpt lat="46.26889" lon="7.31378"><ele></ele><time>2023-7-27T23:40:32Z</time></trkpt>
<trkpt lat="46.26893" lon="7.31359"><ele></ele><time>2023-7-27T23:40:35Z</time></trkpt>
<trkpt lat="46.26897" lon="7.3134"><ele></ele><time>2023-7-27T23:40:38Z</time></trkpt>
<trkpt lat="46.26897" lon="7.31323"><ele></ele><time>2023-7-27T23:40:41Z</time></trkpt>
<trkpt lat="46.26895" lon="7.31303"><ele></ele><time>2023-7-27T23:40:44Z</time></trkpt>
<trkpt lat="46.26887" lon="7.31287"><ele></ele><time>2023-7-27T23:40:47Z</time></trkpt>
<trkpt lat="46.26877" lon="7.31277"><ele></ele><time>2023-7-27T23:40:50Z</time></trkpt>
<trkpt lat="46.26866" lon="7.31273"><ele></ele><time>2023-7-27T23:40:53Z</time></trkpt>
<trkpt lat="46.26855" lon="7.31273"><ele></ele><time>2023-7-27T23:40:56Z</time></trkpt>
<trkpt lat="46.26844" lon="7.31276"><ele></ele><time>2023-7-27T23:40:59Z</time></trkpt>
<trkpt lat="46.26827" lon="7.31286"><ele></ele><time>2023-7-27T23:41:2Z</time></trkpt>
<trkpt lat="46.26814" lon="7.313"><ele></ele><time>2023-7-27T23:41:5Z</time></trkpt>
<trkpt lat="46.26809" lon="7.31307"><ele></ele><time>2023-7-27T23:41:8Z</time></trkpt>
<trkpt lat="46.26804" lon="7.31313"><ele></ele><time>2023-7-27T23:41:11Z</time></trkpt>
<trkpt lat="46.26796" lon="7.31323"><ele></ele><time>2023-7-27T23:41:14Z</time></trkpt>
<trkpt lat="46.26792" lon="7.31327"><ele></ele><time>2023-7-27T23:41:17Z</time></trkpt>
<trkpt lat="46.26786" lon="7.31334"><ele></ele><time>2023-7-27T23:41:20Z</time></trkpt>
<trkpt lat="46.26779" lon="7.31341"><ele></ele><time>2023-7-27T23:41:23Z</time></trkpt>
<trkpt lat="46.26777" lon="7.31343"><ele></ele><time>2023-7-27T23:41:26Z</time></trkpt>
<trkpt lat="46.26768" lon="7.31356"><ele></ele><time>2023-7-27T23:41:29Z</time></trkpt>
<trkpt lat="46.26763" lon="7.31363"><ele></ele><time>2023-7-27T23:41:32Z</time></trkpt>
<trkpt lat="46.26753" lon="7.31377"><ele></ele><time>2023-7-27T23:41:35Z</time></trkpt>
<trkpt lat="46.26749" lon="7.31383"><ele></ele><time>2023-7-27T23:41:38Z</time></trkpt>
<trkpt lat="46.2674" lon="7.31395"><ele></ele><time>2023-7-27T23:41:41Z</time></trkpt>
<trkpt lat="46.26732" lon="7.31405"><ele></ele><time>2023-7-27T23:41:44Z</time></trkpt>
<trkpt lat="46.26728" lon="7.31412"><ele></ele><time>2023-7-27T23:41:47Z</time></trkpt>
<trkpt lat="46.26723" lon="7.31428"><ele></ele><time>2023-7-27T23:41:50Z</time></trkpt>
<trkpt lat="46.2672" lon="7.3144"><ele></ele><time>2023-7-27T23:41:53Z</time></trkpt>
<trkpt lat="46.26719" lon="7.31444"><ele></ele><time>2023-7-27T23:41:56Z</time></trkpt>
<trkpt lat="46.26716" lon="7.31467"><ele></ele><time>2023-7-27T23:41:59Z</time></trkpt>
<trkpt lat="46.26715" lon="7.31478"><ele></ele><time>2023-7-27T23:42:2Z</time></trkpt>
<trkpt lat="46.26712" lon="7.31493"><ele></ele><time>2023-7-27T23:42:5Z</time></trkpt>
<trkpt lat="46.2671" lon="7.31502"><ele></ele><time>2023-7-27T23:42:8Z</time></trkpt>
<trkpt lat="46.26706" lon="7.31514"><ele></ele><time>2023-7-27T23:42:11Z</time></trkpt>
<trkpt lat="46.267" lon="7.31523"><ele></ele><time>2023-7-27T23:42:14Z</time></trkpt>
<trkpt lat="46.2668" lon="7.3153"><ele></ele><time>2023-7-27T23:42:17Z</time></trkpt>
<trkpt lat="46.26659" lon="7.3152"><ele></ele><time>2023-7-27T23:42:20Z</time></trkpt>
<trkpt lat="46.2663" lon="7.31505"><ele></ele><time>2023-7-27T23:42:23Z</time></trkpt>
<trkpt lat="46.26607" lon="7.31501"><ele></ele><time>2023-7-27T23:42:26Z</time></trkpt>
<trkpt lat="46.26595" lon="7.31503"><ele></ele><time>2023-7-27T23:42:29Z</time></trkpt>
<trkpt lat="46.26574" lon="7.31505"><ele></ele><time>2023-7-27T23:42:32Z</time></trkpt>
<trkpt lat="46.26554" lon="7.31503"><ele></ele><time>2023-7-27T23:42:35Z</time></trkpt>
<trkpt lat="46.26533" lon="7.31502"><ele></ele><time>2023-7-27T23:42:38Z</time></trkpt>
<trkpt lat="46.26503" lon="7.31504"><ele></ele><time>2023-7-27T23:42:41Z</time></trkpt>
<trkpt lat="46.2648" lon="7.31505"><ele></ele><time>2023-7-27T23:42:44Z</time></trkpt>
<trkpt lat="46.26458" lon="7.31507"><ele></ele><time>2023-7-27T23:42:47Z</time></trkpt>
<trkpt lat="46.26451" lon="7.31502"><ele></ele><time>2023-7-27T23:42:50Z</time></trkpt>
<trkpt lat="46.26446" lon="7.31493"><ele></ele><time>2023-7-27T23:42:53Z</time></trkpt>
<trkpt lat="46.26443" lon="7.31482"><ele></ele><time>2023-7-27T23:42:56Z</time></trkpt>
<trkpt lat="46.26436" lon="7.31458"><ele></ele><time>2023-7-27T23:42:59Z</time></trkpt>
<trkpt lat="46.26425" lon="7.31435"><ele></ele><time>2023-7-27T23:43:2Z</time></trkpt>
<trkpt lat="46.26418" lon="7.31426"><ele></ele><time>2023-7-27T23:43:5Z</time></trkpt>
<trkpt lat="46.26395" lon="7.31399"><ele></ele><time>2023-7-27T23:43:8Z</time></trkpt>
<trkpt lat="46.26364" lon="7.31367"><ele></ele><time>2023-7-27T23:43:11Z</time></trkpt>
<trkpt lat="46.2635" lon="7.31353"><ele></ele><time>2023-7-27T23:43:14Z</time></trkpt>
<trkpt lat="46.26343" lon="7.31346"><ele></ele><time>2023-7-27T23:43:17Z</time></trkpt>
<trkpt lat="46.26308" lon="7.31311"><ele></ele><time>2023-7-27T23:43:20Z</time></trkpt>
<trkpt lat="46.26283" lon="7.31285"><ele></ele><time>2023-7-27T23:43:23Z</time></trkpt>
<trkpt lat="46.26254" lon="7.3124"><ele></ele><time>2023-7-27T23:43:26Z</time></trkpt>
<trkpt lat="46.26237" lon="7.31212"><ele></ele><time>2023-7-27T23:43:29Z</time></trkpt>
<trkpt lat="46.26229" lon="7.31198"><ele></ele><time>2023-7-27T23:43:32Z</time></trkpt>
<trkpt lat="46.26215" lon="7.31179"><ele></ele><time>2023-7-27T23:43:35Z</time></trkpt>
<trkpt lat="46.26172" lon="7.31134"><ele></ele><time>2023-7-27T23:43:38Z</time></trkpt>
<trkpt lat="46.26133" lon="7.31091"><ele></ele><time>2023-7-27T23:43:41Z</time></trkpt>
<trkpt lat="46.26114" lon="7.3106"><ele></ele><time>2023-7-27T23:43:44Z</time></trkpt>
<trkpt lat="46.26107" lon="7.31056"><ele></ele><time>2023-7-27T23:43:47Z</time></trkpt>
<trkpt lat="46.26101" lon="7.31052"><ele></ele><time>2023-7-27T23:43:50Z</time></trkpt>
<trkpt lat="46.26082" lon="7.31047"><ele></ele><time>2023-7-27T23:43:53Z</time></trkpt>
<trkpt lat="46.26044" lon="7.31036"><ele></ele><time>2023-7-27T23:43:56Z</time></trkpt>
<trkpt lat="46.26011" lon="7.31025"><ele></ele><time>2023-7-27T23:43:59Z</time></trkpt>
<trkpt lat="46.25982" lon="7.31024"><ele></ele><time>2023-7-27T23:44:2Z</time></trkpt>
<trkpt lat="46.25952" lon="7.31033"><ele></ele><time>2023-7-27T23:44:5Z</time></trkpt>
<trkpt lat="46.25947" lon="7.31032"><ele></ele><time>2023-7-27T23:44:8Z</time></trkpt>
<trkpt lat="46.25943" lon="7.3103"><ele></ele><time>2023-7-27T23:44:11Z</time></trkpt>
<trkpt lat="46.25933" lon="7.31025"><ele></ele><time>2023-7-27T23:44:14Z</time></trkpt>
<trkpt lat="46.25923" lon="7.31017"><ele></ele><time>2023-7-27T23:44:17Z</time></trkpt>
<trkpt lat="46.25914" lon="7.31005"><ele></ele><time>2023-7-27T23:44:20Z</time></trkpt>
<trkpt lat="46.25893" lon="7.30988"><ele></ele><time>2023-7-27T23:44:23Z</time></trkpt>
<trkpt lat="46.25885" lon="7.30982"><ele></ele><time>2023-7-27T23:44:26Z</time></trkpt>
<trkpt lat="46.25878" lon="7.30973"><ele></ele><time>2023-7-27T23:44:29Z</time></trkpt>
<trkpt lat="46.25867" lon="7.30953"><ele></ele><time>2023-7-27T23:44:32Z</time></trkpt>
<trkpt lat="46.25859" lon="7.30931"><ele></ele><time>2023-7-27T23:44:35Z</time></trkpt>
<trkpt lat="46.25856" lon="7.30918"><ele></ele><time>2023-7-27T23:44:38Z</time></trkpt>
<trkpt lat="46.25853" lon="7.30906"><ele></ele><time>2023-7-27T23:44:41Z</time></trkpt>
<trkpt lat="46.25847" lon="7.30866"><ele></ele><time>2023-7-27T23:44:44Z</time></trkpt>
<trkpt lat="46.25841" lon="7.30838"><ele></ele><time>2023-7-27T23:44:47Z</time></trkpt>
<trkpt lat="46.25836" lon="7.30825"><ele></ele><time>2023-7-27T23:44:50Z</time></trkpt>
<trkpt lat="46.2583" lon="7.30814"><ele></ele><time>2023-7-27T23:44:53Z</time></trkpt>
<trkpt lat="46.25824" lon="7.30802"><ele></ele><time>2023-7-27T23:44:56Z</time></trkpt>
<trkpt lat="46.25818" lon="7.3079"><ele></ele><time>2023-7-27T23:44:59Z</time></trkpt>
<trkpt lat="46.25813" lon="7.30778"><ele></ele><time>2023-7-27T23:45:2Z</time></trkpt>
<trkpt lat="46.25809" lon="7.30764"><ele></ele><time>2023-7-27T23:45:5Z</time></trkpt>
<trkpt lat="46.25805" lon="7.30735"><ele></ele><time>2023-7-27T23:45:8Z</time></trkpt>
<trkpt lat="46.258" lon="7.30708"><ele></ele><time>2023-7-27T23:45:11Z</time></trkpt>
<trkpt lat="46.25792" lon="7.30698"><ele></ele><time>2023-7-27T23:45:14Z</time></trkpt>
<trkpt lat="46.25782" lon="7.30692"><ele></ele><time>2023-7-27T23:45:17Z</time></trkpt>
<trkpt lat="46.25772" lon="7.30691"><ele></ele><time>2023-7-27T23:45:20Z</time></trkpt>
<trkpt lat="46.25762" lon="7.30691"><ele></ele><time>2023-7-27T23:45:23Z</time></trkpt>
<trkpt lat="46.25742" lon="7.30685"><ele></ele><time>2023-7-27T23:45:26Z</time></trkpt>
<trkpt lat="46.25734" lon="7.30679"><ele></ele><time>2023-7-27T23:45:29Z</time></trkpt>
<trkpt lat="46.25726" lon="7.30672"><ele></ele><time>2023-7-27T23:45:32Z</time></trkpt>
<trkpt lat="46.25711" lon="7.30654"><ele></ele><time>2023-7-27T23:45:35Z</time></trkpt>
<trkpt lat="46.25704" lon="7.30645"><ele></ele><time>2023-7-27T23:45:38Z</time></trkpt>
<trkpt lat="46.25696" lon="7.30636"><ele></ele><time>2023-7-27T23:45:41Z</time></trkpt>
<trkpt lat="46.2568" lon="7.30623"><ele></ele><time>2023-7-27T23:45:44Z</time></trkpt>
<trkpt lat="46.25671" lon="7.30618"><ele></ele><time>2023-7-27T23:45:47Z</time></trkpt>
<trkpt lat="46.25662" lon="7.30614"><ele></ele><time>2023-7-27T23:45:50Z</time></trkpt>
<trkpt lat="46.25646" lon="7.30601"><ele></ele><time>2023-7-27T23:45:53Z</time></trkpt>
<trkpt lat="46.2564" lon="7.30592"><ele></ele><time>2023-7-27T23:45:56Z</time></trkpt>
<trkpt lat="46.25635" lon="7.30582"><ele></ele><time>2023-7-27T23:45:59Z</time></trkpt>
<trkpt lat="46.25625" lon="7.30572"><ele></ele><time>2023-7-27T23:46:2Z</time></trkpt>
<trkpt lat="46.25618" lon="7.30581"><ele></ele><time>2023-7-27T23:46:5Z</time></trkpt>
<trkpt lat="46.25624" lon="7.30594"><ele></ele><time>2023-7-27T23:46:8Z</time></trkpt>
<trkpt lat="46.25632" lon="7.30606"><ele></ele><time>2023-7-27T23:46:11Z</time></trkpt>
<trkpt lat="46.25646" lon="7.30629"><ele></ele><time>2023-7-27T23:46:14Z</time></trkpt>
<trkpt lat="46.25652" lon="7.30636"><ele></ele><time>2023-7-27T23:46:17Z</time></trkpt>
<trkpt lat="46.25666" lon="7.30652"><ele></ele><time>2023-7-27T23:46:20Z</time></trkpt>
<trkpt lat="46.25673" lon="7.30661"><ele></ele><time>2023-7-27T23:46:23Z</time></trkpt>
<trkpt lat="46.2568" lon="7.3067"><ele></ele><time>2023-7-27T23:46:26Z</time></trkpt>
<trkpt lat="46.25693" lon="7.30691"><ele></ele><time>2023-7-27T23:46:29Z</time></trkpt>
<trkpt lat="46.25708" lon="7.30712"><ele></ele><time>2023-7-27T23:46:32Z</time></trkpt>
<trkpt lat="46.25717" lon="7.30721"><ele></ele><time>2023-7-27T23:46:35Z</time></trkpt>
<trkpt lat="46.25737" lon="7.30735"><ele></ele><time>2023-7-27T23:46:38Z</time></trkpt>
<trkpt lat="46.25755" lon="7.30745"><ele></ele><time>2023-7-27T23:46:41Z</time></trkpt>
<trkpt lat="46.25759" lon="7.30753"><ele></ele><time>2023-7-27T23:46:44Z</time></trkpt>
<trkpt lat="46.25759" lon="7.3076"><ele></ele><time>2023-7-27T23:46:47Z</time></trkpt>
<trkpt lat="46.25754" lon="7.30764"><ele></ele><time>2023-7-27T23:46:50Z</time></trkpt>
<trkpt lat="46.25749" lon="7.30762"><ele></ele><time>2023-7-27T23:46:53Z</time></trkpt>
<trkpt lat="46.25743" lon="7.30758"><ele></ele><time>2023-7-27T23:46:56Z</time></trkpt>
<trkpt lat="46.25739" lon="7.30753"><ele></ele><time>2023-7-27T23:46:59Z</time></trkpt>
<trkpt lat="46.25726" lon="7.30744"><ele></ele><time>2023-7-27T23:47:2Z</time></trkpt>
<trkpt lat="46.25719" lon="7.30742"><ele></ele><time>2023-7-27T23:47:5Z</time></trkpt>
<trkpt lat="46.25711" lon="7.3074"><ele></ele><time>2023-7-27T23:47:8Z</time></trkpt>
<trkpt lat="46.25692" lon="7.30738"><ele></ele><time>2023-7-27T23:47:11Z</time></trkpt>
<trkpt lat="46.25682" lon="7.30734"><ele></ele><time>2023-7-27T23:47:14Z</time></trkpt>
<trkpt lat="46.25662" lon="7.30726"><ele></ele><time>2023-7-27T23:47:17Z</time></trkpt>
<trkpt lat="46.2564" lon="7.30718"><ele></ele><time>2023-7-27T23:47:20Z</time></trkpt>
<trkpt lat="46.25628" lon="7.30718"><ele></ele><time>2023-7-27T23:47:23Z</time></trkpt>
<trkpt lat="46.25617" lon="7.3072"><ele></ele><time>2023-7-27T23:47:26Z</time></trkpt>
<trkpt lat="46.25606" lon="7.30724"><ele></ele><time>2023-7-27T23:47:29Z</time></trkpt>
<trkpt lat="46.25595" lon="7.30728"><ele></ele><time>2023-7-27T23:47:32Z</time></trkpt>
<trkpt lat="46.25575" lon="7.30734"><ele></ele><time>2023-7-27T23:47:35Z</time></trkpt>
<trkpt lat="46.25566" lon="7.30736"><ele></ele><time>2023-7-27T23:47:38Z</time></trkpt>
<trkpt lat="46.25557" lon="7.30735"><ele></ele><time>2023-7-27T23:47:41Z</time></trkpt>
<trkpt lat="46.2555" lon="7.30731"><ele></ele><time>2023-7-27T23:47:44Z</time></trkpt>
<trkpt lat="46.25543" lon="7.30725"><ele></ele><time>2023-7-27T23:47:47Z</time></trkpt>
<trkpt lat="46.25538" lon="7.30718"><ele></ele><time>2023-7-27T23:47:50Z</time></trkpt>
<trkpt lat="46.25528" lon="7.30703"><ele></ele><time>2023-7-27T23:47:53Z</time></trkpt>
<trkpt lat="46.25515" lon="7.3068"><ele></ele><time>2023-7-27T23:47:56Z</time></trkpt>
<trkpt lat="46.25511" lon="7.30672"><ele></ele><time>2023-7-27T23:47:59Z</time></trkpt>
<trkpt lat="46.25501" lon="7.30649"><ele></ele><time>2023-7-27T23:48:2Z</time></trkpt>
<trkpt lat="46.25497" lon="7.30643"><ele></ele><time>2023-7-27T23:48:5Z</time></trkpt>
<trkpt lat="46.25493" lon="7.30639"><ele></ele><time>2023-7-27T23:48:8Z</time></trkpt>
<trkpt lat="46.25482" lon="7.30631"><ele></ele><time>2023-7-27T23:48:11Z</time></trkpt>
<trkpt lat="46.25475" lon="7.30627"><ele></ele><time>2023-7-27T23:48:14Z</time></trkpt>
<trkpt lat="46.25462" lon="7.30619"><ele></ele><time>2023-7-27T23:48:17Z</time></trkpt>
<trkpt lat="46.25449" lon="7.30611"><ele></ele><time>2023-7-27T23:48:20Z</time></trkpt>
<trkpt lat="46.25434" lon="7.30603"><ele></ele><time>2023-7-27T23:48:23Z</time></trkpt>
<trkpt lat="46.254" lon="7.3059"><ele></ele><time>2023-7-27T23:48:26Z</time></trkpt>
<trkpt lat="46.25391" lon="7.30588"><ele></ele><time>2023-7-27T23:48:29Z</time></trkpt>
<trkpt lat="46.25382" lon="7.30587"><ele></ele><time>2023-7-27T23:48:32Z</time></trkpt>
<trkpt lat="46.25361" lon="7.30586"><ele></ele><time>2023-7-27T23:48:35Z</time></trkpt>
<trkpt lat="46.25351" lon="7.30583"><ele></ele><time>2023-7-27T23:48:38Z</time></trkpt>
<trkpt lat="46.25341" lon="7.30577"><ele></ele><time>2023-7-27T23:48:41Z</time></trkpt>
<trkpt lat="46.25333" lon="7.30568"><ele></ele><time>2023-7-27T23:48:44Z</time></trkpt>
<trkpt lat="46.25326" lon="7.30556"><ele></ele><time>2023-7-27T23:48:47Z</time></trkpt>
<trkpt lat="46.25319" lon="7.30545"><ele></ele><time>2023-7-27T23:48:50Z</time></trkpt>
<trkpt lat="46.25303" lon="7.30526"><ele></ele><time>2023-7-27T23:48:53Z</time></trkpt>
<trkpt lat="46.25293" lon="7.30518"><ele></ele><time>2023-7-27T23:48:56Z</time></trkpt>
<trkpt lat="46.25283" lon="7.30512"><ele></ele><time>2023-7-27T23:48:59Z</time></trkpt>
<trkpt lat="46.25272" lon="7.30506"><ele></ele><time>2023-7-27T23:49:2Z</time></trkpt>
<trkpt lat="46.25263" lon="7.30498"><ele></ele><time>2023-7-27T23:49:5Z</time></trkpt>
<trkpt lat="46.25256" lon="7.30486"><ele></ele><time>2023-7-27T23:49:8Z</time></trkpt>
<trkpt lat="46.25252" lon="7.30473"><ele></ele><time>2023-7-27T23:49:11Z</time></trkpt>
<trkpt lat="46.25248" lon="7.30458"><ele></ele><time>2023-7-27T23:49:14Z</time></trkpt>
<trkpt lat="46.25243" lon="7.30444"><ele></ele><time>2023-7-27T23:49:17Z</time></trkpt>
<trkpt lat="46.25232" lon="7.30417"><ele></ele><time>2023-7-27T23:49:20Z</time></trkpt>
<trkpt lat="46.25225" lon="7.30405"><ele></ele><time>2023-7-27T23:49:23Z</time></trkpt>
<trkpt lat="46.25217" lon="7.30394"><ele></ele><time>2023-7-27T23:49:26Z</time></trkpt>
<trkpt lat="46.25192" lon="7.30362"><ele></ele><time>2023-7-27T23:49:29Z</time></trkpt>
<trkpt lat="46.25175" lon="7.30341"><ele></ele><time>2023-7-27T23:49:32Z</time></trkpt>
<trkpt lat="46.25166" lon="7.30331"><ele></ele><time>2023-7-27T23:49:35Z</time></trkpt>
<trkpt lat="46.25157" lon="7.30321"><ele></ele><time>2023-7-27T23:49:38Z</time></trkpt>
<trkpt lat="46.25139" lon="7.30301"><ele></ele><time>2023-7-27T23:49:41Z</time></trkpt>
<trkpt lat="46.2513" lon="7.30291"><ele></ele><time>2023-7-27T23:49:44Z</time></trkpt>
<trkpt lat="46.25112" lon="7.30271"><ele></ele><time>2023-7-27T23:49:47Z</time></trkpt>
<trkpt lat="46.25084" lon="7.30243"><ele></ele><time>2023-7-27T23:49:50Z</time></trkpt>
<trkpt lat="46.25074" lon="7.30234"><ele></ele><time>2023-7-27T23:49:53Z</time></trkpt>
<trkpt lat="46.25063" lon="7.30226"><ele></ele><time>2023-7-27T23:49:56Z</time></trkpt>
<trkpt lat="46.25052" lon="7.30219"><ele></ele><time>2023-7-27T23:49:59Z</time></trkpt>
<trkpt lat="46.2504" lon="7.30214"><ele></ele><time>2023-7-27T23:50:2Z</time></trkpt>
<trkpt lat="46.25028" lon="7.3021"><ele></ele><time>2023-7-27T23:50:5Z</time></trkpt>
<trkpt lat="46.24992" lon="7.30199"><ele></ele><time>2023-7-27T23:50:8Z</time></trkpt>
<trkpt lat="46.2498" lon="7.30194"><ele></ele><time>2023-7-27T23:50:11Z</time></trkpt>
<trkpt lat="46.24969" lon="7.3019"><ele></ele><time>2023-7-27T23:50:14Z</time></trkpt>
<trkpt lat="46.24945" lon="7.30186"><ele></ele><time>2023-7-27T23:50:17Z</time></trkpt>
<trkpt lat="46.24933" lon="7.30187"><ele></ele><time>2023-7-27T23:50:20Z</time></trkpt>
<trkpt lat="46.24921" lon="7.3019"><ele></ele><time>2023-7-27T23:50:23Z</time></trkpt>
<trkpt lat="46.24909" lon="7.30194"><ele></ele><time>2023-7-27T23:50:26Z</time></trkpt>
<trkpt lat="46.24897" lon="7.302"><ele></ele><time>2023-7-27T23:50:29Z</time></trkpt>
<trkpt lat="46.24886" lon="7.30204"><ele></ele><time>2023-7-27T23:50:32Z</time></trkpt>
<trkpt lat="46.24874" lon="7.30207"><ele></ele><time>2023-7-27T23:50:35Z</time></trkpt>
<trkpt lat="46.24835" lon="7.30212"><ele></ele><time>2023-7-27T23:50:38Z</time></trkpt>
<trkpt lat="46.24822" lon="7.30211"><ele></ele><time>2023-7-27T23:50:41Z</time></trkpt>
<trkpt lat="46.24809" lon="7.3021"><ele></ele><time>2023-7-27T23:50:44Z</time></trkpt>
<trkpt lat="46.24797" lon="7.30209"><ele></ele><time>2023-7-27T23:50:47Z</time></trkpt>
<trkpt lat="46.24771" lon="7.3021"><ele></ele><time>2023-7-27T23:50:50Z</time></trkpt>
<trkpt lat="46.24758" lon="7.30215"><ele></ele><time>2023-7-27T23:50:53Z</time></trkpt>
<trkpt lat="46.24747" lon="7.30223"><ele></ele><time>2023-7-27T23:50:56Z</time></trkpt>
<trkpt lat="46.24724" lon="7.30243"><ele></ele><time>2023-7-27T23:50:59Z</time></trkpt>
<trkpt lat="46.24712" lon="7.30254"><ele></ele><time>2023-7-27T23:51:2Z</time></trkpt>
<trkpt lat="46.24691" lon="7.30275"><ele></ele><time>2023-7-27T23:51:5Z</time></trkpt>
<trkpt lat="46.24679" lon="7.30281"><ele></ele><time>2023-7-27T23:51:8Z</time></trkpt>
<trkpt lat="46.24666" lon="7.30284"><ele></ele><time>2023-7-27T23:51:11Z</time></trkpt>
<trkpt lat="46.24654" lon="7.30283"><ele></ele><time>2023-7-27T23:51:14Z</time></trkpt>
<trkpt lat="46.24642" lon="7.30279"><ele></ele><time>2023-7-27T23:51:17Z</time></trkpt>
<trkpt lat="46.24632" lon="7.3027"><ele></ele><time>2023-7-27T23:51:20Z</time></trkpt>
<trkpt lat="46.24625" lon="7.30259"><ele></ele><time>2023-7-27T23:51:23Z</time></trkpt>
<trkpt lat="46.24619" lon="7.30247"><ele></ele><time>2023-7-27T23:51:26Z</time></trkpt>
<trkpt lat="46.24614" lon="7.30234"><ele></ele><time>2023-7-27T23:51:29Z</time></trkpt>
<trkpt lat="46.24609" lon="7.30222"><ele></ele><time>2023-7-27T23:51:32Z</time></trkpt>
<trkpt lat="46.24605" lon="7.3021"><ele></ele><time>2023-7-27T23:51:35Z</time></trkpt>
<trkpt lat="46.24596" lon="7.30186"><ele></ele><time>2023-7-27T23:51:38Z</time></trkpt>
<trkpt lat="46.24589" lon="7.30163"><ele></ele><time>2023-7-27T23:51:41Z</time></trkpt>
<trkpt lat="46.24587" lon="7.30151"><ele></ele><time>2023-7-27T23:51:44Z</time></trkpt>
<trkpt lat="46.24577" lon="7.30117"><ele></ele><time>2023-7-27T23:51:47Z</time></trkpt>
<trkpt lat="46.24573" lon="7.30106"><ele></ele><time>2023-7-27T23:51:50Z</time></trkpt>
<trkpt lat="46.24564" lon="7.30085"><ele></ele><time>2023-7-27T23:51:53Z</time></trkpt>
<trkpt lat="46.24554" lon="7.30066"><ele></ele><time>2023-7-27T23:51:56Z</time></trkpt>
<trkpt lat="46.24544" lon="7.30046"><ele></ele><time>2023-7-27T23:51:59Z</time></trkpt>
<trkpt lat="46.24534" lon="7.30024"><ele></ele><time>2023-7-27T23:52:2Z</time></trkpt>
<trkpt lat="46.2453" lon="7.3"><ele></ele><time>2023-7-27T23:52:5Z</time></trkpt>
<trkpt lat="46.24529" lon="7.29988"><ele></ele><time>2023-7-27T23:52:8Z</time></trkpt>
<trkpt lat="46.24529" lon="7.29975"><ele></ele><time>2023-7-27T23:52:11Z</time></trkpt>
<trkpt lat="46.24528" lon="7.29951"><ele></ele><time>2023-7-27T23:52:14Z</time></trkpt>
<trkpt lat="46.24528" lon="7.29928"><ele></ele><time>2023-7-27T23:52:17Z</time></trkpt>
<trkpt lat="46.24526" lon="7.29905"><ele></ele><time>2023-7-27T23:52:20Z</time></trkpt>
<trkpt lat="46.24516" lon="7.29848"><ele></ele><time>2023-7-27T23:52:23Z</time></trkpt>
<trkpt lat="46.24512" lon="7.29838"><ele></ele><time>2023-7-27T23:52:26Z</time></trkpt>
<trkpt lat="46.24495" lon="7.2981"><ele></ele><time>2023-7-27T23:52:29Z</time></trkpt>
<trkpt lat="46.24489" lon="7.29802"><ele></ele><time>2023-7-27T23:52:32Z</time></trkpt>
<trkpt lat="46.24477" lon="7.29785"><ele></ele><time>2023-7-27T23:52:35Z</time></trkpt>
<trkpt lat="46.24448" lon="7.29743"><ele></ele><time>2023-7-27T23:52:38Z</time></trkpt>
<trkpt lat="46.24425" lon="7.29711"><ele></ele><time>2023-7-27T23:52:41Z</time></trkpt>
<trkpt lat="46.24412" lon="7.29696"><ele></ele><time>2023-7-27T23:52:44Z</time></trkpt>
<trkpt lat="46.24379" lon="7.29661"><ele></ele><time>2023-7-27T23:52:47Z</time></trkpt>
<trkpt lat="46.24347" lon="7.29633"><ele></ele><time>2023-7-27T23:52:50Z</time></trkpt>
<trkpt lat="46.2434" lon="7.2963"><ele></ele><time>2023-7-27T23:52:53Z</time></trkpt>
<trkpt lat="46.24332" lon="7.29629"><ele></ele><time>2023-7-27T23:52:56Z</time></trkpt>
<trkpt lat="46.24325" lon="7.29628"><ele></ele><time>2023-7-27T23:52:59Z</time></trkpt>
<trkpt lat="46.24304" lon="7.29622"><ele></ele><time>2023-7-27T23:53:2Z</time></trkpt>
<trkpt lat="46.2427" lon="7.29609"><ele></ele><time>2023-7-27T23:53:5Z</time></trkpt>
<trkpt lat="46.24243" lon="7.29597"><ele></ele><time>2023-7-27T23:53:8Z</time></trkpt>
<trkpt lat="46.24191" lon="7.2958"><ele></ele><time>2023-7-27T23:53:11Z</time></trkpt>
<trkpt lat="46.24146" lon="7.29578"><ele></ele><time>2023-7-27T23:53:14Z</time></trkpt>
<trkpt lat="46.24136" lon="7.29578"><ele></ele><time>2023-7-27T23:53:17Z</time></trkpt>
<trkpt lat="46.24096" lon="7.29572"><ele></ele><time>2023-7-27T23:53:20Z</time></trkpt>
<trkpt lat="46.24091" lon="7.29569"><ele></ele><time>2023-7-27T23:53:23Z</time></trkpt>
<trkpt lat="46.24078" lon="7.29562"><ele></ele><time>2023-7-27T23:53:26Z</time></trkpt>
<trkpt lat="46.24074" lon="7.29559"><ele></ele><time>2023-7-27T23:53:29Z</time></trkpt>
<trkpt lat="46.24064" lon="7.2955"><ele></ele><time>2023-7-27T23:53:32Z</time></trkpt>
<trkpt lat="46.24045" lon="7.29534"><ele></ele><time>2023-7-27T23:53:35Z</time></trkpt>
<trkpt lat="46.24026" lon="7.29519"><ele></ele><time>2023-7-27T23:53:38Z</time></trkpt>
<trkpt lat="46.24022" lon="7.29515"><ele></ele><time>2023-7-27T23:53:41Z</time></trkpt>
<trkpt lat="46.23998" lon="7.29484"><ele></ele><time>2023-7-27T23:53:44Z</time></trkpt>
<trkpt lat="46.23988" lon="7.29473"><ele></ele><time>2023-7-27T23:53:47Z</time></trkpt>
<trkpt lat="46.23972" lon="7.29455"><ele></ele><time>2023-7-27T23:53:50Z</time></trkpt>
<trkpt lat="46.23962" lon="7.29443"><ele></ele><time>2023-7-27T23:53:53Z</time></trkpt>
<trkpt lat="46.23938" lon="7.29419"><ele></ele><time>2023-7-27T23:53:56Z</time></trkpt>
<trkpt lat="46.23931" lon="7.29413"><ele></ele><time>2023-7-27T23:53:59Z</time></trkpt>
<trkpt lat="46.23925" lon="7.29407"><ele></ele><time>2023-7-27T23:54:2Z</time></trkpt>
<trkpt lat="46.23918" lon="7.294"><ele></ele><time>2023-7-27T23:54:5Z</time></trkpt>
<trkpt lat="46.23911" lon="7.29393"><ele></ele><time>2023-7-27T23:54:8Z</time></trkpt>
<trkpt lat="46.23905" lon="7.29386"><ele></ele><time>2023-7-27T23:54:11Z</time></trkpt>
<trkpt lat="46.23892" lon="7.29371"><ele></ele><time>2023-7-27T23:54:14Z</time></trkpt>
<trkpt lat="46.23886" lon="7.29362"><ele></ele><time>2023-7-27T23:54:17Z</time></trkpt>
<trkpt lat="46.23876" lon="7.29342"><ele></ele><time>2023-7-27T23:54:20Z</time></trkpt>
<trkpt lat="46.23871" lon="7.29332"><ele></ele><time>2023-7-27T23:54:23Z</time></trkpt>
<trkpt lat="46.23846" lon="7.29284"><ele></ele><time>2023-7-27T23:54:26Z</time></trkpt>
<trkpt lat="46.23834" lon="7.29258"><ele></ele><time>2023-7-27T23:54:29Z</time></trkpt>
<trkpt lat="46.23824" lon="7.29234"><ele></ele><time>2023-7-27T23:54:32Z</time></trkpt>
<trkpt lat="46.23818" lon="7.2923"><ele></ele><time>2023-7-27T23:54:35Z</time></trkpt>
<trkpt lat="46.23814" lon="7.2923"><ele></ele><time>2023-7-27T23:54:38Z</time></trkpt>
<trkpt lat="46.2381" lon="7.29233"><ele></ele><time>2023-7-27T23:54:41Z</time></trkpt>
<trkpt lat="46.23799" lon="7.29238"><ele></ele><time>2023-7-27T23:54:44Z</time></trkpt>
<trkpt lat="46.23794" lon="7.29241"><ele></ele><time>2023-7-27T23:54:47Z</time></trkpt>
<trkpt lat="46.2379" lon="7.29241"><ele></ele><time>2023-7-27T23:54:50Z</time></trkpt>
<trkpt lat="46.23782" lon="7.29246"><ele></ele><time>2023-7-27T23:54:53Z</time></trkpt>
<trkpt lat="46.23768" lon="7.29255"><ele></ele><time>2023-7-27T23:54:56Z</time></trkpt>
<trkpt lat="46.23759" lon="7.29261"><ele></ele><time>2023-7-27T23:54:59Z</time></trkpt>
<trkpt lat="46.23753" lon="7.29264"><ele></ele><time>2023-7-27T23:55:2Z</time></trkpt>
<trkpt lat="46.23744" lon="7.29271"><ele></ele><time>2023-7-27T23:55:5Z</time></trkpt>
<trkpt lat="46.23739" lon="7.29273"><ele></ele><time>2023-7-27T23:55:8Z</time></trkpt>
<trkpt lat="46.23728" lon="7.29274"><ele></ele><time>2023-7-27T23:55:11Z</time></trkpt>
<trkpt lat="46.23717" lon="7.29271"><ele></ele><time>2023-7-27T23:55:14Z</time></trkpt>
<trkpt lat="46.23711" lon="7.29267"><ele></ele><time>2023-7-27T23:55:17Z</time></trkpt>
<trkpt lat="46.23705" lon="7.29262"><ele></ele><time>2023-7-27T23:55:20Z</time></trkpt>
<trkpt lat="46.23692" lon="7.29249"><ele></ele><time>2023-7-27T23:55:23Z</time></trkpt>
<trkpt lat="46.23684" lon="7.29242"><ele></ele><time>2023-7-27T23:55:26Z</time></trkpt>
<trkpt lat="46.23676" lon="7.29234"><ele></ele><time>2023-7-27T23:55:29Z</time></trkpt>
<trkpt lat="46.2366" lon="7.29219"><ele></ele><time>2023-7-27T23:55:32Z</time></trkpt>
<trkpt lat="46.23647" lon="7.29207"><ele></ele><time>2023-7-27T23:55:35Z</time></trkpt>
<trkpt lat="46.23641" lon="7.29201"><ele></ele><time>2023-7-27T23:55:38Z</time></trkpt>
<trkpt lat="46.23636" lon="7.29194"><ele></ele><time>2023-7-27T23:55:41Z</time></trkpt>
<trkpt lat="46.23631" lon="7.29187"><ele></ele><time>2023-7-27T23:55:44Z</time></trkpt>
<trkpt lat="46.23626" lon="7.29178"><ele></ele><time>2023-7-27T23:55:47Z</time></trkpt>
<trkpt lat="46.23621" lon="7.2917"><ele></ele><time>2023-7-27T23:55:50Z</time></trkpt>
<trkpt lat="46.2361" lon="7.29157"><ele></ele><time>2023-7-27T23:55:53Z</time></trkpt>
<trkpt lat="46.23601" lon="7.29147"><ele></ele><time>2023-7-27T23:55:56Z</time></trkpt>
<trkpt lat="46.23597" lon="7.29143"><ele></ele><time>2023-7-27T23:55:59Z</time></trkpt>
<trkpt lat="46.23586" lon="7.29137"><ele></ele><time>2023-7-27T23:56:2Z</time></trkpt>
<trkpt lat="46.2358" lon="7.29135"><ele></ele><time>2023-7-27T23:56:5Z</time></trkpt>
<trkpt lat="46.23566" lon="7.29132"><ele></ele><time>2023-7-27T23:56:8Z</time></trkpt>
<trkpt lat="46.23543" lon="7.29125"><ele></ele><time>2023-7-27T23:56:11Z</time></trkpt>
<trkpt lat="46.23536" lon="7.2912"><ele></ele><time>2023-7-27T23:56:14Z</time></trkpt>
<trkpt lat="46.23529" lon="7.29113"><ele></ele><time>2023-7-27T23:56:17Z</time></trkpt>
<trkpt lat="46.23522" lon="7.29105"><ele></ele><time>2023-7-27T23:56:20Z</time></trkpt>
<trkpt lat="46.23517" lon="7.29097"><ele></ele><time>2023-7-27T23:56:23Z</time></trkpt>
<trkpt lat="46.23512" lon="7.29089"><ele></ele><time>2023-7-27T23:56:26Z</time></trkpt>
<trkpt lat="46.23509" lon="7.29081"><ele></ele><time>2023-7-27T23:56:29Z</time></trkpt>
<trkpt lat="46.23506" lon="7.29072"><ele></ele><time>2023-7-27T23:56:32Z</time></trkpt>
<trkpt lat="46.23504" lon="7.29062"><ele></ele><time>2023-7-27T23:56:35Z</time></trkpt>
<trkpt lat="46.23504" lon="7.29051"><ele></ele><time>2023-7-27T23:56:38Z</time></trkpt>
<trkpt lat="46.23503" lon="7.29039"><ele></ele><time>2023-7-27T23:56:41Z</time></trkpt>
<trkpt lat="46.23504" lon="7.29025"><ele></ele><time>2023-7-27T23:56:44Z</time></trkpt>
<trkpt lat="46.23506" lon="7.28996"><ele></ele><time>2023-7-27T23:56:47Z</time></trkpt>
<trkpt lat="46.23507" lon="7.28981"><ele></ele><time>2023-7-27T23:56:50Z</time></trkpt>
<trkpt lat="46.2351" lon="7.28955"><ele></ele><time>2023-7-27T23:56:53Z</time></trkpt>
<trkpt lat="46.2351" lon="7.28942"><ele></ele><time>2023-7-27T23:56:56Z</time></trkpt>
<trkpt lat="46.23508" lon="7.28929"><ele></ele><time>2023-7-27T23:56:59Z</time></trkpt>
<trkpt lat="46.23504" lon="7.28918"><ele></ele><time>2023-7-27T23:57:2Z</time></trkpt>
<trkpt lat="46.23498" lon="7.28909"><ele></ele><time>2023-7-27T23:57:5Z</time></trkpt>
<trkpt lat="46.2349" lon="7.28902"><ele></ele><time>2023-7-27T23:57:8Z</time></trkpt>
<trkpt lat="46.23483" lon="7.28894"><ele></ele><time>2023-7-27T23:57:11Z</time></trkpt>
<trkpt lat="46.23477" lon="7.28884"><ele></ele><time>2023-7-27T23:57:14Z</time></trkpt>
<trkpt lat="46.23473" lon="7.28874"><ele></ele><time>2023-7-27T23:57:17Z</time></trkpt>
<trkpt lat="46.23452" lon="7.28831"><ele></ele><time>2023-7-27T23:57:20Z</time></trkpt>
<trkpt lat="46.23447" lon="7.28825"><ele></ele><time>2023-7-27T23:57:23Z</time></trkpt>
<trkpt lat="46.23442" lon="7.28818"><ele></ele><time>2023-7-27T23:57:26Z</time></trkpt>
<trkpt lat="46.23427" lon="7.28798"><ele></ele><time>2023-7-27T23:57:29Z</time></trkpt>
<trkpt lat="46.23408" lon="7.28757"><ele></ele><time>2023-7-27T23:57:32Z</time></trkpt>
<trkpt lat="46.23404" lon="7.28749"><ele></ele><time>2023-7-27T23:57:35Z</time></trkpt>
<trkpt lat="46.23387" lon="7.28718"><ele></ele><time>2023-7-27T23:57:38Z</time></trkpt>
<trkpt lat="46.2338" lon="7.28701"><ele></ele><time>2023-7-27T23:57:41Z</time></trkpt>
<trkpt lat="46.23373" lon="7.28676"><ele></ele><time>2023-7-27T23:57:44Z</time></trkpt>
<trkpt lat="46.23368" lon="7.28649"><ele></ele><time>2023-7-27T23:57:47Z</time></trkpt>
<trkpt lat="46.23366" lon="7.28639"><ele></ele><time>2023-7-27T23:57:50Z</time></trkpt>
<trkpt lat="46.23366" lon="7.28629"><ele></ele><time>2023-7-27T23:57:53Z</time></trkpt>
<trkpt lat="46.23367" lon="7.28608"><ele></ele><time>2023-7-27T23:57:56Z</time></trkpt>
<trkpt lat="46.23368" lon="7.28597"><ele></ele><time>2023-7-27T23:57:59Z</time></trkpt>
<trkpt lat="46.23373" lon="7.28544"><ele></ele><time>2023-7-27T23:58:2Z</time></trkpt>
<trkpt lat="46.23373" lon="7.28522"><ele></ele><time>2023-7-27T23:58:5Z</time></trkpt>
<trkpt lat="46.23372" lon="7.285"><ele></ele><time>2023-7-27T23:58:8Z</time></trkpt>
<trkpt lat="46.23373" lon="7.28479"><ele></ele><time>2023-7-27T23:58:11Z</time></trkpt>
<trkpt lat="46.23376" lon="7.28469"><ele></ele><time>2023-7-27T23:58:14Z</time></trkpt>
<trkpt lat="46.23379" lon="7.28459"><ele></ele><time>2023-7-27T23:58:17Z</time></trkpt>
<trkpt lat="46.23383" lon="7.2845"><ele></ele><time>2023-7-27T23:58:20Z</time></trkpt>
<trkpt lat="46.23389" lon="7.2843"><ele></ele><time>2023-7-27T23:58:23Z</time></trkpt>
<trkpt lat="46.23392" lon="7.28386"><ele></ele><time>2023-7-27T23:58:26Z</time></trkpt>
<trkpt lat="46.23392" lon="7.28374"><ele></ele><time>2023-7-27T23:58:29Z</time></trkpt>
<trkpt lat="46.23388" lon="7.28351"><ele></ele><time>2023-7-27T23:58:32Z</time></trkpt>
<trkpt lat="46.23385" lon="7.28339"><ele></ele><time>2023-7-27T23:58:35Z</time></trkpt>
<trkpt lat="46.23376" lon="7.28305"><ele></ele><time>2023-7-27T23:58:38Z</time></trkpt>
<trkpt lat="46.23365" lon="7.28258"><ele></ele><time>2023-7-27T23:58:41Z</time></trkpt>
<trkpt lat="46.2336" lon="7.28235"><ele></ele><time>2023-7-27T23:58:44Z</time></trkpt>
<trkpt lat="46.23359" lon="7.28211"><ele></ele><time>2023-7-27T23:58:47Z</time></trkpt>
<trkpt lat="46.23359" lon="7.28199"><ele></ele><time>2023-7-27T23:58:50Z</time></trkpt>
<trkpt lat="46.23358" lon="7.2816"><ele></ele><time>2023-7-27T23:58:53Z</time></trkpt>
<trkpt lat="46.23355" lon="7.28147"><ele></ele><time>2023-7-27T23:58:56Z</time></trkpt>
<trkpt lat="46.23352" lon="7.28136"><ele></ele><time>2023-7-27T23:58:59Z</time></trkpt>
<trkpt lat="46.23348" lon="7.28124"><ele></ele><time>2023-7-27T23:59:2Z</time></trkpt>
<trkpt lat="46.23341" lon="7.28102"><ele></ele><time>2023-7-27T23:59:5Z</time></trkpt>
<trkpt lat="46.23332" lon="7.2807"><ele></ele><time>2023-7-27T23:59:8Z</time></trkpt>
<trkpt lat="46.23325" lon="7.28056"><ele></ele><time>2023-7-27T23:59:11Z</time></trkpt>
<trkpt lat="46.23321" lon="7.28053"><ele></ele><time>2023-7-27T23:59:14Z</time></trkpt>
<trkpt lat="46.23315" lon="7.2805"><ele></ele><time>2023-7-27T23:59:17Z</time></trkpt>
<trkpt lat="46.23303" lon="7.28043"><ele></ele><time>2023-7-27T23:59:20Z</time></trkpt>
<trkpt lat="46.23297" lon="7.2804"><ele></ele><time>2023-7-27T23:59:23Z</time></trkpt>
<trkpt lat="46.23292" lon="7.28037"><ele></ele><time>2023-7-27T23:59:26Z</time></trkpt>
<trkpt lat="46.23286" lon="7.28031"><ele></ele><time>2023-7-27T23:59:29Z</time></trkpt>
<trkpt lat="46.23283" lon="7.28025"><ele></ele><time>2023-7-27T23:59:32Z</time></trkpt>
<trkpt lat="46.23285" lon="7.28021"><ele></ele><time>2023-7-27T23:59:35Z</time></trkpt>
<trkpt lat="46.23289" lon="7.28018"><ele></ele><time>2023-7-27T23:59:38Z</time></trkpt>
<trkpt lat="46.23295" lon="7.28017"><ele></ele><time>2023-7-27T23:59:41Z</time></trkpt>
<trkpt lat="46.23302" lon="7.28014"><ele></ele><time>2023-7-27T23:59:44Z</time></trkpt>
<trkpt lat="46.23306" lon="7.28008"><ele></ele><time>2023-7-27T23:59:47Z</time></trkpt>
<trkpt lat="46.23308" lon="7.28001"><ele></ele><time>2023-7-27T23:59:50Z</time></trkpt>
<trkpt lat="46.23308" lon="7.27993"><ele></ele><time>2023-7-27T23:59:53Z</time></trkpt>
<trkpt lat="46.23303" lon="7.27987"><ele></ele><time>2023-7-27T23:59:56Z</time></trkpt>
<trkpt lat="46.23296" lon="7.27983"><ele></ele><time>2023-7-27T23:59:59Z</time></trkpt>
<trkpt lat="46.23281" lon="7.27972"><ele></ele><time>2023-7-28T0:0:2Z</time></trkpt>
<trkpt lat="46.23263" lon="7.27963"><ele></ele><time>2023-7-28T0:0:5Z</time></trkpt>
<trkpt lat="46.23254" lon="7.27959"><ele></ele><time>2023-7-28T0:0:8Z</time></trkpt>
<trkpt lat="46.23244" lon="7.27955"><ele></ele><time>2023-7-28T0:0:11Z</time></trkpt>
<trkpt lat="46.23235" lon="7.27953"><ele></ele><time>2023-7-28T0:0:14Z</time></trkpt>
<trkpt lat="46.23219" lon="7.27945"><ele></ele><time>2023-7-28T0:0:17Z</time></trkpt>
<trkpt lat="46.23213" lon="7.2794"><ele></ele><time>2023-7-28T0:0:20Z</time></trkpt>
<trkpt lat="46.23207" lon="7.27934"><ele></ele><time>2023-7-28T0:0:23Z</time></trkpt>
<trkpt lat="46.2319" lon="7.27911"><ele></ele><time>2023-7-28T0:0:26Z</time></trkpt>
<trkpt lat="46.23184" lon="7.27903"><ele></ele><time>2023-7-28T0:0:29Z</time></trkpt>
<trkpt lat="46.2318" lon="7.27896"><ele></ele><time>2023-7-28T0:0:32Z</time></trkpt>
<trkpt lat="46.23177" lon="7.2789"><ele></ele><time>2023-7-28T0:0:35Z</time></trkpt>
<trkpt lat="46.23175" lon="7.27882"><ele></ele><time>2023-7-28T0:0:38Z</time></trkpt>
<trkpt lat="46.23173" lon="7.27874"><ele></ele><time>2023-7-28T0:0:41Z</time></trkpt>
<trkpt lat="46.23173" lon="7.27866"><ele></ele><time>2023-7-28T0:0:44Z</time></trkpt>
<trkpt lat="46.23172" lon="7.27848"><ele></ele><time>2023-7-28T0:0:47Z</time></trkpt>
<trkpt lat="46.23173" lon="7.27838"><ele></ele><time>2023-7-28T0:0:50Z</time></trkpt>
<trkpt lat="46.23174" lon="7.2783"><ele></ele><time>2023-7-28T0:0:53Z</time></trkpt>
<trkpt lat="46.23175" lon="7.27822"><ele></ele><time>2023-7-28T0:0:56Z</time></trkpt>
<trkpt lat="46.23176" lon="7.27816"><ele></ele><time>2023-7-28T0:0:59Z</time></trkpt>
<trkpt lat="46.23177" lon="7.2781"><ele></ele><time>2023-7-28T0:1:2Z</time></trkpt>
<trkpt lat="46.23176" lon="7.27804"><ele></ele><time>2023-7-28T0:1:5Z</time></trkpt>
<trkpt lat="46.23172" lon="7.27801"><ele></ele><time>2023-7-28T0:1:8Z</time></trkpt>
<trkpt lat="46.23166" lon="7.27802"><ele></ele><time>2023-7-28T0:1:11Z</time></trkpt>
<trkpt lat="46.23161" lon="7.27807"><ele></ele><time>2023-7-28T0:1:14Z</time></trkpt>
<trkpt lat="46.23155" lon="7.27811"><ele></ele><time>2023-7-28T0:1:17Z</time></trkpt>
<trkpt lat="46.23149" lon="7.27815"><ele></ele><time>2023-7-28T0:1:20Z</time></trkpt>
<trkpt lat="46.23136" lon="7.27816"><ele></ele><time>2023-7-28T0:1:23Z</time></trkpt>
<trkpt lat="46.23125" lon="7.2781"><ele></ele><time>2023-7-28T0:1:26Z</time></trkpt>
<trkpt lat="46.2312" lon="7.27805"><ele></ele><time>2023-7-28T0:1:29Z</time></trkpt>
<trkpt lat="46.23103" lon="7.27791"><ele></ele><time>2023-7-28T0:1:32Z</time></trkpt>
<trkpt lat="46.23095" lon="7.27779"><ele></ele><time>2023-7-28T0:1:35Z</time></trkpt>
<trkpt lat="46.23074" lon="7.27739"><ele></ele><time>2023-7-28T0:1:38Z</time></trkpt>
<trkpt lat="46.23057" lon="7.27713"><ele></ele><time>2023-7-28T0:1:41Z</time></trkpt>
<trkpt lat="46.23047" lon="7.27698"><ele></ele><time>2023-7-28T0:1:44Z</time></trkpt>
<trkpt lat="46.23041" lon="7.27691"><ele></ele><time>2023-7-28T0:1:47Z</time></trkpt>
<trkpt lat="46.23028" lon="7.27675"><ele></ele><time>2023-7-28T0:1:50Z</time></trkpt>
<trkpt lat="46.23015" lon="7.27659"><ele></ele><time>2023-7-28T0:1:53Z</time></trkpt>
<trkpt lat="46.23008" lon="7.27651"><ele></ele><time>2023-7-28T0:1:56Z</time></trkpt>
<trkpt lat="46.22993" lon="7.27637"><ele></ele><time>2023-7-28T0:1:59Z</time></trkpt>
<trkpt lat="46.22977" lon="7.27623"><ele></ele><time>2023-7-28T0:2:2Z</time></trkpt>
<trkpt lat="46.22968" lon="7.27614"><ele></ele><time>2023-7-28T0:2:5Z</time></trkpt>
<trkpt lat="46.2296" lon="7.27606"><ele></ele><time>2023-7-28T0:2:8Z</time></trkpt>
<trkpt lat="46.22952" lon="7.27597"><ele></ele><time>2023-7-28T0:2:11Z</time></trkpt>
<trkpt lat="46.22944" lon="7.27588"><ele></ele><time>2023-7-28T0:2:14Z</time></trkpt>
<trkpt lat="46.22936" lon="7.27578"><ele></ele><time>2023-7-28T0:2:17Z</time></trkpt>
<trkpt lat="46.2293" lon="7.27567"><ele></ele><time>2023-7-28T0:2:20Z</time></trkpt>
<trkpt lat="46.22925" lon="7.27556"><ele></ele><time>2023-7-28T0:2:23Z</time></trkpt>
<trkpt lat="46.22921" lon="7.27547"><ele></ele><time>2023-7-28T0:2:26Z</time></trkpt>
<trkpt lat="46.22916" lon="7.27538"><ele></ele><time>2023-7-28T0:2:29Z</time></trkpt>
<trkpt lat="46.2291" lon="7.27531"><ele></ele><time>2023-7-28T0:2:32Z</time></trkpt>
<trkpt lat="46.22905" lon="7.27525"><ele></ele><time>2023-7-28T0:2:35Z</time></trkpt>
<trkpt lat="46.22891" lon="7.27516"><ele></ele><time>2023-7-28T0:2:38Z</time></trkpt>
<trkpt lat="46.22884" lon="7.27509"><ele></ele><time>2023-7-28T0:2:41Z</time></trkpt>
<trkpt lat="46.22877" lon="7.27502"><ele></ele><time>2023-7-28T0:2:44Z</time></trkpt>
<trkpt lat="46.22862" lon="7.27491"><ele></ele><time>2023-7-28T0:2:47Z</time></trkpt>
<trkpt lat="46.22853" lon="7.27486"><ele></ele><time>2023-7-28T0:2:50Z</time></trkpt>
<trkpt lat="46.22844" lon="7.27481"><ele></ele><time>2023-7-28T0:2:53Z</time></trkpt>
<trkpt lat="46.22826" lon="7.27471"><ele></ele><time>2023-7-28T0:2:56Z</time></trkpt>
<trkpt lat="46.2281" lon="7.27457"><ele></ele><time>2023-7-28T0:2:59Z</time></trkpt>
<trkpt lat="46.22802" lon="7.27449"><ele></ele><time>2023-7-28T0:3:2Z</time></trkpt>
<trkpt lat="46.22779" lon="7.27427"><ele></ele><time>2023-7-28T0:3:5Z</time></trkpt>
<trkpt lat="46.22771" lon="7.27421"><ele></ele><time>2023-7-28T0:3:8Z</time></trkpt>
<trkpt lat="46.22763" lon="7.27414"><ele></ele><time>2023-7-28T0:3:11Z</time></trkpt>
<trkpt lat="46.22746" lon="7.27399"><ele></ele><time>2023-7-28T0:3:14Z</time></trkpt>
<trkpt lat="46.22738" lon="7.27392"><ele></ele><time>2023-7-28T0:3:17Z</time></trkpt>
<trkpt lat="46.22723" lon="7.2738"><ele></ele><time>2023-7-28T0:3:20Z</time></trkpt>
<trkpt lat="46.22716" lon="7.27375"><ele></ele><time>2023-7-28T0:3:23Z</time></trkpt>
<trkpt lat="46.22702" lon="7.27366"><ele></ele><time>2023-7-28T0:3:26Z</time></trkpt>
<trkpt lat="46.22688" lon="7.2736"><ele></ele><time>2023-7-28T0:3:29Z</time></trkpt>
<trkpt lat="46.22683" lon="7.27358"><ele></ele><time>2023-7-28T0:3:32Z</time></trkpt>
<trkpt lat="46.22679" lon="7.27355"><ele></ele><time>2023-7-28T0:3:35Z</time></trkpt>
<trkpt lat="46.22677" lon="7.27352"><ele></ele><time>2023-7-28T0:3:38Z</time></trkpt>
<trkpt lat="46.22677" lon="7.27348"><ele></ele><time>2023-7-28T0:3:41Z</time></trkpt>
<trkpt lat="46.22682" lon="7.27345"><ele></ele><time>2023-7-28T0:3:44Z</time></trkpt>
<trkpt lat="46.22691" lon="7.27345"><ele></ele><time>2023-7-28T0:3:47Z</time></trkpt>
<trkpt lat="46.22697" lon="7.27343"><ele></ele><time>2023-7-28T0:3:50Z</time></trkpt>
<trkpt lat="46.22702" lon="7.27337"><ele></ele><time>2023-7-28T0:3:53Z</time></trkpt>
<trkpt lat="46.22705" lon="7.27328"><ele></ele><time>2023-7-28T0:3:56Z</time></trkpt>
<trkpt lat="46.22704" lon="7.27317"><ele></ele><time>2023-7-28T0:3:59Z</time></trkpt>
<trkpt lat="46.22701" lon="7.27306"><ele></ele><time>2023-7-28T0:4:2Z</time></trkpt>
<trkpt lat="46.22695" lon="7.27296"><ele></ele><time>2023-7-28T0:4:5Z</time></trkpt>
<trkpt lat="46.22689" lon="7.27286"><ele></ele><time>2023-7-28T0:4:8Z</time></trkpt>
<trkpt lat="46.22682" lon="7.27277"><ele></ele><time>2023-7-28T0:4:11Z</time></trkpt>
<trkpt lat="46.22674" lon="7.27268"><ele></ele><time>2023-7-28T0:4:14Z</time></trkpt>
<trkpt lat="46.22659" lon="7.27248"><ele></ele><time>2023-7-28T0:4:17Z</time></trkpt>
<trkpt lat="46.22645" lon="7.27228"><ele></ele><time>2023-7-28T0:4:20Z</time></trkpt>
<trkpt lat="46.22639" lon="7.27218"><ele></ele><time>2023-7-28T0:4:23Z</time></trkpt>
<trkpt lat="46.22634" lon="7.27209"><ele></ele><time>2023-7-28T0:4:26Z</time></trkpt>
<trkpt lat="46.22628" lon="7.27201"><ele></ele><time>2023-7-28T0:4:29Z</time></trkpt>
<trkpt lat="46.22623" lon="7.27194"><ele></ele><time>2023-7-28T0:4:32Z</time></trkpt>
<trkpt lat="46.22617" lon="7.27188"><ele></ele><time>2023-7-28T0:4:35Z</time></trkpt>
<trkpt lat="46.22607" lon="7.27178"><ele></ele><time>2023-7-28T0:4:38Z</time></trkpt>
<trkpt lat="46.22601" lon="7.27173"><ele></ele><time>2023-7-28T0:4:41Z</time></trkpt>
<trkpt lat="46.22596" lon="7.27169"><ele></ele><time>2023-7-28T0:4:44Z</time></trkpt>
<trkpt lat="46.22591" lon="7.27167"><ele></ele><time>2023-7-28T0:4:47Z</time></trkpt>
<trkpt lat="46.22581" lon="7.27173"><ele></ele><time>2023-7-28T0:4:50Z</time></trkpt>
<trkpt lat="46.22578" lon="7.27179"><ele></ele><time>2023-7-28T0:4:53Z</time></trkpt>
<trkpt lat="46.22577" lon="7.27185"><ele></ele><time>2023-7-28T0:4:56Z</time></trkpt>
<trkpt lat="46.22577" lon="7.27192"><ele></ele><time>2023-7-28T0:4:59Z</time></trkpt>
<trkpt lat="46.22577" lon="7.27242"><ele></ele><time>2023-7-28T0:5:2Z</time></trkpt>
<trkpt lat="46.22578" lon="7.27278"><ele></ele><time>2023-7-28T0:5:5Z</time></trkpt>
<trkpt lat="46.22578" lon="7.27294"><ele></ele><time>2023-7-28T0:5:8Z</time></trkpt>
<trkpt lat="46.22578" lon="7.27309"><ele></ele><time>2023-7-28T0:5:11Z</time></trkpt>
<trkpt lat="46.22579" lon="7.27316"><ele></ele><time>2023-7-28T0:5:14Z</time></trkpt>
<trkpt lat="46.22579" lon="7.27323"><ele></ele><time>2023-7-28T0:5:17Z</time></trkpt>
<trkpt lat="46.22581" lon="7.2733"><ele></ele><time>2023-7-28T0:5:20Z</time></trkpt>
<trkpt lat="46.22586" lon="7.27343"><ele></ele><time>2023-7-28T0:5:23Z</time></trkpt>
<trkpt lat="46.22592" lon="7.27362"><ele></ele><time>2023-7-28T0:5:26Z</time></trkpt>
<trkpt lat="46.22596" lon="7.27387"><ele></ele><time>2023-7-28T0:5:29Z</time></trkpt>
<trkpt lat="46.22597" lon="7.274"><ele></ele><time>2023-7-28T0:5:32Z</time></trkpt>
<trkpt lat="46.22598" lon="7.27413"><ele></ele><time>2023-7-28T0:5:35Z</time></trkpt>
<trkpt lat="46.226" lon="7.27424"><ele></ele><time>2023-7-28T0:5:38Z</time></trkpt>
<trkpt lat="46.22603" lon="7.27434"><ele></ele><time>2023-7-28T0:5:41Z</time></trkpt>
<trkpt lat="46.22609" lon="7.27443"><ele></ele><time>2023-7-28T0:5:44Z</time></trkpt>
<trkpt lat="46.22615" lon="7.27452"><ele></ele><time>2023-7-28T0:5:47Z</time></trkpt>
<trkpt lat="46.2262" lon="7.27462"><ele></ele><time>2023-7-28T0:5:50Z</time></trkpt>
<trkpt lat="46.22625" lon="7.27472"><ele></ele><time>2023-7-28T0:5:53Z</time></trkpt>
<trkpt lat="46.22635" lon="7.27491"><ele></ele><time>2023-7-28T0:5:56Z</time></trkpt>
<trkpt lat="46.2264" lon="7.27499"><ele></ele><time>2023-7-28T0:5:59Z</time></trkpt>
<trkpt lat="46.22661" lon="7.27535"><ele></ele><time>2023-7-28T0:6:2Z</time></trkpt>
<trkpt lat="46.22666" lon="7.27554"><ele></ele><time>2023-7-28T0:6:5Z</time></trkpt>
<trkpt lat="46.22667" lon="7.27563"><ele></ele><time>2023-7-28T0:6:8Z</time></trkpt>
<trkpt lat="46.22669" lon="7.27571"><ele></ele><time>2023-7-28T0:6:11Z</time></trkpt>
<trkpt lat="46.22672" lon="7.27578"><ele></ele><time>2023-7-28T0:6:14Z</time></trkpt>
<trkpt lat="46.22675" lon="7.27584"><ele></ele><time>2023-7-28T0:6:17Z</time></trkpt>
<trkpt lat="46.22678" lon="7.27589"><ele></ele><time>2023-7-28T0:6:20Z</time></trkpt>
<trkpt lat="46.22685" lon="7.276"><ele></ele><time>2023-7-28T0:6:23Z</time></trkpt>
<trkpt lat="46.22689" lon="7.27605"><ele></ele><time>2023-7-28T0:6:26Z</time></trkpt>
<trkpt lat="46.22692" lon="7.2761"><ele></ele><time>2023-7-28T0:6:29Z</time></trkpt>
<trkpt lat="46.22702" lon="7.27626"><ele></ele><time>2023-7-28T0:6:32Z</time></trkpt>
<trkpt lat="46.22713" lon="7.27642"><ele></ele><time>2023-7-28T0:6:35Z</time></trkpt>
<trkpt lat="46.2272" lon="7.27652"><ele></ele><time>2023-7-28T0:6:38Z</time></trkpt>
<trkpt lat="46.2273" lon="7.27667"><ele></ele><time>2023-7-28T0:6:41Z</time></trkpt>
<trkpt lat="46.22745" lon="7.27691"><ele></ele><time>2023-7-28T0:6:44Z</time></trkpt>
<trkpt lat="46.22754" lon="7.27704"><ele></ele><time>2023-7-28T0:6:47Z</time></trkpt>
<trkpt lat="46.22763" lon="7.27719"><ele></ele><time>2023-7-28T0:6:50Z</time></trkpt>
<trkpt lat="46.2277" lon="7.27736"><ele></ele><time>2023-7-28T0:6:53Z</time></trkpt>
<trkpt lat="46.22772" lon="7.27746"><ele></ele><time>2023-7-28T0:6:56Z</time></trkpt>
<trkpt lat="46.22773" lon="7.27757"><ele></ele><time>2023-7-28T0:6:59Z</time></trkpt>
<trkpt lat="46.22777" lon="7.27778"><ele></ele><time>2023-7-28T0:7:2Z</time></trkpt>
<trkpt lat="46.2278" lon="7.27789"><ele></ele><time>2023-7-28T0:7:5Z</time></trkpt>
<trkpt lat="46.22784" lon="7.27799"><ele></ele><time>2023-7-28T0:7:8Z</time></trkpt>
<trkpt lat="46.22794" lon="7.2782"><ele></ele><time>2023-7-28T0:7:11Z</time></trkpt>
<trkpt lat="46.228" lon="7.27829"><ele></ele><time>2023-7-28T0:7:14Z</time></trkpt>
<trkpt lat="46.22804" lon="7.2784"><ele></ele><time>2023-7-28T0:7:17Z</time></trkpt>
<trkpt lat="46.22806" lon="7.27853"><ele></ele><time>2023-7-28T0:7:20Z</time></trkpt>
<trkpt lat="46.22805" lon="7.27866"><ele></ele><time>2023-7-28T0:7:23Z</time></trkpt>
<trkpt lat="46.228" lon="7.27879"><ele></ele><time>2023-7-28T0:7:26Z</time></trkpt>
<trkpt lat="46.22795" lon="7.27892"><ele></ele><time>2023-7-28T0:7:29Z</time></trkpt>
<trkpt lat="46.22785" lon="7.27915"><ele></ele><time>2023-7-28T0:7:32Z</time></trkpt>
<trkpt lat="46.22781" lon="7.27925"><ele></ele><time>2023-7-28T0:7:35Z</time></trkpt>
<trkpt lat="46.22777" lon="7.27934"><ele></ele><time>2023-7-28T0:7:38Z</time></trkpt>
<trkpt lat="46.22774" lon="7.27943"><ele></ele><time>2023-7-28T0:7:41Z</time></trkpt>
<trkpt lat="46.22771" lon="7.2795"><ele></ele><time>2023-7-28T0:7:44Z</time></trkpt>
<trkpt lat="46.22769" lon="7.27956"><ele></ele><time>2023-7-28T0:7:47Z</time></trkpt>
<trkpt lat="46.22765" lon="7.27969"><ele></ele><time>2023-7-28T0:7:50Z</time></trkpt>
<trkpt lat="46.22765" lon="7.27976"><ele></ele><time>2023-7-28T0:7:53Z</time></trkpt>
<trkpt lat="46.22768" lon="7.27985"><ele></ele><time>2023-7-28T0:7:56Z</time></trkpt>
<trkpt lat="46.22773" lon="7.28005"><ele></ele><time>2023-7-28T0:7:59Z</time></trkpt>
<trkpt lat="46.22776" lon="7.28019"><ele></ele><time>2023-7-28T0:8:2Z</time></trkpt>
<trkpt lat="46.22777" lon="7.28033"><ele></ele><time>2023-7-28T0:8:5Z</time></trkpt>
<trkpt lat="46.22776" lon="7.28049"><ele></ele><time>2023-7-28T0:8:8Z</time></trkpt>
<trkpt lat="46.22773" lon="7.28064"><ele></ele><time>2023-7-28T0:8:11Z</time></trkpt>
<trkpt lat="46.22769" lon="7.28078"><ele></ele><time>2023-7-28T0:8:14Z</time></trkpt>
<trkpt lat="46.22765" lon="7.28094"><ele></ele><time>2023-7-28T0:8:17Z</time></trkpt>
<trkpt lat="46.22758" lon="7.2812"><ele></ele><time>2023-7-28T0:8:20Z</time></trkpt>
<trkpt lat="46.22756" lon="7.28132"><ele></ele><time>2023-7-28T0:8:23Z</time></trkpt>
<trkpt lat="46.22752" lon="7.2815"><ele></ele><time>2023-7-28T0:8:26Z</time></trkpt>
<trkpt lat="46.22748" lon="7.2816"><ele></ele><time>2023-7-28T0:8:29Z</time></trkpt>
<trkpt lat="46.22746" lon="7.28165"><ele></ele><time>2023-7-28T0:8:32Z</time></trkpt>
<trkpt lat="46.22745" lon="7.2817"><ele></ele><time>2023-7-28T0:8:35Z</time></trkpt>
<trkpt lat="46.22744" lon="7.28176"><ele></ele><time>2023-7-28T0:8:38Z</time></trkpt>
<trkpt lat="46.22745" lon="7.28186"><ele></ele><time>2023-7-28T0:8:41Z</time></trkpt>
<trkpt lat="46.22744" lon="7.28197"><ele></ele><time>2023-7-28T0:8:44Z</time></trkpt>
<trkpt lat="46.22738" lon="7.28202"><ele></ele><time>2023-7-28T0:8:47Z</time></trkpt>
<trkpt lat="46.2273" lon="7.28194"><ele></ele><time>2023-7-28T0:8:50Z</time></trkpt>
<trkpt lat="46.22726" lon="7.28193"><ele></ele><time>2023-7-28T0:8:53Z</time></trkpt>
<trkpt lat="46.22714" lon="7.28195"><ele></ele><time>2023-7-28T0:8:56Z</time></trkpt>
<trkpt lat="46.22702" lon="7.28199"><ele></ele><time>2023-7-28T0:8:59Z</time></trkpt>
<trkpt lat="46.22697" lon="7.28201"><ele></ele><time>2023-7-28T0:9:2Z</time></trkpt>
<trkpt lat="46.22693" lon="7.28202"><ele></ele><time>2023-7-28T0:9:5Z</time></trkpt>
<trkpt lat="46.22688" lon="7.28204"><ele></ele><time>2023-7-28T0:9:8Z</time></trkpt>
<trkpt lat="46.22687" lon="7.28206"><ele></ele><time>2023-7-28T0:9:11Z</time></trkpt>
<trkpt lat="46.22689" lon="7.28227"><ele></ele><time>2023-7-28T0:9:14Z</time></trkpt>
<trkpt lat="46.22692" lon="7.28264"><ele></ele><time>2023-7-28T0:9:17Z</time></trkpt>
<trkpt lat="46.22693" lon="7.28289"><ele></ele><time>2023-7-28T0:9:20Z</time></trkpt>
<trkpt lat="46.22687" lon="7.28303"><ele></ele><time>2023-7-28T0:9:23Z</time></trkpt>
<trkpt lat="46.22677" lon="7.28314"><ele></ele><time>2023-7-28T0:9:26Z</time></trkpt>
<trkpt lat="46.22665" lon="7.28328"><ele></ele><time>2023-7-28T0:9:29Z</time></trkpt>
<trkpt lat="46.22651" lon="7.28339"><ele></ele><time>2023-7-28T0:9:32Z</time></trkpt>
<trkpt lat="46.22636" lon="7.28345"><ele></ele><time>2023-7-28T0:9:35Z</time></trkpt>
<trkpt lat="46.22628" lon="7.28346"><ele></ele><time>2023-7-28T0:9:38Z</time></trkpt>
<trkpt lat="46.22621" lon="7.28346"><ele></ele><time>2023-7-28T0:9:41Z</time></trkpt>
<trkpt lat="46.22613" lon="7.28345"><ele></ele><time>2023-7-28T0:9:44Z</time></trkpt>
<trkpt lat="46.22606" lon="7.28344"><ele></ele><time>2023-7-28T0:9:47Z</time></trkpt>
<trkpt lat="46.2259" lon="7.28341"><ele></ele><time>2023-7-28T0:9:50Z</time></trkpt>
<trkpt lat="46.22585" lon="7.2834"><ele></ele><time>2023-7-28T0:9:53Z</time></trkpt>
<trkpt lat="46.22577" lon="7.28338"><ele></ele><time>2023-7-28T0:9:56Z</time></trkpt>
<trkpt lat="46.22576" lon="7.28337"><ele></ele><time>2023-7-28T0:9:59Z</time></trkpt>
<trkpt lat="46.22576" lon="7.28337"><ele></ele><time>2023-7-28T0:10:2Z</time></trkpt>
<trkpt lat="46.22576" lon="7.28337"><ele></ele><time>2023-7-28T0:10:5Z</time></trkpt>
<trkpt lat="46.22576" lon="7.28337"><ele></ele><time>2023-7-28T0:10:8Z</time></trkpt>
<trkpt lat="46.22576" lon="7.28337"><ele></ele><time>2023-7-28T0:10:11Z</time></trkpt>
<trkpt lat="46.22572" lon="7.28334"><ele></ele><time>2023-7-28T0:10:14Z</time></trkpt>
<trkpt lat="46.22562" lon="7.28329"><ele></ele><time>2023-7-28T0:10:17Z</time></trkpt>
<trkpt lat="46.22558" lon="7.28329"><ele></ele><time>2023-7-28T0:10:20Z</time></trkpt>
<trkpt lat="46.22548" lon="7.28331"><ele></ele><time>2023-7-28T0:10:23Z</time></trkpt>
<trkpt lat="46.22543" lon="7.28333"><ele></ele><time>2023-7-28T0:10:26Z</time></trkpt>
<trkpt lat="46.22537" lon="7.28336"><ele></ele><time>2023-7-28T0:10:29Z</time></trkpt>
<trkpt lat="46.22521" lon="7.28344"><ele></ele><time>2023-7-28T0:10:32Z</time></trkpt>
<trkpt lat="46.22505" lon="7.28354"><ele></ele><time>2023-7-28T0:10:35Z</time></trkpt>
<trkpt lat="46.22499" lon="7.28356"><ele></ele><time>2023-7-28T0:10:38Z</time></trkpt>
<trkpt lat="46.22483" lon="7.28364"><ele></ele><time>2023-7-28T0:10:41Z</time></trkpt>
<trkpt lat="46.22477" lon="7.28368"><ele></ele><time>2023-7-28T0:10:44Z</time></trkpt>
<trkpt lat="46.22466" lon="7.28375"><ele></ele><time>2023-7-28T0:10:47Z</time></trkpt>
<trkpt lat="46.22435" lon="7.28397"><ele></ele><time>2023-7-28T0:10:50Z</time></trkpt>
<trkpt lat="46.22403" lon="7.28415"><ele></ele><time>2023-7-28T0:10:53Z</time></trkpt>
<trkpt lat="46.22399" lon="7.28417"><ele></ele><time>2023-7-28T0:10:56Z</time></trkpt>
<trkpt lat="46.2239" lon="7.28424"><ele></ele><time>2023-7-28T0:10:59Z</time></trkpt>
<trkpt lat="46.22384" lon="7.28427"><ele></ele><time>2023-7-28T0:11:2Z</time></trkpt>
<trkpt lat="46.22379" lon="7.28428"><ele></ele><time>2023-7-28T0:11:5Z</time></trkpt>
<trkpt lat="46.22374" lon="7.28427"><ele></ele><time>2023-7-28T0:11:8Z</time></trkpt>
<trkpt lat="46.2237" lon="7.28423"><ele></ele><time>2023-7-28T0:11:11Z</time></trkpt>
<trkpt lat="46.22365" lon="7.28411"><ele></ele><time>2023-7-28T0:11:14Z</time></trkpt>
<trkpt lat="46.22348" lon="7.28372"><ele></ele><time>2023-7-28T0:11:17Z</time></trkpt>
<trkpt lat="46.22346" lon="7.28366"><ele></ele><time>2023-7-28T0:11:20Z</time></trkpt>
<trkpt lat="46.22338" lon="7.28348"><ele></ele><time>2023-7-28T0:11:23Z</time></trkpt>
<trkpt lat="46.22329" lon="7.28332"><ele></ele><time>2023-7-28T0:11:26Z</time></trkpt>
<trkpt lat="46.22322" lon="7.28322"><ele></ele><time>2023-7-28T0:11:29Z</time></trkpt>
<trkpt lat="46.22319" lon="7.28321"><ele></ele><time>2023-7-28T0:11:32Z</time></trkpt>
<trkpt lat="46.22321" lon="7.28325"><ele></ele><time>2023-7-28T0:11:35Z</time></trkpt>
</trkseg></trk></gpx>